Darstellungsparameter: Aktuell verwendete Einstellungen:
Skalierung der Graphiken ... ?
xyx+y,   Skalierungsfaktor:      Skalierung: Modus: x, Faktor: 1
Darstellungszeitraum ... ?
Vom - - bis: - -   Zeitraum: 25.04.2010 - 24.04.2020
Min/Max/Avg-Anzeige ... ?
Zeige MMA aktuell
Zeige MMA Monat
Zeige MMA alles
Zeige --A aktuell
Zeige --A Monat
Zeige --A alles
Keine MMA-Anzeige
MMA:
Keine MMA-Graphiken
MMA-Basis: 25.04.2010 - 24.04.2020
Quicknavigation für Darstellung... ?
Tage:      1T, 2T, 3T, 5T -1T -2T -3T -5T +1T +2T +3T +5T
Wochen: 1W, 2W, 3W -1W -2W -3W +1W +2W +3W
Monate: 1M, 3M, 6M -1M -3M -6M +1M +3M +6M
Jahre:    1J, 3J, 5J, 10J -1J -3J -5J -10J +1J +3J +5J +10J
Nutze für die Darstellung ... ?
Originaldaten oder Mittelwerte auf ...
Stundenbasis Tagesbasis Wochenbasis
Monatsbasis Jahresbasis      Datenbasis: Original-Daten
Darstellen als:
Statistik (Auto) Statistik J:M      Darstellung:
Zur Graphik,    zurück zur Übersicht aller Sensoren.
 
Tabellarische Datenbersicht: ?
 
Sensor: Nr:Datum:Temp:Feuchte:Taupunkt:
Aussen-T/F 1 25-04-2010 00:11:04 13.1 C 34 % -2.39 C
2 25-04-2010 00:23:04 12.8 C 35 % -2.26 C
3 25-04-2010 00:35:04 12.7 C 36 % -1.97 C
4 25-04-2010 00:47:04 12.2 C 37 % -2.04 C
5 25-04-2010 00:59:04 12.1 C 39 % -1.42 C
6 25-04-2010 01:11:04 11.8 C 41 % -1.01 C
7 25-04-2010 01:23:04 11.4 C 41 % -1.37 C
8 25-04-2010 01:35:04 11.1 C 41 % -1.64 C
9 25-04-2010 01:47:04 11 C 42 % -1.4 C
10 25-04-2010 01:59:04 10.7 C 45 % -0.73 C
11 25-04-2010 02:11:04 10.5 C 44 % -1.22 C
12 25-04-2010 02:23:04 10.4 C 45 % -1 C
13 25-04-2010 02:35:04 10.1 C 45 % -1.28 C
14 25-04-2010 02:47:04 9.9 C 45 % -1.46 C
15 25-04-2010 02:59:04 9.7 C 46 % -1.34 C
16 25-04-2010 03:11:04 9.3 C 47 % -1.42 C
17 25-04-2010 03:23:04 9.1 C 48 % -1.31 C
18 25-04-2010 03:35:04 9 C 48 % -1.41 C
19 25-04-2010 03:47:04 8.7 C 50 % -1.13 C
20 25-04-2010 03:59:05 8.5 C 52 % -0.78 C
21 25-04-2010 04:11:05 8 C 55 % -0.47 C
22 25-04-2010 04:23:05 8 C 55 % -0.47 C
23 25-04-2010 04:35:05 7.8 C 55 % -0.66 C
24 25-04-2010 04:47:05 7.7 C 56 % -0.51 C
25 25-04-2010 04:59:05 7.6 C 56 % -0.6 C
Sensor: Nr:Datum:Temp:Feuchte:Taupunkt:
Aussen-T/F 26 25-04-2010 05:11:05 7.5 C 56 % -0.7 C
27 25-04-2010 05:23:05 7.2 C 56 % -0.98 C
28 25-04-2010 05:35:05 7 C 58 % -0.68 C
29 25-04-2010 05:47:05 6.8 C 60 % -0.41 C
30 25-04-2010 05:59:05 6.7 C 60 % -0.5 C
31 25-04-2010 06:11:05 6.4 C 61 % -0.56 C
32 25-04-2010 06:23:05 6.3 C 62 % -0.43 C
33 25-04-2010 06:35:05 6.2 C 63 % -0.31 C
34 25-04-2010 06:47:05 6.2 C 63 % -0.31 C
35 25-04-2010 06:59:05 6.2 C 63 % -0.31 C
36 25-04-2010 07:11:04 6.2 C 63 % -0.31 C
37 25-04-2010 07:23:03 6.3 C 64 % 0 C
38 25-04-2010 07:35:03 6.5 C 64 % 0.19 C
39 25-04-2010 07:47:02 6.6 C 65 % 0.5 C
40 25-04-2010 07:59:02 6.7 C 64 % 0.38 C
41 25-04-2010 08:11:01 7 C 63 % 0.45 C
42 25-04-2010 08:23:02 7.3 C 62 % 0.51 C
43 25-04-2010 08:35:01 7.7 C 61 % 0.67 C
44 25-04-2010 08:47:01 8.1 C 60 % 0.82 C
45 25-04-2010 08:59:01 8.5 C 58 % 0.72 C
46 25-04-2010 09:11:02 9 C 56 % 0.71 C
47 25-04-2010 09:23:02 9.6 C 53 % 0.5 C
48 25-04-2010 09:35:01 10.4 C 52 % 0.98 C
49 25-04-2010 09:47:02 11.3 C 51 % 1.54 C
50 25-04-2010 09:59:02 12.2 C 48 % 1.53 C
Sensor: Nr:Datum:Temp:Feuchte:Taupunkt:
Aussen-T/F 51 25-04-2010 10:11:01 13.6 C 45 % 1.91 C
52 25-04-2010 10:23:02 14.8 C 42 % 2.03 C
53 25-04-2010 10:35:01 15.9 C 39 % 1.98 C
54 25-04-2010 10:47:03 16.7 C 38 % 2.33 C
55 25-04-2010 10:59:03 17.4 C 36 % 2.19 C
56 25-04-2010 11:11:02 18.8 C 33 % 2.21 C
57 25-04-2010 11:23:02 19.8 C 25 % -0.77 C
58 25-04-2010 11:35:02 20.8 C 20 % -2.95 C
59 25-04-2010 11:47:02 21.2 C 20 % -2.62 C
60 25-04-2010 11:59:02 21.7 C 20 % -2.21 C
61 25-04-2010 12:11:02 22.1 C 20 % -1.88 C
62 25-04-2010 12:23:02 22.5 C 20 % -1.55 C
63 25-04-2010 12:35:02 22.5 C 20 % -1.55 C
64 25-04-2010 12:47:02 22.9 C 20 % -1.22 C
65 25-04-2010 12:59:02 24 C 20 % -0.32 C
66 25-04-2010 13:11:01 24.4 C 20 % 0.01 C
67 25-04-2010 13:23:02 24.9 C 20 % 0.42 C
68 25-04-2010 13:35:01 24.8 C 20 % 0.34 C
69 25-04-2010 13:47:02 25.2 C 20 % 0.67 C
70 25-04-2010 13:59:02 25.3 C 20 % 0.75 C
71 25-04-2010 14:11:01 25.9 C 20 % 1.24 C
72 25-04-2010 14:23:01 25.8 C 20 % 1.16 C
73 25-04-2010 14:35:01 26.8 C 20 % 1.98 C
74 25-04-2010 14:47:02 26.8 C 20 % 1.98 C
75 25-04-2010 14:59:02 27.4 C 20 % 2.47 C
Sensor: Nr:Datum:Temp:Feuchte:Taupunkt:
Aussen-T/F 76 25-04-2010 15:11:02 28.1 C 20 % 3.05 C
77 25-04-2010 15:23:02 27.8 C 20 % 2.8 C
78 25-04-2010 15:35:02 28.7 C 20 % 3.54 C
79 25-04-2010 15:47:02 28.1 C 20 % 3.05 C
80 25-04-2010 15:59:03 28.5 C 20 % 3.38 C
81 25-04-2010 16:11:01 29.1 C 20 % 3.87 C
82 25-04-2010 16:23:01 28.5 C 20 % 3.38 C
83 25-04-2010 16:35:02 28.5 C 20 % 3.38 C
84 25-04-2010 16:47:02 29.9 C 20 % 4.52 C
85 25-04-2010 16:59:03 30.2 C 20 % 4.77 C
86 25-04-2010 17:11:02 29.5 C 20 % 4.2 C
87 25-04-2010 17:23:02 27.5 C 20 % 2.56 C
88 25-04-2010 17:35:02 26.4 C 20 % 1.65 C
89 25-04-2010 17:47:02 25.9 C 20 % 1.24 C
90 25-04-2010 17:59:02 25.7 C 20 % 1.08 C
91 25-04-2010 18:11:01 25.6 C 20 % 1 C
92 25-04-2010 18:23:01 26 C 20 % 1.32 C
93 25-04-2010 18:35:02 26.4 C 20 % 1.65 C
94 25-04-2010 18:47:02 26.5 C 20 % 1.74 C
95 25-04-2010 18:59:02 25.3 C 20 % 0.75 C
96 25-04-2010 19:11:01 24.7 C 20 % 0.26 C
97 25-04-2010 19:23:02 24.4 C 20 % 0.01 C
98 25-04-2010 19:35:02 24.1 C 20 % -0.24 C
99 25-04-2010 19:47:02 23.4 C 20 % -0.81 C
100 25-04-2010 19:59:02 22.9 C 20 % -1.22 C
Sensor: Nr:Datum:Temp:Feuchte:Taupunkt:
Aussen-T/F 101 25-04-2010 20:11:01 22.3 C 20 % -1.72 C
102 25-04-2010 20:23:02 21.6 C 21 % -1.64 C
103 25-04-2010 20:35:01 21 C 21 % -2.13 C
104 25-04-2010 20:47:03 20.5 C 23 % -1.32 C
105 25-04-2010 20:59:03 20.2 C 25 % -0.43 C
106 25-04-2010 21:11:02 19.9 C 25 % -0.69 C
107 25-04-2010 21:23:02 19.5 C 26 % -0.49 C
108 25-04-2010 21:35:02 19.2 C 27 % -0.23 C
109 25-04-2010 21:47:02 19.1 C 29 % 0.67 C
110 25-04-2010 21:59:02 19.1 C 28 % 0.19 C
111 25-04-2010 22:11:02 19 C 29 % 0.58 C
112 25-04-2010 22:23:02 18.8 C 30 % 0.88 C
113 25-04-2010 22:35:02 18.5 C 32 % 1.51 C
114 25-04-2010 22:47:02 18.5 C 31 % 1.07 C
115 25-04-2010 22:59:02 18 C 33 % 1.51 C
116 25-04-2010 23:11:02 18.6 C 34 % 2.45 C
117 25-04-2010 23:23:02 18.6 C 36 % 3.25 C
118 25-04-2010 23:35:02 18.2 C 37 % 3.29 C
119 25-04-2010 23:47:02 18 C 39 % 3.85 C
120 25-04-2010 23:59:02 17.5 C 40 % 3.77 C
121 26-04-2010 00:11:02 17.3 C 41 % 3.94 C
122 26-04-2010 00:23:02 17 C 43 % 4.34 C
123 26-04-2010 00:35:02 17.2 C 41 % 3.85 C
124 26-04-2010 00:47:02 17.1 C 40 % 3.41 C
125 26-04-2010 00:59:03 16.9 C 40 % 3.23 C
Sensor: Nr:Datum:Temp:Feuchte:Taupunkt:
Aussen-T/F 126 26-04-2010 01:11:03 16.7 C 41 % 3.4 C
127 26-04-2010 01:23:03 16.4 C 42 % 3.47 C
128 26-04-2010 01:35:03 16.1 C 44 % 3.86 C
129 26-04-2010 01:47:03 15.9 C 45 % 4 C
130 26-04-2010 01:59:03 16 C 45 % 4.09 C
131 26-04-2010 02:11:03 14.6 C 59 % 6.69 C
132 26-04-2010 02:23:03 13.3 C 73 % 8.57 C
133 26-04-2010 02:35:03 13 C 79 % 9.45 C
134 26-04-2010 02:47:03 12.5 C 82 % 9.51 C
135 26-04-2010 02:59:03 12.7 C 83 % 9.89 C
136 26-04-2010 03:11:03 12.4 C 83 % 9.6 C
137 26-04-2010 03:23:03 12.6 C 83 % 9.79 C
138 26-04-2010 03:35:03 12.7 C 82 % 9.71 C
139 26-04-2010 03:47:03 12.8 C 80 % 9.44 C
140 26-04-2010 03:59:03 12.7 C 79 % 9.16 C
141 26-04-2010 04:11:03 12.4 C 79 % 8.86 C
142 26-04-2010 04:23:03 12.3 C 79 % 8.77 C
143 26-04-2010 04:35:03 12.2 C 79 % 8.67 C
144 26-04-2010 04:47:03 12.2 C 79 % 8.67 C
145 26-04-2010 04:59:04 12.2 C 79 % 8.67 C
146 26-04-2010 05:11:04 11.8 C 80 % 8.47 C
147 26-04-2010 05:23:04 11.6 C 81 % 8.45 C
148 26-04-2010 05:35:04 11.5 C 81 % 8.36 C
149 26-04-2010 05:47:04 11.6 C 82 % 8.64 C
150 26-04-2010 05:59:04 11.2 C 82 % 8.25 C
Sensor: Nr:Datum:Temp:Feuchte:Taupunkt:
Aussen-T/F 151 26-04-2010 06:11:04 11.1 C 83 % 8.33 C
152 26-04-2010 06:23:04 11 C 83 % 8.23 C
153 26-04-2010 06:35:04 10.8 C 83 % 8.03 C
154 26-04-2010 06:47:01 10.7 C 83 % 7.93 C
155 26-04-2010 06:59:01 10.7 C 84 % 8.11 C
156 26-04-2010 07:11:01 11.1 C 83 % 8.33 C
157 26-04-2010 07:23:02 10.9 C 82 % 7.95 C
158 26-04-2010 07:35:01 10.8 C 82 % 7.85 C
159 26-04-2010 07:47:02 10.7 C 83 % 7.93 C
160 26-04-2010 07:59:02 11.2 C 83 % 8.42 C
161 26-04-2010 08:11:01 11.2 C 82 % 8.25 C
162 26-04-2010 08:23:01 11.5 C 82 % 8.54 C
163 26-04-2010 08:35:02 12 C 79 % 8.48 C
164 26-04-2010 08:47:01 12.4 C 75 % 8.1 C
165 26-04-2010 08:59:01 12.7 C 71 % 7.58 C
166 26-04-2010 09:11:01 12.4 C 67 % 6.45 C
167 26-04-2010 09:23:01 12.8 C 66 % 6.61 C
168 26-04-2010 09:35:02 13.1 C 63 % 6.22 C
169 26-04-2010 09:47:01 13.2 C 62 % 6.09 C
170 26-04-2010 09:59:01 13.3 C 59 % 5.47 C
171 26-04-2010 10:11:02 13.7 C 62 % 6.56 C
172 26-04-2010 10:23:01 14.3 C 57 % 5.91 C
173 26-04-2010 10:35:02 14.9 C 55 % 5.95 C
174 26-04-2010 10:47:01 15 C 53 % 5.51 C
175 26-04-2010 10:59:01 15.2 C 52 % 5.42 C
Sensor: Nr:Datum:Temp:Feuchte:Taupunkt:
Aussen-T/F 176 26-04-2010 11:11:01 15.5 C 51 % 5.42 C
177 26-04-2010 11:23:01 15.8 C 51 % 5.69 C
178 26-04-2010 11:35:02 16 C 48 % 5.01 C
179 26-04-2010 11:47:01 16.1 C 47 % 4.8 C
180 26-04-2010 11:59:01 16.2 C 47 % 4.89 C
181 26-04-2010 12:11:02 16.5 C 46 % 4.85 C
182 26-04-2010 12:23:01 17.8 C 46 % 6.04 C
183 26-04-2010 12:35:02 18 C 40 % 4.21 C
184 26-04-2010 12:47:01 17.7 C 42 % 4.64 C
185 26-04-2010 12:59:01 17.7 C 43 % 4.98 C
186 26-04-2010 13:11:02 18.1 C 42 % 5 C
187 26-04-2010 13:23:01 19.1 C 40 % 5.2 C
188 26-04-2010 13:35:02 20.2 C 36 % 4.67 C
189 26-04-2010 13:47:01 19.5 C 36 % 4.05 C
190 26-04-2010 13:59:01 18.1 C 40 % 4.3 C
191 26-04-2010 14:11:02 18.3 C 41 % 4.83 C
192 26-04-2010 14:23:01 19.4 C 39 % 5.1 C
193 26-04-2010 14:35:02 20 C 35 % 4.09 C
194 26-04-2010 14:47:01 20.5 C 35 % 4.53 C
195 26-04-2010 14:59:01 19.1 C 37 % 4.08 C
196 26-04-2010 15:11:02 19.2 C 37 % 4.17 C
197 26-04-2010 15:23:01 19.4 C 36 % 3.96 C
198 26-04-2010 15:35:01 19.5 C 35 % 3.65 C
199 26-04-2010 15:47:01 19.4 C 35 % 3.56 C
200 26-04-2010 15:59:01 18.4 C 34 % 2.27 C
Sensor: Nr:Datum:Temp:Feuchte:Taupunkt:
Aussen-T/F 201 26-04-2010 16:11:02 20.2 C 32 % 3 C
202 26-04-2010 16:23:01 19.8 C 31 % 2.2 C
203 26-04-2010 16:35:01 19.3 C 32 % 2.21 C
204 26-04-2010 16:47:01 19.6 C 32 % 2.47 C
205 26-04-2010 16:59:01 19.5 C 32 % 2.39 C
206 26-04-2010 17:11:02 21.2 C 29 % 2.48 C
207 26-04-2010 17:23:01 22.3 C 26 % 1.89 C
208 26-04-2010 17:35:01 21.5 C 27 % 1.73 C
209 26-04-2010 17:47:01 20.1 C 29 % 1.53 C
210 26-04-2010 17:59:01 19.3 C 32 % 2.21 C
211 26-04-2010 18:11:02 19.1 C 34 % 2.89 C
212 26-04-2010 18:23:01 19 C 34 % 2.8 C
213 26-04-2010 18:35:01 18.9 C 34 % 2.71 C
214 26-04-2010 18:47:01 19.7 C 33 % 2.99 C
215 26-04-2010 18:59:01 20.2 C 30 % 2.09 C
216 26-04-2010 19:11:02 19.5 C 32 % 2.39 C
217 26-04-2010 19:23:01 18.7 C 34 % 2.54 C
218 26-04-2010 19:35:01 18.3 C 36 % 2.99 C
219 26-04-2010 19:47:01 18.2 C 35 % 2.5 C
220 26-04-2010 19:59:01 18.5 C 36 % 3.17 C
221 26-04-2010 20:11:01 18.8 C 35 % 3.03 C
222 26-04-2010 20:23:01 18.1 C 36 % 2.81 C
223 26-04-2010 20:35:01 17.1 C 37 % 2.31 C
224 26-04-2010 20:47:01 16.7 C 40 % 3.05 C
225 26-04-2010 20:59:01 16.2 C 40 % 2.6 C
Sensor: Nr:Datum:Temp:Feuchte:Taupunkt:
Aussen-T/F 226 26-04-2010 21:11:01 16.1 C 39 % 2.16 C
227 26-04-2010 21:23:01 15.9 C 41 % 2.68 C
228 26-04-2010 21:35:01 15.8 C 41 % 2.59 C
229 26-04-2010 21:47:01 15.8 C 42 % 2.93 C
230 26-04-2010 21:59:01 15.7 C 42 % 2.84 C
231 26-04-2010 22:11:02 15.6 C 43 % 3.08 C
232 26-04-2010 22:23:01 15.4 C 44 % 3.22 C
233 26-04-2010 22:35:02 15.4 C 43 % 2.9 C
234 26-04-2010 22:49:05 15.2 C 44 % 3.04 C
235 26-04-2010 23:01:05 15.2 C 45 % 3.36 C
236 26-04-2010 23:13:05 15.1 C 45 % 3.27 C
237 26-04-2010 23:25:05 14.6 C 48 % 3.73 C
238 26-04-2010 23:37:05 14.2 C 49 % 3.65 C
239 26-04-2010 23:49:05 14.1 C 49 % 3.56 C
240 27-04-2010 00:01:05 14 C 50 % 3.75 C
241 27-04-2010 00:13:05 13.7 C 51 % 3.76 C
242 27-04-2010 00:25:05 13.7 C 52 % 4.03 C
243 27-04-2010 00:37:06 13.5 C 52 % 3.85 C
244 27-04-2010 00:49:06 13.6 C 53 % 4.21 C
245 27-04-2010 01:01:06 13.6 C 53 % 4.21 C
246 27-04-2010 01:13:06 13.4 C 53 % 4.03 C
247 27-04-2010 01:25:06 13.4 C 54 % 4.29 C
248 27-04-2010 01:37:06 13.2 C 54 % 4.11 C
249 27-04-2010 01:49:06 12.9 C 56 % 4.35 C
250 27-04-2010 02:01:06 13 C 56 % 4.44 C
Sensor: Nr:Datum:Temp:Feuchte:Taupunkt:
Aussen-T/F 251 27-04-2010 02:13:06 13 C 57 % 4.69 C
252 27-04-2010 02:25:06 12.6 C 58 % 4.57 C
253 27-04-2010 02:37:06 12.4 C 59 % 4.62 C
254 27-04-2010 02:49:06 12 C 61 % 4.72 C
255 27-04-2010 03:01:06 11.8 C 62 % 4.77 C
256 27-04-2010 03:13:06 11.6 C 63 % 4.81 C
257 27-04-2010 03:25:06 11.2 C 64 % 4.65 C
258 27-04-2010 03:37:06 10.9 C 66 % 4.81 C
259 27-04-2010 03:49:06 10.8 C 66 % 4.71 C
260 27-04-2010 04:01:06 10.8 C 67 % 4.93 C
261 27-04-2010 04:13:06 10.6 C 66 % 4.52 C
262 27-04-2010 04:25:06 10.3 C 67 % 4.45 C
263 27-04-2010 04:37:07 10.1 C 69 % 4.68 C
264 27-04-2010 04:49:07 9.8 C 72 % 5 C
265 27-04-2010 05:01:07 9.6 C 72 % 4.81 C
266 27-04-2010 05:13:07 9.4 C 73 % 4.81 C
267 27-04-2010 05:25:07 9.2 C 74 % 4.81 C
268 27-04-2010 05:37:07 9 C 74 % 4.62 C
269 27-04-2010 05:49:07 8.7 C 75 % 4.52 C
270 27-04-2010 06:01:07 8.8 C 76 % 4.81 C
271 27-04-2010 06:13:07 8.4 C 78 % 4.79 C
272 27-04-2010 06:25:07 8.2 C 79 % 4.78 C
273 27-04-2010 06:37:05 8.1 C 79 % 4.68 C
274 27-04-2010 06:49:01 8.1 C 80 % 4.86 C
275 27-04-2010 07:01:02 8.1 C 81 % 5.04 C
Sensor: Nr:Datum:Temp:Feuchte:Taupunkt:
Aussen-T/F 276 27-04-2010 07:13:02 8.1 C 81 % 5.04 C
277 27-04-2010 07:25:02 8 C 81 % 4.94 C
278 27-04-2010 07:37:02 8.2 C 81 % 5.14 C
279 27-04-2010 07:49:01 8.6 C 81 % 5.53 C
280 27-04-2010 08:01:02 8.6 C 80 % 5.35 C
281 27-04-2010 08:13:02 8.9 C 79 % 5.46 C
282 27-04-2010 08:25:01 9.2 C 77 % 5.38 C
283 27-04-2010 08:37:02 9.2 C 77 % 5.38 C
284 27-04-2010 08:49:02 9.7 C 76 % 5.68 C
285 27-04-2010 09:01:02 10.1 C 74 % 5.68 C
286 27-04-2010 09:13:02 10.6 C 72 % 5.77 C
287 27-04-2010 09:25:01 11.1 C 70 % 5.84 C
288 27-04-2010 09:37:02 11.8 C 70 % 6.51 C
289 27-04-2010 09:49:01 12.4 C 67 % 6.45 C
290 27-04-2010 10:01:02 13 C 63 % 6.13 C
291 27-04-2010 10:13:02 13.6 C 60 % 5.99 C
292 27-04-2010 10:25:02 14.1 C 57 % 5.72 C
293 27-04-2010 10:37:02 14.3 C 55 % 5.39 C
294 27-04-2010 10:49:01 14 C 52 % 4.31 C
295 27-04-2010 11:01:02 14.6 C 52 % 4.87 C
296 27-04-2010 11:13:02 15.3 C 50 % 4.95 C
297 27-04-2010 11:25:02 16.1 C 47 % 4.8 C
298 27-04-2010 11:37:02 16.9 C 46 % 5.22 C
299 27-04-2010 11:49:01 17.4 C 44 % 5.03 C
300 27-04-2010 12:01:02 18.1 C 42 % 5 C
Sensor: Nr:Datum:Temp:Feuchte:Taupunkt:
Aussen-T/F 301 27-04-2010 12:13:02 17.8 C 42 % 4.73 C
302 27-04-2010 12:25:02 18.8 C 40 % 4.93 C
303 27-04-2010 12:37:02 19.3 C 37 % 4.26 C
304 27-04-2010 12:49:01 18.6 C 36 % 3.25 C
305 27-04-2010 13:01:02 19.1 C 35 % 3.3 C
306 27-04-2010 13:13:02 19.7 C 35 % 3.82 C
307 27-04-2010 13:25:02 21 C 31 % 3.24 C
308 27-04-2010 13:37:01 20.9 C 29 % 2.22 C
309 27-04-2010 13:49:02 21 C 27 % 1.31 C
310 27-04-2010 14:01:01 21.3 C 26 % 1.04 C
311 27-04-2010 14:13:01 22.1 C 25 % 1.17 C
312 27-04-2010 14:25:02 21.9 C 27 % 2.08 C
313 27-04-2010 14:37:01 21.8 C 25 % 0.92 C
314 27-04-2010 14:49:02 20 C 28 % 0.96 C
315 27-04-2010 15:01:01 21.5 C 26 % 1.21 C
316 27-04-2010 15:13:01 23.9 C 23 % 1.53 C
317 27-04-2010 15:25:02 22.6 C 21 % -0.81 C
318 27-04-2010 15:37:01 23.2 C 23 % 0.94 C
319 27-04-2010 15:49:03 21.9 C 22 % -0.75 C
320 27-04-2010 16:01:02 22.5 C 22 % -0.25 C
321 27-04-2010 16:13:02 22.6 C 20 % -1.47 C
322 27-04-2010 16:25:02 23.3 C 21 % -0.23 C
323 27-04-2010 16:37:02 23.9 C 20 % -0.4 C
324 27-04-2010 16:49:02 23.7 C 20 % -0.57 C
325 27-04-2010 17:01:02 24.2 C 20 % -0.15 C
Sensor: Nr:Datum:Temp:Feuchte:Taupunkt:
Aussen-T/F 326 27-04-2010 17:13:02 22.7 C 21 % -0.72 C
327 27-04-2010 17:25:02 24 C 20 % -0.32 C
328 27-04-2010 17:37:02 23.8 C 20 % -0.48 C
329 27-04-2010 17:49:02 23.1 C 20 % -1.06 C
330 27-04-2010 18:01:02 24.2 C 20 % -0.15 C
331 27-04-2010 18:13:02 24.1 C 20 % -0.24 C
332 27-04-2010 18:25:02 23.2 C 20 % -0.98 C
333 27-04-2010 18:37:01 22.4 C 20 % -1.64 C
334 27-04-2010 18:49:02 22.2 C 20 % -1.8 C
335 27-04-2010 19:01:01 21.3 C 20 % -2.54 C
336 27-04-2010 19:13:01 21.3 C 22 % -1.25 C
337 27-04-2010 19:25:02 20.6 C 23 % -1.23 C
338 27-04-2010 19:37:01 20.2 C 25 % -0.43 C
339 27-04-2010 19:49:02 20 C 27 % 0.45 C
340 27-04-2010 20:01:01 19.7 C 29 % 1.19 C
341 27-04-2010 20:13:01 19.3 C 30 % 1.31 C
342 27-04-2010 20:25:02 18.4 C 32 % 1.43 C
343 27-04-2010 20:37:01 17.5 C 35 % 1.89 C
344 27-04-2010 20:49:02 16.8 C 35 % 1.27 C
345 27-04-2010 21:01:02 16.3 C 36 % 1.22 C
346 27-04-2010 21:13:02 15.9 C 37 % 1.25 C
347 27-04-2010 21:25:02 15.5 C 38 % 1.26 C
348 27-04-2010 21:37:02 15.2 C 38 % 0.99 C
349 27-04-2010 21:50:02 15.1 C 40 % 1.62 C
350 27-04-2010 22:02:02 14.9 C 41 % 1.78 C
Sensor: Nr:Datum:Temp:Feuchte:Taupunkt:
Aussen-T/F 351 27-04-2010 22:14:02 14.7 C 41 % 1.6 C
352 27-04-2010 22:26:02 14.4 C 42 % 1.67 C
353 27-04-2010 22:38:02 14.2 C 42 % 1.49 C
354 27-04-2010 22:50:02 14 C 43 % 1.63 C
355 27-04-2010 23:02:03 13.7 C 45 % 2 C
356 27-04-2010 23:14:03 13.4 C 46 % 2.03 C
357 27-04-2010 23:26:03 13.1 C 47 % 2.06 C
358 27-04-2010 23:38:03 12.7 C 48 % 1.99 C
359 27-04-2010 23:50:03 12.6 C 49 % 2.18 C
360 28-04-2010 00:02:03 12.5 C 50 % 2.37 C
361 28-04-2010 00:14:03 12.3 C 50 % 2.19 C
362 28-04-2010 00:26:03 12.2 C 51 % 2.37 C
363 28-04-2010 00:38:03 12 C 52 % 2.46 C
364 28-04-2010 00:50:03 11.9 C 53 % 2.64 C
365 28-04-2010 01:02:03 11.7 C 54 % 2.71 C
366 28-04-2010 01:14:03 11.5 C 54 % 2.53 C
367 28-04-2010 01:26:03 11.1 C 57 % 2.92 C
368 28-04-2010 01:38:03 10.8 C 59 % 3.12 C
369 28-04-2010 01:50:03 10.8 C 59 % 3.12 C
370 28-04-2010 02:02:03 10.8 C 59 % 3.12 C
371 28-04-2010 02:14:03 10.7 C 59 % 3.03 C
372 28-04-2010 02:26:03 10.5 C 60 % 3.08 C
373 28-04-2010 02:38:03 10.3 C 60 % 2.89 C
374 28-04-2010 02:50:03 10.1 C 60 % 2.7 C
375 28-04-2010 03:02:04 9.9 C 62 % 2.97 C
Sensor: Nr:Datum:Temp:Feuchte:Taupunkt:
Aussen-T/F 376 28-04-2010 03:14:04 9.8 C 62 % 2.88 C
377 28-04-2010 03:26:04 9.7 C 63 % 3.01 C
378 28-04-2010 03:38:04 9.5 C 64 % 3.04 C
379 28-04-2010 03:50:04 9.3 C 65 % 3.07 C
380 28-04-2010 04:02:04 9.1 C 66 % 3.09 C
381 28-04-2010 04:14:04 8.9 C 68 % 3.32 C
382 28-04-2010 04:26:04 8.7 C 69 % 3.34 C
383 28-04-2010 04:38:04 8.5 C 70 % 3.35 C
384 28-04-2010 04:50:04 8.3 C 70 % 3.16 C
385 28-04-2010 05:02:04 8.2 C 71 % 3.26 C
386 28-04-2010 05:14:04 7.9 C 72 % 3.17 C
387 28-04-2010 05:26:04 7.9 C 72 % 3.17 C
388 28-04-2010 05:38:04 7.7 C 72 % 2.98 C
389 28-04-2010 05:50:04 7.6 C 72 % 2.88 C
390 28-04-2010 06:02:04 7.5 C 72 % 2.79 C
391 28-04-2010 06:14:04 7.3 C 73 % 2.79 C
392 28-04-2010 06:26:04 7.2 C 74 % 2.89 C
393 28-04-2010 06:38:04 7.1 C 75 % 2.98 C
394 28-04-2010 06:50:04 7.1 C 75 % 2.98 C
395 28-04-2010 07:02:01 7.2 C 75 % 3.07 C
396 28-04-2010 07:14:01 7.3 C 76 % 3.36 C
397 28-04-2010 07:26:02 7.4 C 75 % 3.27 C
398 28-04-2010 07:38:01 7.6 C 76 % 3.65 C
399 28-04-2010 07:50:02 7.7 C 75 % 3.56 C
400 28-04-2010 08:02:01 7.9 C 75 % 3.75 C
Sensor: Nr:Datum:Temp:Feuchte:Taupunkt:
Aussen-T/F 401 28-04-2010 08:14:01 8 C 73 % 3.46 C
402 28-04-2010 08:26:02 8.2 C 73 % 3.66 C
403 28-04-2010 08:38:01 8.6 C 72 % 3.85 C
404 28-04-2010 08:50:02 8.8 C 71 % 3.84 C
405 28-04-2010 09:02:02 9.2 C 69 % 3.82 C
406 28-04-2010 09:14:02 9.8 C 68 % 4.18 C
407 28-04-2010 09:26:02 10.5 C 66 % 4.43 C
408 28-04-2010 09:38:02 11.1 C 64 % 4.56 C
409 28-04-2010 09:50:02 11.7 C 61 % 4.44 C
410 28-04-2010 10:02:02 12.4 C 60 % 4.86 C
411 28-04-2010 10:14:02 13.2 C 56 % 4.63 C
412 28-04-2010 10:26:02 13.8 C 54 % 4.66 C
413 28-04-2010 10:38:02 14.8 C 49 % 4.2 C
414 28-04-2010 10:50:02 15.6 C 46 % 4.03 C
415 28-04-2010 11:02:01 16.3 C 43 % 3.71 C
416 28-04-2010 11:14:01 17.3 C 42 % 4.28 C
417 28-04-2010 11:26:02 18 C 40 % 4.21 C
418 28-04-2010 11:38:01 18.4 C 37 % 3.46 C
419 28-04-2010 11:50:03 18.8 C 33 % 2.21 C
420 28-04-2010 12:02:02 19.1 C 32 % 2.04 C
421 28-04-2010 12:14:02 19.7 C 27 % 0.2 C
422 28-04-2010 12:26:02 20 C 26 % -0.06 C
423 28-04-2010 12:38:02 20.6 C 25 % -0.09 C
424 28-04-2010 12:50:02 21.1 C 23 % -0.82 C
425 28-04-2010 13:02:01 21.4 C 22 % -1.17 C
Sensor: Nr:Datum:Temp:Feuchte:Taupunkt:
Aussen-T/F 426 28-04-2010 13:14:01 22.6 C 20 % -1.47 C
427 28-04-2010 13:26:02 23.5 C 20 % -0.73 C
428 28-04-2010 13:38:01 23.3 C 20 % -0.9 C
429 28-04-2010 13:50:02 23.5 C 20 % -0.73 C
430 28-04-2010 14:02:01 24.1 C 20 % -0.24 C
431 28-04-2010 14:14:01 24.6 C 20 % 0.17 C
432 28-04-2010 14:26:02 24.9 C 20 % 0.42 C
433 28-04-2010 14:38:01 24.5 C 20 % 0.09 C
434 28-04-2010 14:50:02 24.7 C 20 % 0.26 C
435 28-04-2010 15:02:02 25.8 C 20 % 1.16 C
436 28-04-2010 15:14:02 25.5 C 20 % 0.91 C
437 28-04-2010 15:26:02 25.8 C 20 % 1.16 C
438 28-04-2010 15:38:02 26.4 C 20 % 1.65 C
439 28-04-2010 15:50:02 26.6 C 20 % 1.82 C
440 28-04-2010 16:02:02 27.4 C 20 % 2.47 C
441 28-04-2010 16:14:02 27.6 C 20 % 2.64 C
442 28-04-2010 16:26:02 28 C 20 % 2.97 C
443 28-04-2010 16:38:01 28 C 20 % 2.97 C
444 28-04-2010 16:50:02 27.9 C 20 % 2.88 C
445 28-04-2010 17:02:01 28 C 20 % 2.97 C
446 28-04-2010 17:14:01 29.2 C 20 % 3.95 C
447 28-04-2010 17:26:02 28.9 C 20 % 3.7 C
448 28-04-2010 17:38:01 27.9 C 20 % 2.88 C
449 28-04-2010 17:50:02 28.5 C 20 % 3.38 C
450 28-04-2010 18:02:02 28.2 C 20 % 3.13 C
Sensor: Nr:Datum:Temp:Feuchte:Taupunkt:
Aussen-T/F 451 28-04-2010 18:14:02 28.4 C 20 % 3.29 C
452 28-04-2010 18:26:02 28.4 C 20 % 3.29 C
453 28-04-2010 18:38:02 28.3 C 20 % 3.21 C
454 28-04-2010 18:50:02 27.9 C 20 % 2.88 C
455 28-04-2010 19:02:01 27.1 C 20 % 2.23 C
456 28-04-2010 19:14:01 26.5 C 20 % 1.74 C
457 28-04-2010 19:26:02 25.9 C 20 % 1.24 C
458 28-04-2010 19:38:01 25 C 21 % 1.18 C
459 28-04-2010 19:50:02 24.6 C 22 % 1.49 C
460 28-04-2010 20:02:01 23.9 C 25 % 2.69 C
461 28-04-2010 20:14:01 23 C 26 % 2.48 C
462 28-04-2010 20:26:01 22.1 C 28 % 2.76 C
463 28-04-2010 20:38:02 21.3 C 30 % 3.04 C
464 28-04-2010 20:50:02 20.4 C 31 % 2.72 C
465 28-04-2010 21:02:02 19.7 C 33 % 2.99 C
466 28-04-2010 21:14:02 19.3 C 33 % 2.64 C
467 28-04-2010 21:26:02 18.9 C 35 % 3.12 C
468 28-04-2010 21:38:01 18.8 C 35 % 3.03 C
469 28-04-2010 21:51:04 18.5 C 35 % 2.77 C
470 28-04-2010 22:03:04 18.5 C 36 % 3.17 C
471 28-04-2010 22:15:04 18.3 C 36 % 2.99 C
472 28-04-2010 22:27:04 18.2 C 36 % 2.9 C
473 28-04-2010 22:39:04 18 C 37 % 3.11 C
474 28-04-2010 22:51:04 18 C 36 % 2.72 C
475 28-04-2010 23:03:04 17.7 C 38 % 3.22 C
Sensor: Nr:Datum:Temp:Feuchte:Taupunkt:
Aussen-T/F 476 28-04-2010 23:15:04 17.3 C 39 % 3.23 C
477 28-04-2010 23:27:04 17 C 39 % 2.96 C
478 28-04-2010 23:39:04 16.6 C 41 % 3.31 C
479 28-04-2010 23:51:04 16.2 C 42 % 3.29 C
480 29-04-2010 00:03:04 16.2 C 42 % 3.29 C
481 29-04-2010 00:15:04 15.8 C 45 % 3.9 C
482 29-04-2010 00:27:05 15.4 C 44 % 3.22 C
483 29-04-2010 00:39:05 15.1 C 46 % 3.58 C
484 29-04-2010 00:51:05 14.7 C 46 % 3.22 C
485 29-04-2010 01:03:05 14.6 C 47 % 3.43 C
486 29-04-2010 01:15:05 14.2 C 47 % 3.06 C
487 29-04-2010 01:27:05 14 C 47 % 2.88 C
488 29-04-2010 01:39:05 13.8 C 48 % 2.99 C
489 29-04-2010 01:51:05 13.5 C 50 % 3.29 C
490 29-04-2010 02:03:05 13.6 C 50 % 3.39 C
491 29-04-2010 02:15:05 12.8 C 54 % 3.74 C
492 29-04-2010 02:27:05 12.9 C 54 % 3.83 C
493 29-04-2010 02:39:05 12.7 C 54 % 3.64 C
494 29-04-2010 02:51:05 12.5 C 56 % 3.97 C
495 29-04-2010 03:03:05 12.2 C 59 % 4.43 C
496 29-04-2010 03:15:05 12 C 59 % 4.25 C
497 29-04-2010 03:27:05 11.8 C 59 % 4.06 C
498 29-04-2010 03:39:05 11.8 C 60 % 4.3 C
499 29-04-2010 03:51:05 11.7 C 61 % 4.44 C
500 29-04-2010 04:03:05 11.7 C 61 % 4.44 C
Sensor: Nr:Datum:Temp:Feuchte:Taupunkt:
Aussen-T/F 501 29-04-2010 04:15:05 11.5 C 62 % 4.48 C
502 29-04-2010 04:27:06 11.2 C 64 % 4.65 C
503 29-04-2010 04:39:06 10.9 C 66 % 4.81 C
504 29-04-2010 04:51:06 10.8 C 65 % 4.49 C
505 29-04-2010 05:03:06 10.7 C 65 % 4.4 C
506 29-04-2010 05:15:06 10.6 C 65 % 4.3 C
507 29-04-2010 05:27:06 10.4 C 65 % 4.11 C
508 29-04-2010 05:39:06 10.3 C 66 % 4.24 C
509 29-04-2010 05:51:06 10.2 C 66 % 4.14 C
510 29-04-2010 06:03:06 10.1 C 66 % 4.05 C
511 29-04-2010 06:15:06 9.9 C 68 % 4.28 C
512 29-04-2010 06:27:06 9.7 C 70 % 4.5 C
513 29-04-2010 06:39:06 9.8 C 70 % 4.6 C
514 29-04-2010 06:51:01 9.8 C 70 % 4.6 C
515 29-04-2010 07:03:02 10 C 69 % 4.58 C
516 29-04-2010 07:15:01 10.1 C 69 % 4.68 C
517 29-04-2010 07:27:01 10.3 C 69 % 4.87 C
518 29-04-2010 07:39:02 10.3 C 69 % 4.87 C
519 29-04-2010 07:51:02 10.4 C 69 % 4.97 C
520 29-04-2010 08:03:02 10.9 C 68 % 5.23 C
521 29-04-2010 08:15:02 11.9 C 65 % 5.54 C
522 29-04-2010 08:27:02 12.5 C 61 % 5.19 C
523 29-04-2010 08:39:02 12.8 C 60 % 5.24 C
524 29-04-2010 08:51:01 12.9 C 60 % 5.33 C
525 29-04-2010 09:03:02 12.8 C 60 % 5.24 C
Sensor: Nr:Datum:Temp:Feuchte:Taupunkt:
Aussen-T/F 526 29-04-2010 09:15:02 13.1 C 58 % 5.03 C
527 29-04-2010 09:27:02 14 C 53 % 4.58 C
528 29-04-2010 09:39:02 14.9 C 51 % 4.86 C
529 29-04-2010 09:51:01 15.7 C 46 % 4.13 C
530 29-04-2010 10:03:02 16.6 C 45 % 4.63 C
531 29-04-2010 10:15:02 17.4 C 43 % 4.71 C
532 29-04-2010 10:27:02 17.7 C 43 % 4.98 C
533 29-04-2010 10:39:01 18.3 C 44 % 5.85 C
534 29-04-2010 10:51:01 19.3 C 41 % 5.73 C
535 29-04-2010 11:03:01 20.1 C 39 % 5.73 C
536 29-04-2010 11:15:02 20.9 C 37 % 5.68 C
537 29-04-2010 11:27:02 22 C 33 % 5 C
538 29-04-2010 11:39:01 22.3 C 31 % 4.37 C
539 29-04-2010 11:51:01 22.5 C 32 % 5 C
540 29-04-2010 12:03:01 22.7 C 31 % 4.72 C
541 29-04-2010 12:15:02 23.7 C 29 % 4.63 C
542 29-04-2010 12:27:02 24 C 27 % 3.87 C
543 29-04-2010 12:39:01 24.3 C 26 % 3.59 C
544 29-04-2010 12:51:03 24.7 C 21 % 0.93 C
545 29-04-2010 13:03:02 25.2 C 20 % 0.67 C
546 29-04-2010 13:15:03 25.7 C 20 % 1.08 C
547 29-04-2010 13:27:03 25.9 C 20 % 1.24 C
548 29-04-2010 13:39:02 26.1 C 20 % 1.41 C
549 29-04-2010 13:51:03 26.4 C 20 % 1.65 C
550 29-04-2010 14:03:02 26.4 C 20 % 1.65 C
Sensor: Nr:Datum:Temp:Feuchte:Taupunkt:
Aussen-T/F 551 29-04-2010 14:15:02 26.6 C 20 % 1.82 C
552 29-04-2010 14:27:02 27.1 C 20 % 2.23 C
553 29-04-2010 14:39:02 27 C 20 % 2.15 C
554 29-04-2010 14:51:02 28 C 20 % 2.97 C
555 29-04-2010 15:03:02 27.9 C 20 % 2.88 C
556 29-04-2010 15:15:02 27.6 C 20 % 2.64 C
557 29-04-2010 15:27:02 27.6 C 20 % 2.64 C
558 29-04-2010 15:39:01 27.6 C 20 % 2.64 C
559 29-04-2010 15:51:02 27.6 C 20 % 2.64 C
560 29-04-2010 16:03:01 27.9 C 20 % 2.88 C
561 29-04-2010 16:15:02 27.8 C 20 % 2.8 C
562 29-04-2010 16:27:02 27.9 C 20 % 2.88 C
563 29-04-2010 16:39:01 27.6 C 20 % 2.64 C
564 29-04-2010 16:51:03 27.8 C 20 % 2.8 C
565 29-04-2010 17:03:02 27.8 C 20 % 2.8 C
566 29-04-2010 17:15:02 27.8 C 20 % 2.8 C
567 29-04-2010 17:27:02 27.5 C 20 % 2.56 C
568 29-04-2010 17:39:02 27.8 C 20 % 2.8 C
569 29-04-2010 17:51:02 28.4 C 20 % 3.29 C
570 29-04-2010 18:03:02 28 C 20 % 2.97 C
571 29-04-2010 18:15:02 27.8 C 20 % 2.8 C
572 29-04-2010 18:27:02 27.5 C 20 % 2.56 C
573 29-04-2010 18:39:02 27.5 C 20 % 2.56 C
574 29-04-2010 18:51:02 27 C 20 % 2.15 C
575 29-04-2010 19:03:02 26.5 C 20 % 1.74 C
Sensor: Nr:Datum:Temp:Feuchte:Taupunkt:
Aussen-T/F 576 29-04-2010 19:15:02 26.1 C 20 % 1.41 C
577 29-04-2010 19:27:02 25.7 C 20 % 1.08 C
578 29-04-2010 19:39:02 25.3 C 20 % 0.75 C
579 29-04-2010 19:51:01 24.8 C 22 % 1.66 C
580 29-04-2010 20:03:02 24.4 C 23 % 1.95 C
581 29-04-2010 20:15:02 23.9 C 25 % 2.69 C
582 29-04-2010 20:27:02 23.6 C 26 % 2.99 C
583 29-04-2010 20:39:02 23.1 C 27 % 3.1 C
584 29-04-2010 20:51:02 22.6 C 30 % 4.16 C
585 29-04-2010 21:03:02 22.2 C 31 % 4.28 C
586 29-04-2010 21:15:02 21.9 C 33 % 4.92 C
587 29-04-2010 21:27:02 21.7 C 33 % 4.74 C
588 29-04-2010 21:39:01 21.6 C 34 % 5.08 C
589 29-04-2010 21:51:02 21.5 C 34 % 4.99 C
590 29-04-2010 22:03:01 21.4 C 35 % 5.32 C
591 29-04-2010 22:15:02 21.3 C 35 % 5.23 C
592 29-04-2010 22:27:02 21.1 C 36 % 5.46 C
593 29-04-2010 22:39:01 20.7 C 39 % 6.26 C
594 29-04-2010 22:51:02 20.5 C 40 % 6.45 C
595 29-04-2010 23:04:01 20.4 C 40 % 6.36 C
596 29-04-2010 23:16:01 20.1 C 41 % 6.45 C
597 29-04-2010 23:28:01 19.7 C 43 % 6.78 C
598 29-04-2010 23:40:01 19.5 C 43 % 6.6 C
599 29-04-2010 23:52:01 19.3 C 43 % 6.42 C
600 30-04-2010 00:04:01 19.4 C 43 % 6.51 C
Sensor: Nr:Datum:Temp:Feuchte:Taupunkt:
Aussen-T/F 601 30-04-2010 00:16:02 19.6 C 42 % 6.35 C
602 30-04-2010 00:28:02 19.7 C 41 % 6.09 C
603 30-04-2010 00:40:02 20 C 40 % 6 C
604 30-04-2010 00:52:02 20.3 C 38 % 5.53 C
605 30-04-2010 01:04:02 20.5 C 37 % 5.32 C
606 30-04-2010 01:16:02 20.8 C 37 % 5.59 C
607 30-04-2010 01:28:02 20.9 C 38 % 6.06 C
608 30-04-2010 01:40:02 20.7 C 38 % 5.89 C
609 30-04-2010 01:52:02 20.8 C 37 % 5.59 C
610 30-04-2010 02:04:02 20.8 C 37 % 5.59 C
611 30-04-2010 02:16:02 20.9 C 37 % 5.68 C
612 30-04-2010 02:28:02 21 C 36 % 5.37 C
613 30-04-2010 02:40:02 20.5 C 39 % 6.08 C
614 30-04-2010 02:52:02 20.6 C 39 % 6.17 C
615 30-04-2010 03:04:02 20.4 C 40 % 6.36 C
616 30-04-2010 03:16:02 20.1 C 41 % 6.45 C
617 30-04-2010 03:28:02 20.1 C 42 % 6.8 C
618 30-04-2010 03:40:02 19.8 C 45 % 7.53 C
619 30-04-2010 03:52:02 19.8 C 46 % 7.86 C
620 30-04-2010 04:04:02 19.7 C 46 % 7.77 C
621 30-04-2010 04:16:02 19.7 C 47 % 8.08 C
622 30-04-2010 04:28:02 19.4 C 49 % 8.42 C
623 30-04-2010 04:40:03 19.2 C 50 % 8.53 C
624 30-04-2010 04:52:03 18.9 C 52 % 8.84 C
625 30-04-2010 05:04:03 18.7 C 52 % 8.65 C
Sensor: Nr:Datum:Temp:Feuchte:Taupunkt:
Aussen-T/F 626 30-04-2010 05:16:03 18.6 C 53 % 8.84 C
627 30-04-2010 05:28:03 18.2 C 54 % 8.75 C
628 30-04-2010 05:40:03 17.9 C 57 % 9.27 C
629 30-04-2010 05:52:03 17.8 C 57 % 9.18 C
630 30-04-2010 06:04:03 17.5 C 58 % 9.15 C
631 30-04-2010 06:16:03 17.4 C 59 % 9.31 C
632 30-04-2010 06:28:03 17.3 C 59 % 9.22 C
633 30-04-2010 06:40:03 17.4 C 59 % 9.31 C
634 30-04-2010 06:52:03 17.2 C 59 % 9.13 C
635 30-04-2010 07:04:02 17.1 C 60 % 9.28 C
636 30-04-2010 07:16:01 17.3 C 60 % 9.47 C
637 30-04-2010 07:28:01 17.5 C 60 % 9.66 C
638 30-04-2010 07:40:02 17.7 C 59 % 9.59 C
639 30-04-2010 07:52:02 17.6 C 57 % 8.99 C
640 30-04-2010 08:04:02 18.1 C 53 % 8.38 C
641 30-04-2010 08:16:02 18.3 C 51 % 8 C
642 30-04-2010 08:28:02 18.3 C 51 % 8 C
643 30-04-2010 08:40:02 18.2 C 51 % 7.91 C
644 30-04-2010 08:52:02 18.4 C 51 % 8.09 C
645 30-04-2010 09:04:03 18.3 C 51 % 8 C
646 30-04-2010 09:16:02 18.3 C 50 % 7.71 C
647 30-04-2010 09:28:02 18.4 C 46 % 6.58 C
648 30-04-2010 09:40:02 18.5 C 42 % 5.36 C
649 30-04-2010 09:52:01 18.4 C 42 % 5.27 C
650 30-04-2010 10:04:02 18.3 C 42 % 5.18 C
Sensor: Nr:Datum:Temp:Feuchte:Taupunkt:
Aussen-T/F 651 30-04-2010 10:16:01 18.5 C 40 % 4.66 C
652 30-04-2010 10:28:01 18.6 C 40 % 4.75 C
653 30-04-2010 10:40:02 18.8 C 40 % 4.93 C
654 30-04-2010 10:52:02 18.6 C 36 % 3.25 C
655 30-04-2010 11:04:02 19 C 36 % 3.61 C
656 30-04-2010 11:16:02 18.9 C 36 % 3.52 C
657 30-04-2010 11:28:02 19 C 36 % 3.61 C
658 30-04-2010 11:40:02 19.5 C 36 % 4.05 C
659 30-04-2010 11:52:02 19.7 C 36 % 4.23 C
660 30-04-2010 12:04:02 20.6 C 34 % 4.2 C
661 30-04-2010 12:16:02 20.8 C 32 % 3.52 C
662 30-04-2010 12:28:02 19.9 C 35 % 4 C
663 30-04-2010 12:40:02 19.8 C 35 % 3.91 C
664 30-04-2010 12:52:01 20 C 34 % 3.68 C
665 30-04-2010 13:04:02 20.6 C 32 % 3.34 C
666 30-04-2010 13:16:01 20.7 C 32 % 3.43 C
667 30-04-2010 13:28:01 21 C 30 % 2.78 C
668 30-04-2010 13:40:01 21 C 30 % 2.78 C
669 30-04-2010 13:52:01 20.8 C 31 % 3.07 C
670 30-04-2010 14:04:02 20.5 C 32 % 3.26 C
671 30-04-2010 14:16:01 21.4 C 31 % 3.59 C
672 30-04-2010 14:28:01 20.9 C 31 % 3.16 C
673 30-04-2010 14:40:02 20.8 C 32 % 3.52 C
674 30-04-2010 14:52:02 20.8 C 35 % 4.79 C
675 30-04-2010 15:04:02 20.4 C 34 % 4.03 C
Sensor: Nr:Datum:Temp:Feuchte:Taupunkt:
Aussen-T/F 676 30-04-2010 15:16:01 20.7 C 34 % 4.29 C
677 30-04-2010 15:28:01 20.6 C 34 % 4.2 C
678 30-04-2010 15:40:02 20.9 C 34 % 4.47 C
679 30-04-2010 15:52:02 20.6 C 34 % 4.2 C
680 30-04-2010 16:04:02 19.7 C 35 % 3.82 C
681 30-04-2010 16:16:01 19.4 C 35 % 3.56 C
682 30-04-2010 16:28:01 19.6 C 35 % 3.74 C
683 30-04-2010 16:40:02 19.7 C 35 % 3.82 C
684 30-04-2010 16:52:02 19.5 C 36 % 4.05 C
685 30-04-2010 17:04:02 19.7 C 36 % 4.23 C
686 30-04-2010 17:16:02 19.8 C 35 % 3.91 C
687 30-04-2010 17:28:02 20 C 36 % 4.49 C
688 30-04-2010 17:40:02 19.4 C 36 % 3.96 C
689 30-04-2010 17:52:02 19.5 C 36 % 4.05 C
690 30-04-2010 18:04:02 19.5 C 36 % 4.05 C
691 30-04-2010 18:16:02 19.7 C 37 % 4.62 C
692 30-04-2010 18:28:02 19.2 C 36 % 3.78 C
693 30-04-2010 18:40:02 19.1 C 37 % 4.08 C
694 30-04-2010 18:52:02 18.9 C 38 % 4.29 C
695 30-04-2010 19:04:02 18.8 C 40 % 4.93 C
696 30-04-2010 19:16:03 18.7 C 39 % 4.48 C
697 30-04-2010 19:28:03 18.4 C 39 % 4.21 C
698 30-04-2010 19:40:02 18.1 C 40 % 4.3 C
699 30-04-2010 19:52:02 18.1 C 41 % 4.66 C
700 30-04-2010 20:04:02 18 C 41 % 4.57 C
Sensor: Nr:Datum:Temp:Feuchte:Taupunkt:
Aussen-T/F 701 30-04-2010 20:16:03 17.9 C 42 % 4.82 C
702 30-04-2010 20:28:03 17.7 C 43 % 4.98 C
703 30-04-2010 20:40:02 17 C 50 % 6.51 C
704 30-04-2010 20:52:02 16.3 C 56 % 7.52 C
705 30-04-2010 21:04:02 15.1 C 64 % 8.35 C
706 30-04-2010 21:16:02 14.7 C 69 % 9.08 C
707 30-04-2010 21:28:02 15.1 C 69 % 9.46 C
708 30-04-2010 21:40:02 15.3 C 67 % 9.21 C
709 30-04-2010 21:52:02 15.2 C 65 % 8.67 C
710 30-04-2010 22:04:02 15.3 C 63 % 8.31 C
711 30-04-2010 22:16:02 15.2 C 62 % 7.98 C
712 30-04-2010 22:28:02 14.9 C 64 % 8.16 C
713 30-04-2010 22:40:02 14.9 C 64 % 8.16 C
714 30-04-2010 22:52:01 14.8 C 64 % 8.06 C
715 30-04-2010 23:05:02 14.2 C 60 % 6.56 C
716 30-04-2010 23:17:02 13.8 C 60 % 6.18 C
717 30-04-2010 23:29:02 13.4 C 58 % 5.32 C
718 30-04-2010 23:41:02 13.1 C 56 % 4.53 C
719 30-04-2010 23:53:02 13.1 C 55 % 4.28 C
720 01-05-2010 00:05:02 13.2 C 55 % 4.37 C
721 01-05-2010 00:17:02 13.3 C 56 % 4.72 C
722 01-05-2010 00:29:02 13.3 C 56 % 4.72 C
723 01-05-2010 00:41:03 13.4 C 59 % 5.56 C
724 01-05-2010 00:53:03 13.4 C 59 % 5.56 C
725 01-05-2010 01:05:03 13.4 C 59 % 5.56 C
Sensor: Nr:Datum:Temp:Feuchte:Taupunkt:
Aussen-T/F 726 01-05-2010 01:17:03 13.3 C 57 % 4.97 C
727 01-05-2010 01:29:03 13.2 C 59 % 5.37 C
728 01-05-2010 01:41:03 13.1 C 62 % 5.99 C
729 01-05-2010 01:53:03 13 C 62 % 5.9 C
730 01-05-2010 02:05:03 12.9 C 63 % 6.04 C
731 01-05-2010 02:17:03 12.8 C 63 % 5.94 C
732 01-05-2010 02:29:03 12.9 C 61 % 5.57 C
733 01-05-2010 02:41:03 12.9 C 59 % 5.09 C
734 01-05-2010 02:53:03 12.9 C 58 % 4.85 C
735 01-05-2010 03:05:03 12.8 C 61 % 5.48 C
736 01-05-2010 03:17:03 12.7 C 61 % 5.38 C
737 01-05-2010 03:29:03 12.6 C 59 % 4.81 C
738 01-05-2010 03:41:03 12.5 C 59 % 4.72 C
739 01-05-2010 03:53:03 12.5 C 60 % 4.96 C
740 01-05-2010 04:05:03 12.5 C 62 % 5.43 C
741 01-05-2010 04:17:03 12.5 C 66 % 6.33 C
742 01-05-2010 04:29:03 12.5 C 64 % 5.88 C
743 01-05-2010 04:41:03 12.4 C 66 % 6.23 C
744 01-05-2010 04:53:03 12.4 C 66 % 6.23 C
745 01-05-2010 05:05:04 12.4 C 66 % 6.23 C
746 01-05-2010 05:17:04 12.4 C 67 % 6.45 C
747 01-05-2010 05:29:04 12.4 C 68 % 6.67 C
748 01-05-2010 05:41:04 12.3 C 69 % 6.78 C
749 01-05-2010 05:53:04 11.8 C 74 % 7.32 C
750 01-05-2010 06:05:04 11.6 C 78 % 7.9 C
Sensor: Nr:Datum:Temp:Feuchte:Taupunkt:
Aussen-T/F 751 01-05-2010 06:17:04 11.5 C 79 % 7.99 C
752 01-05-2010 06:29:04 11.5 C 81 % 8.36 C
753 01-05-2010 06:41:04 11.5 C 82 % 8.54 C
754 01-05-2010 06:53:04 11.4 C 82 % 8.44 C
755 01-05-2010 07:05:04 11.4 C 82 % 8.44 C
756 01-05-2010 07:17:04 11.4 C 81 % 8.26 C
757 01-05-2010 07:29:04 11.6 C 82 % 8.64 C
758 01-05-2010 07:41:02 11.8 C 82 % 8.83 C
759 01-05-2010 07:53:01 12.1 C 81 % 8.94 C
760 01-05-2010 08:05:02 12.6 C 80 % 9.25 C
761 01-05-2010 08:17:01 12.7 C 74 % 8.19 C
762 01-05-2010 08:29:01 13 C 70 % 7.66 C
763 01-05-2010 08:41:01 13.4 C 70 % 8.05 C
764 01-05-2010 08:53:01 13.6 C 69 % 8.03 C
765 01-05-2010 09:05:02 13.9 C 68 % 8.1 C
766 01-05-2010 09:17:01 14.3 C 65 % 7.82 C
767 01-05-2010 09:29:01 14.3 C 64 % 7.59 C
768 01-05-2010 09:41:01 14.2 C 66 % 7.95 C
769 01-05-2010 09:53:01 14 C 66 % 7.76 C
770 01-05-2010 10:05:02 14.3 C 63 % 7.36 C
771 01-05-2010 10:17:01 14.3 C 61 % 6.89 C
772 01-05-2010 10:29:01 14.7 C 62 % 7.5 C
773 01-05-2010 10:41:02 14.7 C 59 % 6.78 C
774 01-05-2010 10:53:02 15.1 C 56 % 6.4 C
775 01-05-2010 11:05:02 15.8 C 55 % 6.79 C
Sensor: Nr:Datum:Temp:Feuchte:Taupunkt:
Aussen-T/F 776 01-05-2010 11:17:01 15.9 C 51 % 5.79 C
777 01-05-2010 11:29:01 16.5 C 46 % 4.85 C
778 01-05-2010 11:41:02 16.9 C 44 % 4.58 C
779 01-05-2010 11:53:02 17.2 C 39 % 3.14 C
780 01-05-2010 12:05:02 17.6 C 39 % 3.5 C
781 01-05-2010 12:17:02 17.7 C 39 % 3.59 C
782 01-05-2010 12:29:02 17.6 C 39 % 3.5 C
783 01-05-2010 12:41:02 16.9 C 37 % 2.13 C
784 01-05-2010 12:53:02 17.6 C 38 % 3.13 C
785 01-05-2010 13:05:02 18.9 C 35 % 3.12 C
786 01-05-2010 13:17:02 18.6 C 32 % 1.6 C
787 01-05-2010 13:29:02 18.9 C 32 % 1.86 C
788 01-05-2010 13:41:02 18.9 C 31 % 1.42 C
789 01-05-2010 13:53:01 20.7 C 26 % 0.53 C
790 01-05-2010 14:05:02 19.1 C 30 % 1.14 C
791 01-05-2010 14:17:01 19.9 C 29 % 1.36 C
792 01-05-2010 14:29:01 19.7 C 29 % 1.19 C
793 01-05-2010 14:41:02 20.3 C 27 % 0.71 C
794 01-05-2010 14:53:02 20.1 C 28 % 1.04 C
795 01-05-2010 15:05:03 19.7 C 28 % 0.7 C
796 01-05-2010 15:17:02 19.9 C 28 % 0.87 C
797 01-05-2010 15:29:02 18.9 C 30 % 0.97 C
798 01-05-2010 15:41:02 18.8 C 31 % 1.33 C
799 01-05-2010 15:53:02 18.1 C 33 % 1.59 C
800 01-05-2010 16:05:02 17.7 C 35 % 2.06 C
Sensor: Nr:Datum:Temp:Feuchte:Taupunkt:
Aussen-T/F 801 01-05-2010 16:17:01 17.5 C 36 % 2.28 C
802 01-05-2010 16:29:01 17.5 C 37 % 2.67 C
803 01-05-2010 16:41:02 17.5 C 38 % 3.04 C
804 01-05-2010 16:53:01 17.7 C 38 % 3.22 C
805 01-05-2010 17:05:02 17.7 C 38 % 3.22 C
806 01-05-2010 17:17:01 17.9 C 38 % 3.4 C
807 01-05-2010 17:29:01 17.9 C 37 % 3.02 C
808 01-05-2010 17:41:02 17.7 C 38 % 3.22 C
809 01-05-2010 17:53:01 17.2 C 39 % 3.14 C
810 01-05-2010 18:05:02 17.4 C 40 % 3.68 C
811 01-05-2010 18:17:02 17.5 C 40 % 3.77 C
812 01-05-2010 18:29:02 17.6 C 41 % 4.21 C
813 01-05-2010 18:41:01 17.4 C 40 % 3.68 C
814 01-05-2010 18:53:01 17.4 C 39 % 3.32 C
815 01-05-2010 19:05:01 17 C 39 % 2.96 C
816 01-05-2010 19:17:01 16.9 C 41 % 3.58 C
817 01-05-2010 19:29:01 16.8 C 42 % 3.83 C
818 01-05-2010 19:41:01 16.7 C 43 % 4.07 C
819 01-05-2010 19:53:02 16.4 C 43 % 3.8 C
820 01-05-2010 20:05:02 16.3 C 43 % 3.71 C
821 01-05-2010 20:17:02 16 C 44 % 3.77 C
822 01-05-2010 20:29:02 15.7 C 46 % 4.13 C
823 01-05-2010 20:41:02 15.6 C 47 % 4.34 C
824 01-05-2010 20:53:02 15.6 C 48 % 4.64 C
825 01-05-2010 21:05:01 15.5 C 48 % 4.55 C
Sensor: Nr:Datum:Temp:Feuchte:Taupunkt:
Aussen-T/F 826 01-05-2010 21:17:02 15.3 C 48 % 4.37 C
827 01-05-2010 21:29:02 15 C 50 % 4.67 C
828 01-05-2010 21:41:02 14.7 C 52 % 4.96 C
829 01-05-2010 21:53:02 14.4 C 53 % 4.95 C
830 01-05-2010 22:05:02 14.3 C 54 % 5.13 C
831 01-05-2010 22:17:02 14.3 C 47 % 3.15 C
832 01-05-2010 22:29:02 14.2 C 47 % 3.06 C
833 01-05-2010 22:41:01 14.2 C 49 % 3.65 C
834 01-05-2010 22:54:02 14.1 C 50 % 3.85 C
835 01-05-2010 23:06:03 14.2 C 51 % 4.22 C
836 01-05-2010 23:18:03 14.2 C 51 % 4.22 C
837 01-05-2010 23:30:03 14.2 C 52 % 4.5 C
838 01-05-2010 23:42:03 14 C 53 % 4.58 C
839 01-05-2010 23:54:03 13.9 C 54 % 4.76 C
840 02-05-2010 00:06:03 13.8 C 55 % 4.93 C
841 02-05-2010 00:18:03 13.3 C 60 % 5.71 C
842 02-05-2010 00:30:03 12.6 C 66 % 6.42 C
843 02-05-2010 00:42:03 12.6 C 67 % 6.64 C
844 02-05-2010 00:54:03 12.5 C 66 % 6.33 C
845 02-05-2010 01:06:03 12.5 C 66 % 6.33 C
846 02-05-2010 01:18:03 12.6 C 66 % 6.42 C
847 02-05-2010 01:30:03 12.6 C 65 % 6.2 C
848 02-05-2010 01:42:03 12.5 C 66 % 6.33 C
849 02-05-2010 01:54:03 12.5 C 66 % 6.33 C
850 02-05-2010 02:06:03 12.5 C 66 % 6.33 C
Sensor: Nr:Datum:Temp:Feuchte:Taupunkt:
Aussen-T/F 851 02-05-2010 02:18:03 12.4 C 66 % 6.23 C
852 02-05-2010 02:30:03 12.3 C 67 % 6.36 C
853 02-05-2010 02:42:03 12.2 C 67 % 6.26 C
854 02-05-2010 02:54:03 12.1 C 68 % 6.38 C
855 02-05-2010 03:06:03 12 C 68 % 6.29 C
856 02-05-2010 03:18:03 12 C 67 % 6.07 C
857 02-05-2010 03:30:04 11.9 C 69 % 6.4 C
858 02-05-2010 03:42:04 11.7 C 70 % 6.42 C
859 02-05-2010 03:54:04 11.6 C 69 % 6.11 C
860 02-05-2010 04:06:04 11.6 C 69 % 6.11 C
861 02-05-2010 04:18:04 11.6 C 69 % 6.11 C
862 02-05-2010 04:30:04 11.6 C 70 % 6.32 C
863 02-05-2010 04:42:04 11.7 C 71 % 6.62 C
864 02-05-2010 04:54:04 11.3 C 71 % 6.24 C
865 02-05-2010 05:06:04 11.1 C 70 % 5.84 C
866 02-05-2010 05:18:04 11.1 C 70 % 5.84 C
867 02-05-2010 05:30:04 11.1 C 71 % 6.05 C
868 02-05-2010 05:42:04 11 C 71 % 5.95 C
869 02-05-2010 05:54:04 11 C 71 % 5.95 C
870 02-05-2010 06:06:04 10.9 C 72 % 6.06 C
871 02-05-2010 06:18:04 11 C 71 % 5.95 C
872 02-05-2010 06:30:04 11 C 73 % 6.35 C
873 02-05-2010 06:42:04 10.9 C 73 % 6.26 C
874 02-05-2010 06:54:04 10.9 C 73 % 6.26 C
875 02-05-2010 07:06:04 11 C 72 % 6.15 C
Sensor: Nr:Datum:Temp:Feuchte:Taupunkt:
Aussen-T/F 876 02-05-2010 07:18:04 11.2 C 73 % 6.55 C
877 02-05-2010 07:30:04 11.4 C 73 % 6.74 C
878 02-05-2010 07:42:04 11.4 C 73 % 6.74 C
879 02-05-2010 07:54:02 11.4 C 73 % 6.74 C
880 02-05-2010 08:06:02 11.4 C 74 % 6.94 C
881 02-05-2010 08:18:02 11.6 C 75 % 7.33 C
882 02-05-2010 08:30:02 11.2 C 76 % 7.13 C
883 02-05-2010 08:42:02 11.2 C 77 % 7.32 C
884 02-05-2010 08:54:01 11.5 C 78 % 7.8 C
885 02-05-2010 09:06:02 11.8 C 78 % 8.09 C
886 02-05-2010 09:18:01 11.8 C 76 % 7.71 C
887 02-05-2010 09:30:01 12.1 C 75 % 7.81 C
888 02-05-2010 09:42:02 12.4 C 74 % 7.9 C
889 02-05-2010 09:54:01 12.9 C 72 % 7.98 C
890 02-05-2010 10:06:02 13.1 C 71 % 7.97 C
891 02-05-2010 10:18:01 13.5 C 69 % 7.93 C
892 02-05-2010 10:30:01 14.1 C 66 % 7.85 C
893 02-05-2010 10:42:02 14.9 C 63 % 7.93 C
894 02-05-2010 10:54:01 15.5 C 59 % 7.53 C
895 02-05-2010 11:06:02 16.2 C 55 % 7.16 C
896 02-05-2010 11:18:02 16.7 C 55 % 7.62 C
897 02-05-2010 11:30:02 17.4 C 49 % 6.59 C
898 02-05-2010 11:42:01 18.1 C 46 % 6.31 C
899 02-05-2010 11:54:02 17.9 C 46 % 6.13 C
900 02-05-2010 12:06:01 16.4 C 46 % 4.76 C
Sensor: Nr:Datum:Temp:Feuchte:Taupunkt:
Aussen-T/F 901 02-05-2010 12:18:02 13.5 C 63 % 6.6 C
902 02-05-2010 12:30:02 12.5 C 72 % 7.6 C
903 02-05-2010 12:42:01 11.4 C 75 % 7.13 C
904 02-05-2010 12:54:02 10.7 C 82 % 7.76 C
905 02-05-2010 13:06:02 10.8 C 84 % 8.21 C
906 02-05-2010 13:18:02 11.8 C 85 % 9.36 C
907 02-05-2010 13:30:02 11.6 C 83 % 8.81 C
908 02-05-2010 13:42:03 12.2 C 82 % 9.22 C
909 02-05-2010 13:54:02 13.1 C 78 % 9.36 C
910 02-05-2010 14:06:02 13.9 C 75 % 9.55 C
911 02-05-2010 14:18:02 14.5 C 72 % 9.52 C
912 02-05-2010 14:30:02 15.2 C 70 % 9.77 C
913 02-05-2010 14:42:02 15.3 C 68 % 9.43 C
914 02-05-2010 14:54:02 15.4 C 65 % 8.86 C
915 02-05-2010 15:06:02 14.9 C 63 % 7.93 C
916 02-05-2010 15:18:02 15.9 C 60 % 8.15 C
917 02-05-2010 15:30:02 17.7 C 49 % 6.86 C
918 02-05-2010 15:42:02 18.7 C 41 % 5.19 C
919 02-05-2010 15:54:02 18.6 C 38 % 4.02 C
920 02-05-2010 16:06:02 19.4 C 37 % 4.35 C
921 02-05-2010 16:18:02 18.8 C 37 % 3.82 C
922 02-05-2010 16:30:02 18 C 43 % 5.25 C
923 02-05-2010 16:42:02 17.3 C 50 % 6.79 C
924 02-05-2010 16:54:01 13.5 C 62 % 6.37 C
925 02-05-2010 17:06:02 12.3 C 76 % 8.2 C
Sensor: Nr:Datum:Temp:Feuchte:Taupunkt:
Aussen-T/F 926 02-05-2010 17:18:01 13.4 C 79 % 9.84 C
927 02-05-2010 17:30:01 15.2 C 68 % 9.34 C
928 02-05-2010 17:42:01 16.5 C 59 % 8.47 C
929 02-05-2010 17:54:01 17.2 C 55 % 8.09 C
930 02-05-2010 18:06:01 18.5 C 48 % 7.29 C
931 02-05-2010 18:18:02 18 C 45 % 5.9 C
932 02-05-2010 18:30:02 16.7 C 47 % 5.34 C
933 02-05-2010 18:42:01 16.3 C 50 % 5.87 C
934 02-05-2010 18:54:03 16.4 C 51 % 6.25 C
935 02-05-2010 19:06:02 17.5 C 45 % 5.45 C
936 02-05-2010 19:18:02 16.9 C 48 % 5.83 C
937 02-05-2010 19:30:02 18 C 45 % 5.9 C
938 02-05-2010 19:42:02 17.6 C 45 % 5.54 C
939 02-05-2010 19:54:02 17.3 C 44 % 4.94 C
940 02-05-2010 20:06:02 17.3 C 47 % 5.89 C
941 02-05-2010 20:18:02 17 C 50 % 6.51 C
942 02-05-2010 20:30:02 16.2 C 53 % 6.62 C
943 02-05-2010 20:42:02 15.1 C 57 % 6.65 C
944 02-05-2010 20:54:02 14.1 C 61 % 6.7 C
945 02-05-2010 21:06:02 13.4 C 65 % 6.96 C
946 02-05-2010 21:18:02 12.8 C 68 % 7.05 C
947 02-05-2010 21:30:03 12.5 C 70 % 7.18 C
948 02-05-2010 21:42:01 12.3 C 72 % 7.4 C
949 02-05-2010 21:54:03 12.1 C 72 % 7.21 C
950 02-05-2010 22:06:03 11.8 C 74 % 7.32 C
Sensor: Nr:Datum:Temp:Feuchte:Taupunkt:
Aussen-T/F 951 02-05-2010 22:19:04 11.6 C 75 % 7.33 C
952 02-05-2010 22:31:04 11.3 C 75 % 7.04 C
953 02-05-2010 22:43:04 11.2 C 76 % 7.13 C
954 02-05-2010 22:55:04 11 C 76 % 6.94 C
955 02-05-2010 23:07:04 10.8 C 77 % 6.94 C
956 02-05-2010 23:19:04 10.6 C 77 % 6.74 C
957 02-05-2010 23:31:04 10.2 C 77 % 6.35 C
958 02-05-2010 23:43:04 10.2 C 78 % 6.54 C
959 02-05-2010 23:55:04 10.2 C 78 % 6.54 C
960 03-05-2010 00:07:04 10.1 C 77 % 6.26 C
961 03-05-2010 00:19:04 10 C 78 % 6.35 C
962 03-05-2010 00:31:04 9.9 C 79 % 6.43 C
963 03-05-2010 00:43:04 9.5 C 79 % 6.05 C
964 03-05-2010 00:55:04 9.3 C 80 % 6.03 C
965 03-05-2010 01:07:04 9.2 C 80 % 5.94 C
966 03-05-2010 01:19:04 9.1 C 80 % 5.84 C
967 03-05-2010 01:31:04 9.1 C 80 % 5.84 C
968 03-05-2010 01:43:04 8.7 C 82 % 5.8 C
969 03-05-2010 01:55:04 8.7 C 82 % 5.8 C
970 03-05-2010 02:07:04 8.5 C 82 % 5.61 C
971 03-05-2010 02:19:05 8.1 C 82 % 5.22 C
972 03-05-2010 02:31:05 8 C 82 % 5.12 C
973 03-05-2010 02:43:05 8 C 82 % 5.12 C
974 03-05-2010 02:55:05 8 C 82 % 5.12 C
975 03-05-2010 03:07:05 8.2 C 84 % 5.66 C
Sensor: Nr:Datum:Temp:Feuchte:Taupunkt:
Aussen-T/F 976 03-05-2010 03:19:05 8.2 C 84 % 5.66 C
977 03-05-2010 03:31:05 8 C 84 % 5.47 C
978 03-05-2010 03:43:05 8 C 85 % 5.64 C
979 03-05-2010 03:55:05 8.1 C 85 % 5.73 C
980 03-05-2010 04:07:05 8.2 C 85 % 5.83 C
981 03-05-2010 04:19:05 8.3 C 85 % 5.93 C
982 03-05-2010 04:31:05 8.4 C 85 % 6.03 C
983 03-05-2010 04:43:05 8.6 C 84 % 6.05 C
984 03-05-2010 04:55:05 8.6 C 84 % 6.05 C
985 03-05-2010 05:07:05 8.6 C 83 % 5.88 C
986 03-05-2010 05:19:05 8.6 C 83 % 5.88 C
987 03-05-2010 05:31:05 8.6 C 83 % 5.88 C
988 03-05-2010 05:43:05 8.7 C 83 % 5.98 C
989 03-05-2010 05:55:05 8.5 C 83 % 5.78 C
990 03-05-2010 06:07:05 8.6 C 83 % 5.88 C
991 03-05-2010 06:19:05 8.7 C 83 % 5.98 C
992 03-05-2010 06:31:05 8.6 C 83 % 5.88 C
993 03-05-2010 06:43:05 8.6 C 83 % 5.88 C
994 03-05-2010 06:55:02 8.5 C 83 % 5.78 C
995 03-05-2010 07:07:03 8.2 C 83 % 5.49 C
996 03-05-2010 07:19:02 8.3 C 83 % 5.59 C
997 03-05-2010 07:31:02 8.2 C 84 % 5.66 C
998 03-05-2010 07:43:02 8.5 C 84 % 5.96 C
999 03-05-2010 07:55:01 8.8 C 85 % 6.42 C
1000 03-05-2010 08:07:02 9.1 C 82 % 6.19 C
Sensor: Nr:Datum:Temp:Feuchte:Taupunkt:
Aussen-T/F 1001 03-05-2010 08:19:02 9.6 C 79 % 6.14 C
1002 03-05-2010 08:31:02 10 C 73 % 5.39 C
1003 03-05-2010 08:43:02 9.9 C 72 % 5.1 C
1004 03-05-2010 08:55:02 10 C 71 % 4.99 C
1005 03-05-2010 09:07:02 10.1 C 70 % 4.89 C
1006 03-05-2010 09:19:02 10.6 C 70 % 5.36 C
1007 03-05-2010 09:31:02 10.5 C 69 % 5.06 C
1008 03-05-2010 09:43:02 10.8 C 69 % 5.35 C
1009 03-05-2010 09:55:01 10.8 C 68 % 5.14 C
1010 03-05-2010 10:07:02 10.8 C 68 % 5.14 C
1011 03-05-2010 10:19:01 11 C 67 % 5.12 C
1012 03-05-2010 10:31:01 10.9 C 68 % 5.23 C
1013 03-05-2010 10:43:01 10.8 C 68 % 5.14 C
1014 03-05-2010 10:55:01 11.5 C 67 % 5.59 C
1015 03-05-2010 11:07:02 12.1 C 62 % 5.05 C
1016 03-05-2010 11:19:01 11.9 C 63 % 5.09 C
1017 03-05-2010 11:31:01 12.1 C 62 % 5.05 C
1018 03-05-2010 11:43:01 14.1 C 56 % 5.46 C
1019 03-05-2010 11:55:01 14.5 C 54 % 5.31 C
1020 03-05-2010 12:07:01 14.7 C 52 % 4.96 C
1021 03-05-2010 12:19:02 15.7 C 48 % 4.73 C
1022 03-05-2010 12:31:01 15.2 C 48 % 4.28 C
1023 03-05-2010 12:43:01 14.5 C 49 % 3.93 C
1024 03-05-2010 12:55:02 13.6 C 59 % 5.75 C
1025 03-05-2010 13:07:01 14.2 C 56 % 5.56 C
Sensor: Nr:Datum:Temp:Feuchte:Taupunkt:
Aussen-T/F 1026 03-05-2010 13:19:01 14.9 C 54 % 5.69 C
1027 03-05-2010 13:31:01 15.7 C 48 % 4.73 C
1028 03-05-2010 13:43:01 16.7 C 44 % 4.4 C
1029 03-05-2010 13:55:02 11.3 C 56 % 2.85 C
1030 03-05-2010 14:07:02 11.2 C 62 % 4.2 C
1031 03-05-2010 14:19:02 10.1 C 68 % 4.47 C
1032 03-05-2010 14:31:01 9.1 C 77 % 5.29 C
1033 03-05-2010 14:43:01 9 C 82 % 6.1 C
1034 03-05-2010 14:55:02 8.4 C 84 % 5.86 C
1035 03-05-2010 15:07:01 8.8 C 86 % 6.59 C
1036 03-05-2010 15:19:02 9 C 87 % 6.96 C
1037 03-05-2010 15:31:02 9.6 C 88 % 7.71 C
1038 03-05-2010 15:43:02 10.2 C 86 % 7.97 C
1039 03-05-2010 15:55:02 11.1 C 85 % 8.68 C
1040 03-05-2010 16:07:02 11.1 C 78 % 7.41 C
1041 03-05-2010 16:19:02 11 C 75 % 6.75 C
1042 03-05-2010 16:31:02 10.2 C 76 % 6.16 C
1043 03-05-2010 16:43:02 10.1 C 77 % 6.26 C
1044 03-05-2010 16:55:01 10.5 C 76 % 6.45 C
1045 03-05-2010 17:07:02 10.1 C 73 % 5.49 C
1046 03-05-2010 17:19:01 10.4 C 77 % 6.55 C
1047 03-05-2010 17:31:02 10.7 C 76 % 6.65 C
1048 03-05-2010 17:43:03 11.4 C 73 % 6.74 C
1049 03-05-2010 17:55:02 11.5 C 68 % 5.81 C
1050 03-05-2010 18:07:02 11.3 C 70 % 6.03 C
Sensor: Nr:Datum:Temp:Feuchte:Taupunkt:
Aussen-T/F 1051 03-05-2010 18:19:01 10.7 C 67 % 4.83 C
1052 03-05-2010 18:31:02 10.9 C 70 % 5.65 C
1053 03-05-2010 18:43:02 11 C 70 % 5.75 C
1054 03-05-2010 18:55:02 10.9 C 67 % 5.02 C
1055 03-05-2010 19:07:02 10.8 C 67 % 4.93 C
1056 03-05-2010 19:19:01 10.7 C 67 % 4.83 C
1057 03-05-2010 19:31:02 10.4 C 69 % 4.97 C
1058 03-05-2010 19:43:02 10.3 C 67 % 4.45 C
1059 03-05-2010 19:55:02 10.3 C 67 % 4.45 C
1060 03-05-2010 20:07:02 10.1 C 65 % 3.83 C
1061 03-05-2010 20:19:02 10 C 64 % 3.51 C
1062 03-05-2010 20:31:02 9.8 C 66 % 3.76 C
1063 03-05-2010 20:43:02 9.5 C 65 % 3.26 C
1064 03-05-2010 20:55:01 9.3 C 68 % 3.71 C
1065 03-05-2010 21:07:02 9.2 C 68 % 3.61 C
1066 03-05-2010 21:19:02 9.2 C 70 % 4.02 C
1067 03-05-2010 21:31:02 9.2 C 70 % 4.02 C
1068 03-05-2010 21:43:02 8.9 C 73 % 4.33 C
1069 03-05-2010 21:55:02 8.9 C 72 % 4.14 C
1070 03-05-2010 22:07:02 8.8 C 74 % 4.43 C
1071 03-05-2010 22:20:05 8.7 C 75 % 4.52 C
1072 03-05-2010 22:32:05 8.5 C 76 % 4.52 C
1073 03-05-2010 22:44:05 8.5 C 77 % 4.71 C
1074 03-05-2010 22:56:05 8.4 C 76 % 4.42 C
1075 03-05-2010 23:08:05 8.4 C 76 % 4.42 C
Sensor: Nr:Datum:Temp:Feuchte:Taupunkt:
Aussen-T/F 1076 03-05-2010 23:20:05 8.4 C 77 % 4.61 C
1077 03-05-2010 23:32:05 8.4 C 77 % 4.61 C
1078 03-05-2010 23:44:05 8.3 C 77 % 4.51 C
1079 03-05-2010 23:56:05 8.3 C 77 % 4.51 C
1080 04-05-2010 00:08:05 8 C 77 % 4.22 C
1081 04-05-2010 00:20:05 7.5 C 78 % 3.92 C
1082 04-05-2010 00:32:05 7.2 C 80 % 3.99 C
1083 04-05-2010 00:44:05 7.4 C 81 % 4.36 C
1084 04-05-2010 00:56:05 7.8 C 82 % 4.92 C
1085 04-05-2010 01:08:05 8 C 79 % 4.59 C
1086 04-05-2010 01:20:06 8.1 C 78 % 4.5 C
1087 04-05-2010 01:32:06 8.2 C 77 % 4.42 C
1088 04-05-2010 01:44:06 8.3 C 77 % 4.51 C
1089 04-05-2010 01:56:06 8.4 C 77 % 4.61 C
1090 04-05-2010 02:08:06 8.4 C 77 % 4.61 C
1091 04-05-2010 02:20:06 8.4 C 77 % 4.61 C
1092 04-05-2010 02:32:06 8.4 C 77 % 4.61 C
1093 04-05-2010 02:44:06 8.3 C 77 % 4.51 C
1094 04-05-2010 02:56:06 8.4 C 78 % 4.79 C
1095 04-05-2010 03:08:06 8.4 C 78 % 4.79 C
1096 04-05-2010 03:20:06 8.4 C 78 % 4.79 C
1097 04-05-2010 03:32:06 8.3 C 78 % 4.7 C
1098 04-05-2010 03:44:06 8.2 C 79 % 4.78 C
1099 04-05-2010 03:56:06 8.1 C 80 % 4.86 C
1100 04-05-2010 04:08:06 8 C 80 % 4.77 C
Sensor: Nr:Datum:Temp:Feuchte:Taupunkt:
Aussen-T/F 1101 04-05-2010 04:20:06 7.9 C 82 % 5.02 C
1102 04-05-2010 04:32:06 7.9 C 83 % 5.2 C
1103 04-05-2010 04:44:06 7.9 C 83 % 5.2 C
1104 04-05-2010 04:56:06 7.9 C 83 % 5.2 C
1105 04-05-2010 05:08:06 8 C 82 % 5.12 C
1106 04-05-2010 05:20:06 8.1 C 82 % 5.22 C
1107 04-05-2010 05:32:07 8.2 C 82 % 5.32 C
1108 04-05-2010 05:44:07 8.2 C 82 % 5.32 C
1109 04-05-2010 05:56:07 8.2 C 82 % 5.32 C
1110 04-05-2010 06:08:07 8.1 C 82 % 5.22 C
1111 04-05-2010 06:20:07 8.2 C 82 % 5.32 C
1112 04-05-2010 06:32:07 8.2 C 82 % 5.32 C
1113 04-05-2010 06:44:07 8.3 C 82 % 5.41 C
1114 04-05-2010 06:56:02 8.4 C 82 % 5.51 C
1115 04-05-2010 07:08:01 8.5 C 82 % 5.61 C
1116 04-05-2010 07:20:02 8.6 C 81 % 5.53 C
1117 04-05-2010 07:32:01 8.7 C 81 % 5.63 C
1118 04-05-2010 07:44:01 8.7 C 80 % 5.45 C
1119 04-05-2010 07:56:02 8.8 C 78 % 5.18 C
1120 04-05-2010 08:08:01 9.2 C 74 % 4.81 C
1121 04-05-2010 08:20:01 9 C 73 % 4.43 C
1122 04-05-2010 08:32:02 9.1 C 73 % 4.52 C
1123 04-05-2010 08:44:03 8.9 C 72 % 4.14 C
1124 04-05-2010 08:56:02 8.9 C 72 % 4.14 C
1125 04-05-2010 09:08:02 9.2 C 71 % 4.22 C
Sensor: Nr:Datum:Temp:Feuchte:Taupunkt:
Aussen-T/F 1126 04-05-2010 09:20:01 9.1 C 70 % 3.93 C
1127 04-05-2010 09:32:02 9.3 C 70 % 4.12 C
1128 04-05-2010 09:44:02 9.3 C 69 % 3.91 C
1129 04-05-2010 09:56:02 9.5 C 68 % 3.9 C
1130 04-05-2010 10:08:02 9.6 C 67 % 3.78 C
1131 04-05-2010 10:20:01 9.8 C 63 % 3.1 C
1132 04-05-2010 10:32:02 9.8 C 63 % 3.1 C
1133 04-05-2010 10:44:02 9.9 C 61 % 2.74 C
1134 04-05-2010 10:56:01 10 C 59 % 2.37 C
1135 04-05-2010 11:08:02 10.2 C 58 % 2.32 C
1136 04-05-2010 11:20:02 10.5 C 54 % 1.6 C
1137 04-05-2010 11:32:02 10.7 C 53 % 1.52 C
1138 04-05-2010 11:44:02 11.1 C 50 % 1.08 C
1139 04-05-2010 11:56:02 11.3 C 49 % 0.99 C
1140 04-05-2010 12:08:02 10.8 C 50 % 0.81 C
1141 04-05-2010 12:20:02 10.5 C 50 % 0.53 C
1142 04-05-2010 12:32:01 10.6 C 49 % 0.35 C
1143 04-05-2010 12:44:01 11.6 C 47 % 0.69 C
1144 04-05-2010 12:56:02 12 C 44 % 0.14 C
1145 04-05-2010 13:08:01 12.2 C 43 % 0.01 C
1146 04-05-2010 13:20:02 11.7 C 45 % 0.18 C
1147 04-05-2010 13:32:01 11.8 C 43 % -0.36 C
1148 04-05-2010 13:44:01 12 C 42 % -0.5 C
1149 04-05-2010 13:56:02 12.2 C 42 % -0.32 C
1150 04-05-2010 14:08:02 12.1 C 42 % -0.41 C
Sensor: Nr:Datum:Temp:Feuchte:Taupunkt:
Aussen-T/F 1151 04-05-2010 14:20:02 12.5 C 44 % 0.59 C
1152 04-05-2010 14:32:02 13.1 C 40 % -0.18 C
1153 04-05-2010 14:44:02 13.4 C 40 % 0.09 C
1154 04-05-2010 14:56:02 13.5 C 38 % -0.52 C
1155 04-05-2010 15:08:02 13.5 C 39 % -0.17 C
1156 04-05-2010 15:20:02 13.8 C 37 % -0.62 C
1157 04-05-2010 15:32:02 13.5 C 38 % -0.52 C
1158 04-05-2010 15:44:02 13.5 C 39 % -0.17 C
1159 04-05-2010 15:56:02 12.9 C 40 % -0.36 C
1160 04-05-2010 16:08:02 12.5 C 41 % -0.38 C
1161 04-05-2010 16:20:02 12.8 C 41 % -0.11 C
1162 04-05-2010 16:32:02 12.5 C 40 % -0.71 C
1163 04-05-2010 16:44:02 12.5 C 40 % -0.71 C
1164 04-05-2010 16:56:01 12 C 40 % -1.16 C
1165 04-05-2010 17:08:02 12 C 40 % -1.16 C
1166 04-05-2010 17:20:01 11.4 C 42 % -1.04 C
1167 04-05-2010 17:32:02 11.4 C 43 % -0.72 C
1168 04-05-2010 17:44:02 11.5 C 42 % -0.95 C
1169 04-05-2010 17:56:02 11.4 C 42 % -1.04 C
1170 04-05-2010 18:08:02 11.5 C 41 % -1.28 C
1171 04-05-2010 18:20:02 11.4 C 41 % -1.37 C
1172 04-05-2010 18:32:02 11.2 C 41 % -1.55 C
1173 04-05-2010 18:44:02 11.1 C 41 % -1.64 C
1174 04-05-2010 18:56:02 11 C 43 % -1.08 C
1175 04-05-2010 19:08:02 11 C 43 % -1.08 C
Sensor: Nr:Datum:Temp:Feuchte:Taupunkt:
Aussen-T/F 1176 04-05-2010 19:20:02 12 C 39 % -1.51 C
1177 04-05-2010 19:32:02 11.4 C 39 % -2.04 C
1178 04-05-2010 19:44:02 11 C 40 % -2.06 C
1179 04-05-2010 19:56:01 11 C 42 % -1.4 C
1180 04-05-2010 20:08:02 10.7 C 43 % -1.35 C
1181 04-05-2010 20:20:01 10.6 C 46 % -0.52 C
1182 04-05-2010 20:32:01 10.1 C 46 % -0.98 C
1183 04-05-2010 20:44:01 9.8 C 47 % -0.96 C
1184 04-05-2010 20:56:01 9.4 C 48 % -1.04 C
1185 04-05-2010 21:08:02 9.5 C 47 % -1.23 C
1186 04-05-2010 21:20:01 9.6 C 47 % -1.14 C
1187 04-05-2010 21:32:01 9.7 C 50 % -0.21 C
1188 04-05-2010 21:44:01 9.5 C 51 % -0.12 C
1189 04-05-2010 21:56:01 8.8 C 53 % -0.24 C
1190 04-05-2010 22:09:04 8.2 C 52 % -1.05 C
1191 04-05-2010 22:21:04 8.1 C 52 % -1.15 C
1192 04-05-2010 22:33:05 7.8 C 52 % -1.43 C
1193 04-05-2010 22:45:05 7.7 C 51 % -1.78 C
1194 04-05-2010 22:57:05 7.5 C 52 % -1.7 C
1195 04-05-2010 23:09:05 7.4 C 52 % -1.8 C
1196 04-05-2010 23:21:05 7.4 C 52 % -1.8 C
1197 04-05-2010 23:33:05 7.3 C 51 % -2.15 C
1198 04-05-2010 23:45:05 7.3 C 51 % -2.15 C
1199 04-05-2010 23:57:05 7 C 51 % -2.43 C
1200 05-05-2010 00:09:05 6.8 C 53 % -2.09 C
Sensor: Nr:Datum:Temp:Feuchte:Taupunkt:
Aussen-T/F 1201 05-05-2010 00:21:05 6.7 C 55 % -1.69 C
1202 05-05-2010 00:33:05 6.3 C 57 % -1.58 C
1203 05-05-2010 00:45:05 6 C 58 % -1.62 C
1204 05-05-2010 00:57:05 5.8 C 61 % -1.13 C
1205 05-05-2010 01:09:05 5.5 C 62 % -1.19 C
1206 05-05-2010 01:21:05 5.3 C 64 % -0.94 C
1207 05-05-2010 01:33:05 5.4 C 63 % -1.06 C
1208 05-05-2010 01:45:05 5.6 C 61 % -1.31 C
1209 05-05-2010 01:57:05 5.6 C 60 % -1.54 C
1210 05-05-2010 02:09:05 5.7 C 58 % -1.9 C
1211 05-05-2010 02:21:05 5.7 C 58 % -1.9 C
1212 05-05-2010 02:33:05 5.6 C 59 % -1.77 C
1213 05-05-2010 02:45:06 5.5 C 60 % -1.63 C
1214 05-05-2010 02:57:06 5.2 C 61 % -1.69 C
1215 05-05-2010 03:09:06 5.1 C 62 % -1.57 C
1216 05-05-2010 03:21:06 4.8 C 63 % -1.63 C
1217 05-05-2010 03:33:06 4.7 C 62 % -1.94 C
1218 05-05-2010 03:45:06 4.6 C 62 % -2.04 C
1219 05-05-2010 03:57:06 4.5 C 61 % -2.35 C
1220 05-05-2010 04:09:06 4.3 C 61 % -2.54 C
1221 05-05-2010 04:21:06 4 C 63 % -2.39 C
1222 05-05-2010 04:33:06 3.8 C 65 % -2.16 C
1223 05-05-2010 04:45:06 3.7 C 66 % -2.05 C
1224 05-05-2010 04:57:06 3.7 C 65 % -2.25 C
1225 05-05-2010 05:09:06 3.6 C 65 % -2.35 C
Sensor: Nr:Datum:Temp:Feuchte:Taupunkt:
Aussen-T/F 1226 05-05-2010 05:21:06 3.6 C 64 % -2.56 C
1227 05-05-2010 05:33:06 3.6 C 63 % -2.77 C
1228 05-05-2010 05:45:06 3.4 C 62 % -3.17 C
1229 05-05-2010 05:57:06 3.2 C 64 % -2.94 C
1230 05-05-2010 06:09:06 3 C 65 % -2.92 C
1231 05-05-2010 06:21:06 2.8 C 68 % -2.51 C
1232 05-05-2010 06:33:03 2.6 C 69 % -2.5 C
1233 05-05-2010 06:45:03 2.5 C 70 % -2.4 C
1234 05-05-2010 06:57:03 2.5 C 71 % -2.21 C
1235 05-05-2010 07:09:02 2.5 C 72 % -2.02 C
1236 05-05-2010 07:21:03 2.7 C 73 % -1.64 C
1237 05-05-2010 07:33:02 2.8 C 73 % -1.55 C
1238 05-05-2010 07:45:02 3 C 72 % -1.54 C
1239 05-05-2010 07:57:02 3.4 C 72 % -1.16 C
1240 05-05-2010 08:09:02 3.8 C 71 % -0.96 C
1241 05-05-2010 08:21:02 4.4 C 66 % -1.38 C
1242 05-05-2010 08:33:02 4.6 C 63 % -1.82 C
1243 05-05-2010 08:45:02 4.9 C 61 % -1.97 C
1244 05-05-2010 08:57:02 5.3 C 58 % -2.28 C
1245 05-05-2010 09:09:01 6 C 55 % -2.34 C
1246 05-05-2010 09:21:02 6.6 C 51 % -2.8 C
1247 05-05-2010 09:33:02 7.2 C 50 % -2.51 C
1248 05-05-2010 09:45:02 7.5 C 47 % -3.06 C
1249 05-05-2010 09:57:02 7.9 C 45 % -3.28 C
1250 05-05-2010 10:09:02 8.1 C 43 % -3.71 C
Sensor: Nr:Datum:Temp:Feuchte:Taupunkt:
Aussen-T/F 1251 05-05-2010 10:21:02 8.6 C 41 % -3.89 C
1252 05-05-2010 10:33:02 9.5 C 37 % -4.44 C
1253 05-05-2010 10:45:01 9.6 C 34 % -5.47 C
1254 05-05-2010 10:57:01 10 C 31 % -6.32 C
1255 05-05-2010 11:09:02 10.4 C 30 % -6.4 C
1256 05-05-2010 11:21:01 10.7 C 28 % -7.04 C
1257 05-05-2010 11:33:02 11.2 C 30 % -5.71 C
1258 05-05-2010 11:45:02 11.9 C 25 % -7.47 C
1259 05-05-2010 11:57:02 12.5 C 22 % -8.61 C
1260 05-05-2010 12:09:02 12.7 C 20 % -9.65 C
1261 05-05-2010 12:21:01 12.7 C 20 % -9.65 C
1262 05-05-2010 12:33:02 13.4 C 20 % -9.07 C
1263 05-05-2010 12:45:02 14.6 C 20 % -8.08 C
1264 05-05-2010 12:57:02 15.2 C 20 % -7.58 C
1265 05-05-2010 13:09:02 15.9 C 20 % -7 C
1266 05-05-2010 13:21:01 16.6 C 20 % -6.42 C
1267 05-05-2010 13:33:02 17.2 C 20 % -5.93 C
1268 05-05-2010 13:45:01 16.6 C 20 % -6.42 C
1269 05-05-2010 13:57:01 16.4 C 20 % -6.59 C
1270 05-05-2010 14:09:02 16.7 C 20 % -6.34 C
1271 05-05-2010 14:21:02 16.7 C 20 % -6.34 C
1272 05-05-2010 14:33:01 17 C 20 % -6.09 C
1273 05-05-2010 14:45:01 17.4 C 20 % -5.76 C
1274 05-05-2010 14:57:01 17.5 C 20 % -5.68 C
1275 05-05-2010 15:09:02 18.3 C 20 % -5.02 C
Sensor: Nr:Datum:Temp:Feuchte:Taupunkt:
Aussen-T/F 1276 05-05-2010 15:21:02 18.2 C 20 % -5.1 C
1277 05-05-2010 15:33:01 17.8 C 20 % -5.43 C
1278 05-05-2010 15:45:02 18 C 20 % -5.27 C
1279 05-05-2010 15:57:02 18.2 C 20 % -5.1 C
1280 05-05-2010 16:09:01 18.3 C 20 % -5.02 C
1281 05-05-2010 16:21:01 18.1 C 20 % -5.18 C
1282 05-05-2010 16:33:01 17.7 C 20 % -5.51 C
1283 05-05-2010 16:45:02 17.5 C 20 % -5.68 C
1284 05-05-2010 16:57:02 17.2 C 20 % -5.93 C
1285 05-05-2010 17:09:02 16.7 C 20 % -6.34 C
1286 05-05-2010 17:21:02 16.2 C 20 % -6.75 C
1287 05-05-2010 17:33:02 15.6 C 20 % -7.25 C
1288 05-05-2010 17:45:02 15.1 C 20 % -7.66 C
1289 05-05-2010 17:57:02 14.8 C 20 % -7.91 C
1290 05-05-2010 18:09:01 14.5 C 20 % -8.16 C
1291 05-05-2010 18:21:01 14.4 C 20 % -8.24 C
1292 05-05-2010 18:33:02 14.2 C 20 % -8.41 C
1293 05-05-2010 18:45:02 14.1 C 20 % -8.49 C
1294 05-05-2010 18:57:02 13.8 C 20 % -8.74 C
1295 05-05-2010 19:09:02 13.7 C 20 % -8.82 C
1296 05-05-2010 19:21:01 13.6 C 20 % -8.91 C
1297 05-05-2010 19:33:02 13.5 C 20 % -8.99 C
1298 05-05-2010 19:45:02 13.3 C 21 % -8.53 C
1299 05-05-2010 19:57:02 13.1 C 20 % -9.32 C
1300 05-05-2010 20:09:02 13 C 22 % -8.19 C
Sensor: Nr:Datum:Temp:Feuchte:Taupunkt:
Aussen-T/F 1301 05-05-2010 20:21:02 12.9 C 25 % -6.62 C
1302 05-05-2010 20:33:02 12.8 C 26 % -6.2 C
1303 05-05-2010 20:45:02 12.7 C 26 % -6.28 C
1304 05-05-2010 20:57:02 12.6 C 26 % -6.37 C
1305 05-05-2010 21:09:02 12.5 C 26 % -6.46 C
1306 05-05-2010 21:21:02 12.4 C 26 % -6.54 C
1307 05-05-2010 21:33:02 12.3 C 26 % -6.63 C
1308 05-05-2010 21:45:02 12.3 C 27 % -6.13 C
1309 05-05-2010 21:57:02 12.2 C 27 % -6.22 C
1310 05-05-2010 22:09:03 12.1 C 28 % -5.83 C
1311 05-05-2010 22:21:02 12 C 29 % -5.46 C
1312 05-05-2010 22:34:02 11.9 C 32 % -4.25 C
1313 05-05-2010 22:46:02 11.7 C 32 % -4.42 C
1314 05-05-2010 22:58:02 11.7 C 32 % -4.42 C
1315 05-05-2010 23:10:02 11.6 C 31 % -4.93 C
1316 05-05-2010 23:22:02 11.5 C 31 % -5.02 C
1317 05-05-2010 23:34:02 11.6 C 32 % -4.51 C
1318 05-05-2010 23:46:02 11.4 C 33 % -4.28 C
1319 05-05-2010 23:58:02 11.4 C 33 % -4.28 C
1320 06-05-2010 00:10:02 11.3 C 34 % -3.97 C
1321 06-05-2010 00:22:02 11.2 C 35 % -3.67 C
1322 06-05-2010 00:34:02 11.2 C 35 % -3.67 C
1323 06-05-2010 00:46:02 10.7 C 41 % -2 C
1324 06-05-2010 00:58:02 9.8 C 48 % -0.67 C
1325 06-05-2010 01:10:02 8.7 C 59 % 1.15 C
Sensor: Nr:Datum:Temp:Feuchte:Taupunkt:
Aussen-T/F 1326 06-05-2010 01:22:02 7.9 C 67 % 2.16 C
1327 06-05-2010 01:34:02 7.3 C 75 % 3.17 C
1328 06-05-2010 01:46:02 7.1 C 77 % 3.35 C
1329 06-05-2010 01:58:03 7 C 78 % 3.43 C
1330 06-05-2010 02:10:03 6.9 C 82 % 4.05 C
1331 06-05-2010 02:22:03 6.8 C 84 % 4.29 C
1332 06-05-2010 02:34:03 6.7 C 86 % 4.53 C
1333 06-05-2010 02:46:03 6.5 C 87 % 4.5 C
1334 06-05-2010 02:58:03 6.8 C 88 % 4.96 C
1335 06-05-2010 03:10:03 6.8 C 89 % 5.12 C
1336 06-05-2010 03:22:03 6.7 C 90 % 5.18 C
1337 06-05-2010 03:34:03 6.5 C 91 % 5.14 C
1338 06-05-2010 03:46:03 6.9 C 91 % 5.54 C
1339 06-05-2010 03:58:03 6.8 C 92 % 5.59 C
1340 06-05-2010 04:10:03 6.9 C 92 % 5.69 C
1341 06-05-2010 04:22:03 6.9 C 92 % 5.69 C
1342 06-05-2010 04:34:03 6.9 C 92 % 5.69 C
1343 06-05-2010 04:46:03 6.9 C 92 % 5.69 C
1344 06-05-2010 04:58:03 6.8 C 92 % 5.59 C
1345 06-05-2010 05:10:03 6.6 C 93 % 5.55 C
1346 06-05-2010 05:22:03 6.5 C 93 % 5.45 C
1347 06-05-2010 05:34:03 6.6 C 93 % 5.55 C
1348 06-05-2010 05:46:03 6.8 C 93 % 5.75 C
1349 06-05-2010 05:58:04 6.8 C 93 % 5.75 C
1350 06-05-2010 06:10:04 6.5 C 93 % 5.45 C
Sensor: Nr:Datum:Temp:Feuchte:Taupunkt:
Aussen-T/F 1351 06-05-2010 06:22:04 6.5 C 93 % 5.45 C
1352 06-05-2010 06:34:04 6.5 C 93 % 5.45 C
1353 06-05-2010 06:46:04 6.6 C 93 % 5.55 C
1354 06-05-2010 06:58:04 6.5 C 94 % 5.61 C
1355 06-05-2010 07:10:01 6.4 C 94 % 5.51 C
1356 06-05-2010 07:22:02 6.4 C 94 % 5.51 C
1357 06-05-2010 07:34:01 6.3 C 94 % 5.41 C
1358 06-05-2010 07:46:03 6.5 C 94 % 5.61 C
1359 06-05-2010 07:58:03 6.3 C 94 % 5.41 C
1360 06-05-2010 08:10:02 6.1 C 94 % 5.21 C
1361 06-05-2010 08:22:02 6.2 C 94 % 5.31 C
1362 06-05-2010 08:34:03 6.2 C 94 % 5.31 C
1363 06-05-2010 08:46:02 6.4 C 94 % 5.51 C
1364 06-05-2010 08:58:02 6.2 C 94 % 5.31 C
1365 06-05-2010 09:10:02 6.2 C 93 % 5.15 C
1366 06-05-2010 09:22:01 6.4 C 94 % 5.51 C
1367 06-05-2010 09:34:02 6.6 C 94 % 5.71 C
1368 06-05-2010 09:46:02 6.8 C 94 % 5.9 C
1369 06-05-2010 09:58:02 6.8 C 94 % 5.9 C
1370 06-05-2010 10:10:02 6.8 C 94 % 5.9 C
1371 06-05-2010 10:22:02 6.9 C 94 % 6 C
1372 06-05-2010 10:34:02 6.8 C 93 % 5.75 C
1373 06-05-2010 10:46:02 6.8 C 93 % 5.75 C
1374 06-05-2010 10:58:02 6.9 C 93 % 5.85 C
1375 06-05-2010 11:10:02 7 C 93 % 5.95 C
Sensor: Nr:Datum:Temp:Feuchte:Taupunkt:
Aussen-T/F 1376 06-05-2010 11:22:02 7 C 92 % 5.79 C
1377 06-05-2010 11:34:02 7 C 92 % 5.79 C
1378 06-05-2010 11:46:01 7.1 C 92 % 5.89 C
1379 06-05-2010 11:58:01 7.1 C 92 % 5.89 C
1380 06-05-2010 12:10:01 7.2 C 92 % 5.99 C
1381 06-05-2010 12:22:02 6.9 C 92 % 5.69 C
1382 06-05-2010 12:34:02 6.9 C 91 % 5.54 C
1383 06-05-2010 12:46:01 7.1 C 91 % 5.73 C
1384 06-05-2010 12:58:01 7.2 C 90 % 5.67 C
1385 06-05-2010 13:10:02 7.5 C 90 % 5.97 C
1386 06-05-2010 13:22:01 7.7 C 90 % 6.17 C
1387 06-05-2010 13:34:02 7.4 C 90 % 5.87 C
1388 06-05-2010 13:46:02 7.3 C 91 % 5.93 C
1389 06-05-2010 13:58:02 7.2 C 91 % 5.83 C
1390 06-05-2010 14:10:03 7.3 C 92 % 6.09 C
1391 06-05-2010 14:22:02 7.4 C 92 % 6.19 C
1392 06-05-2010 14:34:03 7.3 C 92 % 6.09 C
1393 06-05-2010 14:46:02 7.4 C 92 % 6.19 C
1394 06-05-2010 14:58:02 7.6 C 93 % 6.54 C
1395 06-05-2010 15:10:02 7.5 C 93 % 6.44 C
1396 06-05-2010 15:22:02 7.1 C 92 % 5.89 C
1397 06-05-2010 15:34:03 7.1 C 93 % 6.05 C
1398 06-05-2010 15:46:01 6.9 C 93 % 5.85 C
1399 06-05-2010 15:58:01 6.9 C 94 % 6 C
1400 06-05-2010 16:10:02 6.7 C 94 % 5.8 C
Sensor: Nr:Datum:Temp:Feuchte:Taupunkt:
Aussen-T/F 1401 06-05-2010 16:22:02 6.5 C 93 % 5.45 C
1402 06-05-2010 16:34:02 6.5 C 93 % 5.45 C
1403 06-05-2010 16:46:03 6.5 C 93 % 5.45 C
1404 06-05-2010 16:58:03 6.5 C 93 % 5.45 C
1405 06-05-2010 17:10:02 6.5 C 92 % 5.3 C
1406 06-05-2010 17:22:03 6.6 C 92 % 5.4 C
1407 06-05-2010 17:34:02 6.4 C 92 % 5.2 C
1408 06-05-2010 17:46:03 6.5 C 92 % 5.3 C
1409 06-05-2010 17:58:03 6.3 C 92 % 5.1 C
1410 06-05-2010 18:10:02 6 C 91 % 4.65 C
1411 06-05-2010 18:22:02 5.9 C 91 % 4.55 C
1412 06-05-2010 18:34:02 5.8 C 91 % 4.45 C
1413 06-05-2010 18:46:02 5.9 C 92 % 4.7 C
1414 06-05-2010 18:58:02 5.9 C 92 % 4.7 C
1415 06-05-2010 19:10:02 6 C 91 % 4.65 C
1416 06-05-2010 19:22:02 5.9 C 92 % 4.7 C
1417 06-05-2010 19:34:02 5.9 C 92 % 4.7 C
1418 06-05-2010 19:46:02 5.7 C 92 % 4.5 C
1419 06-05-2010 19:58:02 5.6 C 93 % 4.56 C
1420 06-05-2010 20:10:01 5.6 C 93 % 4.56 C
1421 06-05-2010 20:22:02 5.5 C 93 % 4.46 C
1422 06-05-2010 20:34:02 5.6 C 94 % 4.71 C
1423 06-05-2010 20:46:02 5.4 C 94 % 4.51 C
1424 06-05-2010 20:58:02 5.4 C 94 % 4.51 C
1425 06-05-2010 21:10:01 5.4 C 94 % 4.51 C
Sensor: Nr:Datum:Temp:Feuchte:Taupunkt:
Aussen-T/F 1426 06-05-2010 21:22:02 5.4 C 94 % 4.51 C
1427 06-05-2010 21:34:01 5.3 C 94 % 4.41 C
1428 06-05-2010 21:46:03 5.4 C 94 % 4.51 C
1429 06-05-2010 21:58:03 5.4 C 94 % 4.51 C
1430 06-05-2010 22:10:02 5.4 C 95 % 4.66 C
1431 06-05-2010 22:22:02 5.4 C 95 % 4.66 C
1432 06-05-2010 22:34:02 5.4 C 95 % 4.66 C
1433 06-05-2010 22:47:02 5.4 C 95 % 4.66 C
1434 06-05-2010 22:59:02 5.4 C 95 % 4.66 C
1435 06-05-2010 23:11:02 5.4 C 95 % 4.66 C
1436 06-05-2010 23:23:02 5.4 C 95 % 4.66 C
1437 06-05-2010 23:35:02 5.4 C 95 % 4.66 C
1438 06-05-2010 23:47:02 5.3 C 95 % 4.57 C
1439 06-05-2010 23:59:02 5.3 C 95 % 4.57 C
1440 07-05-2010 00:11:02 5.4 C 95 % 4.66 C
1441 07-05-2010 00:23:02 5.4 C 95 % 4.66 C
1442 07-05-2010 00:35:02 5.4 C 95 % 4.66 C
1443 07-05-2010 00:47:02 5.4 C 95 % 4.66 C
1444 07-05-2010 00:59:02 5.4 C 95 % 4.66 C
1445 07-05-2010 01:11:03 5.4 C 95 % 4.66 C
1446 07-05-2010 01:23:03 5.4 C 95 % 4.66 C
1447 07-05-2010 01:35:03 5.4 C 95 % 4.66 C
1448 07-05-2010 01:47:03 5.4 C 95 % 4.66 C
1449 07-05-2010 01:59:03 5.4 C 95 % 4.66 C
1450 07-05-2010 02:11:03 5.4 C 95 % 4.66 C
Sensor: Nr:Datum:Temp:Feuchte:Taupunkt:
Aussen-T/F 1451 07-05-2010 02:23:03 5.4 C 95 % 4.66 C
1452 07-05-2010 02:35:03 5.4 C 95 % 4.66 C
1453 07-05-2010 02:47:03 5.4 C 95 % 4.66 C
1454 07-05-2010 02:59:03 5.4 C 95 % 4.66 C
1455 07-05-2010 03:11:03 5.4 C 95 % 4.66 C
1456 07-05-2010 03:23:03 5.4 C 95 % 4.66 C
1457 07-05-2010 03:35:03 5.3 C 95 % 4.57 C
1458 07-05-2010 03:47:03 5.3 C 95 % 4.57 C
1459 07-05-2010 03:59:03 5.2 C 95 % 4.47 C
1460 07-05-2010 04:11:03 5.2 C 95 % 4.47 C
1461 07-05-2010 04:23:03 5.2 C 95 % 4.47 C
1462 07-05-2010 04:35:03 5.2 C 95 % 4.47 C
1463 07-05-2010 04:47:03 5.2 C 95 % 4.47 C
1464 07-05-2010 04:59:03 5.1 C 95 % 4.37 C
1465 07-05-2010 05:11:04 5 C 95 % 4.27 C
1466 07-05-2010 05:23:04 5 C 95 % 4.27 C
1467 07-05-2010 05:35:04 4.9 C 95 % 4.17 C
1468 07-05-2010 05:47:04 4.8 C 95 % 4.07 C
1469 07-05-2010 05:59:04 4.7 C 95 % 3.97 C
1470 07-05-2010 06:11:04 4.7 C 95 % 3.97 C
1471 07-05-2010 06:23:04 4.6 C 95 % 3.87 C
1472 07-05-2010 06:35:04 4.5 C 95 % 3.77 C
1473 07-05-2010 06:47:04 4.6 C 95 % 3.87 C
1474 07-05-2010 06:59:04 4.6 C 95 % 3.87 C
1475 07-05-2010 07:11:04 4.6 C 95 % 3.87 C
Sensor: Nr:Datum:Temp:Feuchte:Taupunkt:
Aussen-T/F 1476 07-05-2010 07:23:04 4.7 C 95 % 3.97 C
1477 07-05-2010 07:35:04 4.6 C 95 % 3.87 C
1478 07-05-2010 07:47:04 4.7 C 95 % 3.97 C
1479 07-05-2010 07:59:04 4.8 C 95 % 4.07 C
1480 07-05-2010 08:11:04 4.9 C 95 % 4.17 C
1481 07-05-2010 08:23:04 4.8 C 95 % 4.07 C
1482 07-05-2010 08:35:02 5 C 95 % 4.27 C
1483 07-05-2010 08:47:02 4.8 C 94 % 3.92 C
1484 07-05-2010 08:59:02 4.6 C 94 % 3.72 C
1485 07-05-2010 09:11:02 4.9 C 93 % 3.87 C
1486 07-05-2010 09:23:03 4.8 C 93 % 3.77 C
1487 07-05-2010 09:35:02 4.7 C 92 % 3.51 C
1488 07-05-2010 09:47:02 5 C 90 % 3.5 C
1489 07-05-2010 09:59:02 4.9 C 90 % 3.4 C
1490 07-05-2010 10:11:02 5 C 89 % 3.34 C
1491 07-05-2010 10:23:02 5.3 C 89 % 3.64 C
1492 07-05-2010 10:35:02 6 C 88 % 4.17 C
1493 07-05-2010 10:47:02 5.6 C 87 % 3.61 C
1494 07-05-2010 10:59:02 5.7 C 86 % 3.55 C
1495 07-05-2010 11:11:01 6.8 C 86 % 4.63 C
1496 07-05-2010 11:23:02 7 C 86 % 4.82 C
1497 07-05-2010 11:35:02 7.1 C 86 % 4.92 C
1498 07-05-2010 11:47:02 7.1 C 86 % 4.92 C
1499 07-05-2010 11:59:02 7.1 C 85 % 4.75 C
1500 07-05-2010 12:11:03 7.1 C 82 % 4.24 C
Sensor: Nr:Datum:Temp:Feuchte:Taupunkt:
Aussen-T/F 1501 07-05-2010 12:23:02 7 C 81 % 3.97 C
1502 07-05-2010 12:35:02 7.1 C 82 % 4.24 C
1503 07-05-2010 12:47:01 7.3 C 82 % 4.44 C
1504 07-05-2010 12:59:01 7.2 C 79 % 3.81 C
1505 07-05-2010 13:11:02 7.3 C 81 % 4.26 C
1506 07-05-2010 13:23:01 7.8 C 81 % 4.75 C
1507 07-05-2010 13:35:02 8.3 C 79 % 4.88 C
1508 07-05-2010 13:47:01 7.9 C 79 % 4.49 C
1509 07-05-2010 13:59:01 7.7 C 79 % 4.3 C
1510 07-05-2010 14:11:02 8.6 C 80 % 5.35 C
1511 07-05-2010 14:23:01 8.4 C 80 % 5.16 C
1512 07-05-2010 14:35:02 8.5 C 81 % 5.43 C
1513 07-05-2010 14:47:01 8.3 C 81 % 5.24 C
1514 07-05-2010 14:59:01 8.3 C 79 % 4.88 C
1515 07-05-2010 15:11:02 8.4 C 81 % 5.33 C
1516 07-05-2010 15:23:02 7.8 C 81 % 4.75 C
1517 07-05-2010 15:35:02 7.7 C 81 % 4.65 C
1518 07-05-2010 15:47:02 8.5 C 82 % 5.61 C
1519 07-05-2010 15:59:02 8.6 C 82 % 5.71 C
1520 07-05-2010 16:11:01 9.3 C 80 % 6.03 C
1521 07-05-2010 16:23:01 9.2 C 78 % 5.57 C
1522 07-05-2010 16:35:01 9 C 75 % 4.81 C
1523 07-05-2010 16:47:01 9.2 C 78 % 5.57 C
1524 07-05-2010 16:59:01 9.1 C 78 % 5.47 C
1525 07-05-2010 17:11:02 8.9 C 79 % 5.46 C
Sensor: Nr:Datum:Temp:Feuchte:Taupunkt:
Aussen-T/F 1526 07-05-2010 17:23:01 9.2 C 78 % 5.57 C
1527 07-05-2010 17:35:02 9.4 C 78 % 5.76 C
1528 07-05-2010 17:47:01 9.8 C 78 % 6.15 C
1529 07-05-2010 17:59:01 9.8 C 78 % 6.15 C
1530 07-05-2010 18:11:02 9.8 C 78 % 6.15 C
1531 07-05-2010 18:23:02 9.4 C 77 % 5.58 C
1532 07-05-2010 18:35:02 9 C 78 % 5.38 C
1533 07-05-2010 18:47:02 9 C 80 % 5.74 C
1534 07-05-2010 18:59:02 8.5 C 82 % 5.61 C
1535 07-05-2010 19:11:02 8.2 C 84 % 5.66 C
1536 07-05-2010 19:23:02 8.1 C 84 % 5.56 C
1537 07-05-2010 19:35:02 7.9 C 86 % 5.71 C
1538 07-05-2010 19:47:02 7.6 C 88 % 5.74 C
1539 07-05-2010 19:59:02 7.7 C 88 % 5.84 C
1540 07-05-2010 20:11:02 7.3 C 89 % 5.61 C
1541 07-05-2010 20:23:01 7.3 C 89 % 5.61 C
1542 07-05-2010 20:35:02 7.2 C 90 % 5.67 C
1543 07-05-2010 20:47:02 7.1 C 91 % 5.73 C
1544 07-05-2010 20:59:02 6.9 C 92 % 5.69 C
1545 07-05-2010 21:11:02 6.7 C 92 % 5.49 C
1546 07-05-2010 21:23:02 6.8 C 92 % 5.59 C
1547 07-05-2010 21:35:02 6.8 C 93 % 5.75 C
1548 07-05-2010 21:47:02 6.7 C 93 % 5.65 C
1549 07-05-2010 21:59:02 6.4 C 93 % 5.35 C
1550 07-05-2010 22:11:02 6.1 C 93 % 5.06 C
Sensor: Nr:Datum:Temp:Feuchte:Taupunkt:
Aussen-T/F 1551 07-05-2010 22:23:02 5.9 C 93 % 4.86 C
1552 07-05-2010 22:35:02 5.7 C 93 % 4.66 C
1553 07-05-2010 22:47:02 5.6 C 93 % 4.56 C
1554 07-05-2010 22:59:02 5.7 C 94 % 4.81 C
1555 07-05-2010 23:11:01 5.9 C 94 % 5.01 C
1556 07-05-2010 23:23:02 5.9 C 94 % 5.01 C
1557 07-05-2010 23:35:02 5.9 C 95 % 5.16 C
1558 07-05-2010 23:47:02 6 C 94 % 5.11 C
1559 07-05-2010 23:59:03 6.1 C 94 % 5.21 C
1560 08-05-2010 00:11:01 6.2 C 94 % 5.31 C
1561 08-05-2010 00:23:02 6.2 C 94 % 5.31 C
1562 08-05-2010 00:35:01 6 C 94 % 5.11 C
1563 08-05-2010 00:47:02 5.6 C 94 % 4.71 C
1564 08-05-2010 00:59:02 5.5 C 94 % 4.61 C
1565 08-05-2010 01:11:02 5.4 C 94 % 4.51 C
1566 08-05-2010 01:23:02 5.1 C 94 % 4.22 C
1567 08-05-2010 01:35:02 4.9 C 94 % 4.02 C
1568 08-05-2010 01:47:02 4.7 C 94 % 3.82 C
1569 08-05-2010 01:59:02 4.7 C 95 % 3.97 C
1570 08-05-2010 02:11:01 4.5 C 94 % 3.62 C
1571 08-05-2010 02:23:02 4.5 C 95 % 3.77 C
1572 08-05-2010 02:35:02 4.6 C 95 % 3.87 C
1573 08-05-2010 02:48:03 4.4 C 95 % 3.67 C
1574 08-05-2010 03:00:03 4.5 C 95 % 3.77 C
1575 08-05-2010 03:12:03 4.6 C 95 % 3.87 C
Sensor: Nr:Datum:Temp:Feuchte:Taupunkt:
Aussen-T/F 1576 08-05-2010 03:24:03 4.7 C 95 % 3.97 C
1577 08-05-2010 03:36:02 4.6 C 95 % 3.87 C
1578 08-05-2010 03:48:02 4.6 C 95 % 3.87 C
1579 08-05-2010 04:00:02 4.7 C 95 % 3.97 C
1580 08-05-2010 04:12:02 4.6 C 95 % 3.87 C
1581 08-05-2010 04:24:02 4.4 C 95 % 3.67 C
1582 08-05-2010 04:36:02 4 C 95 % 3.27 C
1583 08-05-2010 04:48:02 4 C 95 % 3.27 C
1584 08-05-2010 05:00:02 4.1 C 95 % 3.37 C
1585 08-05-2010 05:12:01 4.2 C 95 % 3.47 C
1586 08-05-2010 05:24:02 4.4 C 95 % 3.67 C
1587 08-05-2010 05:36:02 4.5 C 95 % 3.77 C
1588 08-05-2010 05:48:02 4.5 C 95 % 3.77 C
1589 08-05-2010 06:00:02 4.5 C 95 % 3.77 C
1590 08-05-2010 06:12:03 4.6 C 95 % 3.87 C
1591 08-05-2010 06:24:02 4.6 C 95 % 3.87 C
1592 08-05-2010 06:36:02 4.8 C 95 % 4.07 C
1593 08-05-2010 06:48:01 4.8 C 95 % 4.07 C
1594 08-05-2010 07:00:01 4.8 C 95 % 4.07 C
1595 08-05-2010 07:12:02 5 C 95 % 4.27 C
1596 08-05-2010 07:24:01 5.2 C 95 % 4.47 C
1597 08-05-2010 07:36:01 5.5 C 95 % 4.76 C
1598 08-05-2010 07:48:01 5.6 C 95 % 4.86 C
1599 08-05-2010 08:00:01 5.9 C 94 % 5.01 C
1600 08-05-2010 08:12:02 6 C 92 % 4.8 C
Sensor: Nr:Datum:Temp:Feuchte:Taupunkt:
Aussen-T/F 1601 08-05-2010 08:24:01 5.8 C 91 % 4.45 C
1602 08-05-2010 08:36:01 6.2 C 89 % 4.53 C
1603 08-05-2010 08:48:01 6.5 C 88 % 4.66 C
1604 08-05-2010 09:00:01 7.3 C 87 % 5.28 C
1605 08-05-2010 09:12:02 8 C 85 % 5.64 C
1606 08-05-2010 09:24:01 8.1 C 82 % 5.22 C
1607 08-05-2010 09:36:01 8.7 C 81 % 5.63 C
1608 08-05-2010 09:48:01 9.2 C 79 % 5.75 C
1609 08-05-2010 10:00:01 9.1 C 76 % 5.1 C
1610 08-05-2010 10:12:02 9.1 C 74 % 4.72 C
1611 08-05-2010 10:24:01 9.6 C 75 % 5.39 C
1612 08-05-2010 10:36:01 10.1 C 73 % 5.49 C
1613 08-05-2010 10:48:01 10.4 C 73 % 5.78 C
1614 08-05-2010 11:00:01 11.2 C 72 % 6.35 C
1615 08-05-2010 11:12:02 12.1 C 67 % 6.17 C
1616 08-05-2010 11:24:01 12.8 C 63 % 5.94 C
1617 08-05-2010 11:36:01 14.1 C 52 % 4.4 C
1618 08-05-2010 11:48:01 15.1 C 43 % 2.63 C
1619 08-05-2010 12:00:01 14.8 C 42 % 2.03 C
1620 08-05-2010 12:12:01 14.5 C 40 % 1.08 C
1621 08-05-2010 12:24:02 15.6 C 39 % 1.71 C
1622 08-05-2010 12:36:01 15 C 37 % 0.45 C
1623 08-05-2010 12:48:03 16.3 C 37 % 1.6 C
1624 08-05-2010 13:00:03 16.5 C 37 % 1.78 C
1625 08-05-2010 13:12:02 16 C 39 % 2.07 C
Sensor: Nr:Datum:Temp:Feuchte:Taupunkt:
Aussen-T/F 1626 08-05-2010 13:24:02 15.8 C 39 % 1.89 C
1627 08-05-2010 13:36:02 17.5 C 36 % 2.28 C
1628 08-05-2010 13:48:02 18.4 C 31 % 0.99 C
1629 08-05-2010 14:00:02 16.4 C 30 % -1.2 C
1630 08-05-2010 14:12:02 15.5 C 31 % -1.53 C
1631 08-05-2010 14:24:02 15 C 34 % -0.71 C
1632 08-05-2010 14:36:01 15.6 C 33 % -0.6 C
1633 08-05-2010 14:48:02 15.6 C 31 % -1.45 C
1634 08-05-2010 15:00:02 16 C 31 % -1.1 C
1635 08-05-2010 15:12:01 16.1 C 31 % -1.01 C
1636 08-05-2010 15:24:02 16 C 32 % -0.67 C
1637 08-05-2010 15:36:02 16 C 32 % -0.67 C
1638 08-05-2010 15:48:02 15.5 C 35 % 0.12 C
1639 08-05-2010 16:00:02 16.4 C 33 % 0.11 C
1640 08-05-2010 16:12:03 16.6 C 31 % -0.58 C
1641 08-05-2010 16:24:02 16.4 C 32 % -0.32 C
1642 08-05-2010 16:36:02 17.5 C 29 % -0.71 C
1643 08-05-2010 16:48:01 17.6 C 28 % -1.1 C
1644 08-05-2010 17:00:01 17.4 C 28 % -1.27 C
1645 08-05-2010 17:12:02 17.5 C 28 % -1.19 C
1646 08-05-2010 17:24:01 18.5 C 27 % -0.83 C
1647 08-05-2010 17:36:02 17.9 C 27 % -1.34 C
1648 08-05-2010 17:48:01 18.7 C 26 % -1.17 C
1649 08-05-2010 18:00:01 19.2 C 25 % -1.28 C
1650 08-05-2010 18:12:02 19.9 C 23 % -1.82 C
Sensor: Nr:Datum:Temp:Feuchte:Taupunkt:
Aussen-T/F 1651 08-05-2010 18:24:01 19.4 C 24 % -1.66 C
1652 08-05-2010 18:36:02 19.5 C 25 % -1.03 C
1653 08-05-2010 18:48:01 19.8 C 25 % -0.77 C
1654 08-05-2010 19:00:01 19.1 C 25 % -1.36 C
1655 08-05-2010 19:12:02 18.8 C 25 % -1.62 C
1656 08-05-2010 19:24:02 18.4 C 27 % -0.91 C
1657 08-05-2010 19:36:02 17.5 C 30 % -0.25 C
1658 08-05-2010 19:48:01 17.6 C 31 % 0.29 C
1659 08-05-2010 20:00:01 17.3 C 35 % 1.71 C
1660 08-05-2010 20:12:02 16.5 C 43 % 3.89 C
1661 08-05-2010 20:24:02 15.7 C 48 % 4.73 C
1662 08-05-2010 20:36:02 15.1 C 47 % 3.88 C
1663 08-05-2010 20:48:01 14.3 C 49 % 3.74 C
1664 08-05-2010 21:00:01 13.8 C 50 % 3.57 C
1665 08-05-2010 21:12:02 13.5 C 52 % 3.85 C
1666 08-05-2010 21:24:02 13.5 C 55 % 4.65 C
1667 08-05-2010 21:36:02 13.5 C 52 % 3.85 C
1668 08-05-2010 21:48:02 12.9 C 53 % 3.56 C
1669 08-05-2010 22:00:02 12.4 C 54 % 3.36 C
1670 08-05-2010 22:12:02 11.9 C 57 % 3.66 C
1671 08-05-2010 22:24:02 11.7 C 56 % 3.23 C
1672 08-05-2010 22:36:01 11.8 C 59 % 4.06 C
1673 08-05-2010 22:48:02 12 C 60 % 4.49 C
1674 08-05-2010 23:00:02 11.8 C 59 % 4.06 C
1675 08-05-2010 23:12:01 11.6 C 61 % 4.35 C
Sensor: Nr:Datum:Temp:Feuchte:Taupunkt:
Aussen-T/F 1676 08-05-2010 23:24:02 11 C 62 % 4.01 C
1677 08-05-2010 23:36:01 10.6 C 64 % 4.08 C
1678 08-05-2010 23:48:02 10.3 C 65 % 4.02 C
1679 09-05-2010 00:00:02 10.2 C 67 % 4.36 C
1680 09-05-2010 00:12:02 10 C 68 % 4.38 C
1681 09-05-2010 00:24:03 9.8 C 70 % 4.6 C
1682 09-05-2010 00:36:02 9.6 C 70 % 4.41 C
1683 09-05-2010 00:48:02 9.4 C 71 % 4.42 C
1684 09-05-2010 01:00:02 9.1 C 72 % 4.33 C
1685 09-05-2010 01:12:02 9 C 74 % 4.62 C
1686 09-05-2010 01:24:03 8.7 C 75 % 4.52 C
1687 09-05-2010 01:36:02 8.6 C 75 % 4.43 C
1688 09-05-2010 01:48:03 8.7 C 76 % 4.71 C
1689 09-05-2010 02:00:03 8.8 C 77 % 5 C
1690 09-05-2010 02:12:02 8.7 C 77 % 4.9 C
1691 09-05-2010 02:24:02 8.7 C 77 % 4.9 C
1692 09-05-2010 02:36:02 8.4 C 77 % 4.61 C
1693 09-05-2010 02:49:04 8.5 C 77 % 4.71 C
1694 09-05-2010 03:01:04 8.5 C 78 % 4.89 C
1695 09-05-2010 03:13:03 8.3 C 78 % 4.7 C
1696 09-05-2010 03:25:03 8.5 C 78 % 4.89 C
1697 09-05-2010 03:37:01 8.5 C 78 % 4.89 C
1698 09-05-2010 03:49:01 8.5 C 78 % 4.89 C
1699 09-05-2010 04:01:01 8.6 C 78 % 4.99 C
1700 09-05-2010 04:13:01 8.6 C 78 % 4.99 C
Sensor: Nr:Datum:Temp:Feuchte:Taupunkt:
Aussen-T/F 1701 09-05-2010 04:25:02 8.5 C 78 % 4.89 C
1702 09-05-2010 04:37:01 8.5 C 78 % 4.89 C
1703 09-05-2010 04:49:03 8.3 C 78 % 4.7 C
1704 09-05-2010 05:01:02 8 C 78 % 4.41 C
1705 09-05-2010 05:13:02 7.8 C 80 % 4.57 C
1706 09-05-2010 05:25:02 7.6 C 81 % 4.55 C
1707 09-05-2010 05:37:02 7.4 C 82 % 4.53 C
1708 09-05-2010 05:49:02 7.4 C 82 % 4.53 C
1709 09-05-2010 06:01:02 7.6 C 83 % 4.9 C
1710 09-05-2010 06:13:02 7.9 C 83 % 5.2 C
1711 09-05-2010 06:25:02 8 C 81 % 4.94 C
1712 09-05-2010 06:37:02 8.1 C 81 % 5.04 C
1713 09-05-2010 06:49:02 8.3 C 81 % 5.24 C
1714 09-05-2010 07:01:02 8.5 C 81 % 5.43 C
1715 09-05-2010 07:13:02 8.6 C 80 % 5.35 C
1716 09-05-2010 07:25:01 8.7 C 79 % 5.27 C
1717 09-05-2010 07:37:02 9.1 C 78 % 5.47 C
1718 09-05-2010 07:49:02 9.1 C 77 % 5.29 C
1719 09-05-2010 08:01:02 9.6 C 76 % 5.58 C
1720 09-05-2010 08:13:02 9.6 C 76 % 5.58 C
1721 09-05-2010 08:25:02 9.6 C 75 % 5.39 C
1722 09-05-2010 08:37:02 10 C 75 % 5.78 C
1723 09-05-2010 08:49:02 10.4 C 73 % 5.78 C
1724 09-05-2010 09:01:02 10.8 C 71 % 5.76 C
1725 09-05-2010 09:13:02 10.9 C 72 % 6.06 C
Sensor: Nr:Datum:Temp:Feuchte:Taupunkt:
Aussen-T/F 1726 09-05-2010 09:25:02 11.1 C 69 % 5.64 C
1727 09-05-2010 09:37:03 11.7 C 68 % 6 C
1728 09-05-2010 09:49:02 12 C 65 % 5.63 C
1729 09-05-2010 10:01:01 12.4 C 64 % 5.79 C
1730 09-05-2010 10:13:01 12.7 C 64 % 6.07 C
1731 09-05-2010 10:25:01 12.2 C 67 % 6.26 C
1732 09-05-2010 10:37:02 12.2 C 70 % 6.9 C
1733 09-05-2010 10:49:02 12 C 69 % 6.5 C
1734 09-05-2010 11:01:01 12.2 C 70 % 6.9 C
1735 09-05-2010 11:13:01 12.4 C 69 % 6.88 C
1736 09-05-2010 11:25:02 12.3 C 68 % 6.57 C
1737 09-05-2010 11:37:01 12.3 C 67 % 6.36 C
1738 09-05-2010 11:49:02 12.2 C 67 % 6.26 C
1739 09-05-2010 12:01:02 12.3 C 67 % 6.36 C
1740 09-05-2010 12:13:02 13 C 65 % 6.58 C
1741 09-05-2010 12:25:02 13.4 C 62 % 6.28 C
1742 09-05-2010 12:37:02 14 C 60 % 6.37 C
1743 09-05-2010 12:49:02 14.4 C 58 % 6.25 C
1744 09-05-2010 13:01:01 15 C 54 % 5.78 C
1745 09-05-2010 13:13:01 16.2 C 51 % 6.06 C
1746 09-05-2010 13:25:01 17.2 C 45 % 5.18 C
1747 09-05-2010 13:37:02 18.5 C 40 % 4.66 C
1748 09-05-2010 13:49:02 18.2 C 40 % 4.39 C
1749 09-05-2010 14:01:02 17.9 C 40 % 4.12 C
1750 09-05-2010 14:13:02 17.5 C 41 % 4.12 C
Sensor: Nr:Datum:Temp:Feuchte:Taupunkt:
Aussen-T/F 1751 09-05-2010 14:25:02 16.7 C 43 % 4.07 C
1752 09-05-2010 14:37:01 16.7 C 43 % 4.07 C
1753 09-05-2010 14:49:02 17 C 43 % 4.34 C
1754 09-05-2010 15:01:01 17 C 43 % 4.34 C
1755 09-05-2010 15:13:01 17.3 C 43 % 4.62 C
1756 09-05-2010 15:25:02 17.6 C 42 % 4.55 C
1757 09-05-2010 15:37:01 17.8 C 42 % 4.73 C
1758 09-05-2010 15:49:03 17.9 C 41 % 4.48 C
1759 09-05-2010 16:01:02 18 C 41 % 4.57 C
1760 09-05-2010 16:13:02 18.7 C 40 % 4.84 C
1761 09-05-2010 16:25:02 19.1 C 38 % 4.46 C
1762 09-05-2010 16:37:02 18.7 C 38 % 4.11 C
1763 09-05-2010 16:49:02 18 C 37 % 3.11 C
1764 09-05-2010 17:01:02 17.8 C 38 % 3.31 C
1765 09-05-2010 17:13:02 19.6 C 34 % 3.33 C
1766 09-05-2010 17:25:02 19.5 C 30 % 1.48 C
1767 09-05-2010 17:37:02 19.1 C 33 % 2.47 C
1768 09-05-2010 17:49:02 19.4 C 31 % 1.85 C
1769 09-05-2010 18:01:02 19.5 C 34 % 3.24 C
1770 09-05-2010 18:13:02 18.9 C 35 % 3.12 C
1771 09-05-2010 18:25:03 18.7 C 36 % 3.34 C
1772 09-05-2010 18:37:02 18.3 C 37 % 3.38 C
1773 09-05-2010 18:49:03 18.1 C 39 % 3.94 C
1774 09-05-2010 19:01:02 17.6 C 44 % 5.22 C
1775 09-05-2010 19:13:03 17 C 47 % 5.62 C
Sensor: Nr:Datum:Temp:Feuchte:Taupunkt:
Aussen-T/F 1776 09-05-2010 19:25:02 17 C 48 % 5.92 C
1777 09-05-2010 19:37:02 16.6 C 49 % 5.85 C
1778 09-05-2010 19:49:01 16.2 C 50 % 5.78 C
1779 09-05-2010 20:01:02 15.8 C 52 % 5.97 C
1780 09-05-2010 20:13:02 15.2 C 53 % 5.69 C
1781 09-05-2010 20:25:01 14.8 C 54 % 5.59 C
1782 09-05-2010 20:37:01 14.3 C 56 % 5.65 C
1783 09-05-2010 20:49:01 14 C 56 % 5.37 C
1784 09-05-2010 21:01:02 13.4 C 60 % 5.8 C
1785 09-05-2010 21:13:02 12.8 C 63 % 5.94 C
1786 09-05-2010 21:25:02 12.5 C 65 % 6.11 C
1787 09-05-2010 21:37:02 12.1 C 66 % 5.95 C
1788 09-05-2010 21:49:02 11.7 C 68 % 6 C
1789 09-05-2010 22:01:03 11.5 C 69 % 6.02 C
1790 09-05-2010 22:13:03 11.3 C 70 % 6.03 C
1791 09-05-2010 22:25:02 11.1 C 70 % 5.84 C
1792 09-05-2010 22:38:04 10.9 C 70 % 5.65 C
1793 09-05-2010 22:50:04 10.8 C 71 % 5.76 C
1794 09-05-2010 23:02:04 10.8 C 72 % 5.96 C
1795 09-05-2010 23:14:04 10.9 C 71 % 5.86 C
1796 09-05-2010 23:26:05 10.7 C 72 % 5.87 C
1797 09-05-2010 23:38:05 10.8 C 73 % 6.16 C
1798 09-05-2010 23:50:05 10.5 C 73 % 5.87 C
1799 10-05-2010 00:02:05 10.4 C 74 % 5.97 C
1800 10-05-2010 00:14:05 10.5 C 74 % 6.07 C
Sensor: Nr:Datum:Temp:Feuchte:Taupunkt:
Aussen-T/F 1801 10-05-2010 00:26:05 10.3 C 74 % 5.88 C
1802 10-05-2010 00:38:05 10.1 C 75 % 5.88 C
1803 10-05-2010 00:50:05 9.8 C 78 % 6.15 C
1804 10-05-2010 01:02:05 9.8 C 78 % 6.15 C
1805 10-05-2010 01:14:05 9.8 C 79 % 6.34 C
1806 10-05-2010 01:26:05 9.9 C 79 % 6.43 C
1807 10-05-2010 01:38:05 10 C 77 % 6.16 C
1808 10-05-2010 01:50:05 9.8 C 78 % 6.15 C
1809 10-05-2010 02:02:05 9.7 C 78 % 6.06 C
1810 10-05-2010 02:14:05 9.5 C 79 % 6.05 C
1811 10-05-2010 02:26:05 9.4 C 80 % 6.13 C
1812 10-05-2010 02:38:05 9.4 C 80 % 6.13 C
1813 10-05-2010 02:50:05 9.4 C 81 % 6.31 C
1814 10-05-2010 03:02:05 9.2 C 81 % 6.11 C
1815 10-05-2010 03:14:05 9 C 81 % 5.92 C
1816 10-05-2010 03:26:05 8.8 C 82 % 5.9 C
1817 10-05-2010 03:38:05 8.7 C 83 % 5.98 C
1818 10-05-2010 03:50:06 8.7 C 84 % 6.15 C
1819 10-05-2010 04:02:06 8.6 C 84 % 6.05 C
1820 10-05-2010 04:14:06 8.6 C 84 % 6.05 C
1821 10-05-2010 04:26:06 8.6 C 85 % 6.23 C
1822 10-05-2010 04:38:06 8.6 C 85 % 6.23 C
1823 10-05-2010 04:50:06 8.7 C 84 % 6.15 C
1824 10-05-2010 05:02:06 8.6 C 84 % 6.05 C
1825 10-05-2010 05:14:06 8.6 C 84 % 6.05 C
Sensor: Nr:Datum:Temp:Feuchte:Taupunkt:
Aussen-T/F 1826 10-05-2010 05:26:06 8.6 C 85 % 6.23 C
1827 10-05-2010 05:38:06 8.7 C 85 % 6.32 C
1828 10-05-2010 05:50:06 8.8 C 84 % 6.25 C
1829 10-05-2010 06:02:06 8.7 C 84 % 6.15 C
1830 10-05-2010 06:14:06 8.7 C 84 % 6.15 C
1831 10-05-2010 06:26:06 8.8 C 84 % 6.25 C
1832 10-05-2010 06:38:04 8.9 C 84 % 6.35 C
1833 10-05-2010 06:50:02 9 C 83 % 6.27 C
1834 10-05-2010 07:02:02 9.1 C 83 % 6.37 C
1835 10-05-2010 07:14:02 9.4 C 83 % 6.66 C
1836 10-05-2010 07:26:01 9.6 C 83 % 6.86 C
1837 10-05-2010 07:38:02 9.8 C 83 % 7.05 C
1838 10-05-2010 07:50:02 10.2 C 81 % 7.09 C
1839 10-05-2010 08:02:02 10.5 C 80 % 7.2 C
1840 10-05-2010 08:14:02 10.6 C 79 % 7.11 C
1841 10-05-2010 08:26:02 10.7 C 78 % 7.03 C
1842 10-05-2010 08:38:02 10.7 C 76 % 6.65 C
1843 10-05-2010 08:50:02 10.7 C 75 % 6.46 C
1844 10-05-2010 09:02:02 10.8 C 75 % 6.55 C
1845 10-05-2010 09:14:03 10.8 C 73 % 6.16 C
1846 10-05-2010 09:26:02 10.7 C 74 % 6.26 C
1847 10-05-2010 09:38:02 11 C 72 % 6.15 C
1848 10-05-2010 09:50:02 11.1 C 72 % 6.25 C
1849 10-05-2010 10:02:02 11.1 C 71 % 6.05 C
1850 10-05-2010 10:14:02 11.4 C 69 % 5.92 C
Sensor: Nr:Datum:Temp:Feuchte:Taupunkt:
Aussen-T/F 1851 10-05-2010 10:26:03 11.2 C 70 % 5.94 C
1852 10-05-2010 10:38:02 11.6 C 69 % 6.11 C
1853 10-05-2010 10:50:02 11.4 C 68 % 5.71 C
1854 10-05-2010 11:02:02 11.5 C 69 % 6.02 C
1855 10-05-2010 11:14:02 11.5 C 68 % 5.81 C
1856 10-05-2010 11:26:02 11.5 C 68 % 5.81 C
1857 10-05-2010 11:38:02 11.3 C 69 % 5.83 C
1858 10-05-2010 11:50:02 11.7 C 69 % 6.21 C
1859 10-05-2010 12:02:03 11.7 C 68 % 6 C
1860 10-05-2010 12:14:03 11.6 C 67 % 5.69 C
1861 10-05-2010 12:26:02 12.7 C 63 % 5.85 C
1862 10-05-2010 12:38:03 12.9 C 60 % 5.33 C
1863 10-05-2010 12:50:02 14.1 C 56 % 5.46 C
1864 10-05-2010 13:02:02 13.5 C 55 % 4.65 C
1865 10-05-2010 13:14:02 13.5 C 55 % 4.65 C
1866 10-05-2010 13:26:01 14.7 C 49 % 4.11 C
1867 10-05-2010 13:38:02 15.3 C 49 % 4.66 C
1868 10-05-2010 13:50:02 15.4 C 47 % 4.16 C
1869 10-05-2010 14:02:02 15.3 C 46 % 3.76 C
1870 10-05-2010 14:14:02 15.5 C 46 % 3.94 C
1871 10-05-2010 14:26:02 14.8 C 47 % 3.61 C
1872 10-05-2010 14:38:02 14.7 C 47 % 3.52 C
1873 10-05-2010 14:50:02 14.7 C 47 % 3.52 C
1874 10-05-2010 15:02:02 15 C 45 % 3.18 C
1875 10-05-2010 15:14:02 15.4 C 44 % 3.22 C
Sensor: Nr:Datum:Temp:Feuchte:Taupunkt:
Aussen-T/F 1876 10-05-2010 15:26:02 15.1 C 46 % 3.58 C
1877 10-05-2010 15:38:02 15.3 C 43 % 2.81 C
1878 10-05-2010 15:50:02 14.7 C 46 % 3.22 C
1879 10-05-2010 16:02:02 15.2 C 45 % 3.36 C
1880 10-05-2010 16:14:02 15.8 C 43 % 3.26 C
1881 10-05-2010 16:26:02 15.7 C 41 % 2.5 C
1882 10-05-2010 16:38:02 16.2 C 40 % 2.6 C
1883 10-05-2010 16:50:02 16.3 C 37 % 1.6 C
1884 10-05-2010 17:02:02 15.5 C 41 % 2.32 C
1885 10-05-2010 17:14:02 15.6 C 41 % 2.41 C
1886 10-05-2010 17:26:02 16 C 39 % 2.07 C
1887 10-05-2010 17:38:02 16 C 39 % 2.07 C
1888 10-05-2010 17:50:01 15.8 C 40 % 2.24 C
1889 10-05-2010 18:02:02 16.4 C 36 % 1.31 C
1890 10-05-2010 18:14:02 17.3 C 34 % 1.31 C
1891 10-05-2010 18:26:02 17.6 C 34 % 1.57 C
1892 10-05-2010 18:38:01 17.1 C 32 % 0.29 C
1893 10-05-2010 18:50:02 15.8 C 35 % 0.39 C
1894 10-05-2010 19:02:01 15.4 C 36 % 0.42 C
1895 10-05-2010 19:14:01 15.6 C 37 % 0.98 C
1896 10-05-2010 19:26:02 14.9 C 39 % 1.09 C
1897 10-05-2010 19:38:01 14.7 C 40 % 1.26 C
1898 10-05-2010 19:50:02 14.5 C 41 % 1.42 C
1899 10-05-2010 20:02:01 14.5 C 40 % 1.08 C
1900 10-05-2010 20:14:01 14.5 C 40 % 1.08 C
Sensor: Nr:Datum:Temp:Feuchte:Taupunkt:
Aussen-T/F 1901 10-05-2010 20:26:02 14.3 C 41 % 1.24 C
1902 10-05-2010 20:38:01 13.7 C 43 % 1.36 C
1903 10-05-2010 20:50:02 13.1 C 45 % 1.45 C
1904 10-05-2010 21:02:02 12.8 C 48 % 2.08 C
1905 10-05-2010 21:14:02 12.3 C 50 % 2.19 C
1906 10-05-2010 21:26:02 11.9 C 52 % 2.37 C
1907 10-05-2010 21:38:02 11.6 C 52 % 2.09 C
1908 10-05-2010 21:50:02 11.5 C 54 % 2.53 C
1909 10-05-2010 22:02:02 11.5 C 55 % 2.79 C
1910 10-05-2010 22:14:02 11.5 C 54 % 2.53 C
1911 10-05-2010 22:27:04 11.2 C 55 % 2.51 C
1912 10-05-2010 22:39:04 11.1 C 55 % 2.41 C
1913 10-05-2010 22:51:04 11.8 C 55 % 3.07 C
1914 10-05-2010 23:03:04 11.6 C 57 % 3.38 C
1915 10-05-2010 23:15:05 11.2 C 56 % 2.76 C
1916 10-05-2010 23:27:05 11.3 C 57 % 3.1 C
1917 10-05-2010 23:39:05 11.4 C 57 % 3.2 C
1918 10-05-2010 23:51:05 11.2 C 57 % 3.01 C
1919 11-05-2010 00:03:05 11 C 57 % 2.82 C
1920 11-05-2010 00:15:05 11.1 C 57 % 2.92 C
1921 11-05-2010 00:27:05 10.7 C 58 % 2.79 C
1922 11-05-2010 00:39:05 10.8 C 59 % 3.12 C
1923 11-05-2010 00:51:05 10.8 C 59 % 3.12 C
1924 11-05-2010 01:03:05 10.4 C 61 % 3.21 C
1925 11-05-2010 01:15:05 10.5 C 60 % 3.08 C
Sensor: Nr:Datum:Temp:Feuchte:Taupunkt:
Aussen-T/F 1926 11-05-2010 01:27:05 10.5 C 61 % 3.31 C
1927 11-05-2010 01:39:05 10.4 C 62 % 3.44 C
1928 11-05-2010 01:51:05 10.3 C 63 % 3.58 C
1929 11-05-2010 02:03:05 10.1 C 63 % 3.39 C
1930 11-05-2010 02:15:05 10 C 64 % 3.51 C
1931 11-05-2010 02:27:05 10.1 C 64 % 3.61 C
1932 11-05-2010 02:39:05 10.1 C 64 % 3.61 C
1933 11-05-2010 02:51:05 10.2 C 64 % 3.7 C
1934 11-05-2010 03:03:05 10 C 65 % 3.73 C
1935 11-05-2010 03:15:05 9.7 C 65 % 3.45 C
1936 11-05-2010 03:27:05 9.9 C 65 % 3.64 C
1937 11-05-2010 03:39:06 9.7 C 68 % 4.09 C
1938 11-05-2010 03:51:06 9.6 C 69 % 4.2 C
1939 11-05-2010 04:03:06 9.7 C 70 % 4.5 C
1940 11-05-2010 04:15:06 9.5 C 67 % 3.69 C
1941 11-05-2010 04:27:06 9.4 C 67 % 3.59 C
1942 11-05-2010 04:39:06 9.3 C 67 % 3.5 C
1943 11-05-2010 04:51:06 9.4 C 68 % 3.8 C
1944 11-05-2010 05:03:06 9.4 C 68 % 3.8 C
1945 11-05-2010 05:15:06 9.3 C 68 % 3.71 C
1946 11-05-2010 05:27:06 9.5 C 68 % 3.9 C
1947 11-05-2010 05:39:06 9.4 C 68 % 3.8 C
1948 11-05-2010 05:51:06 9.3 C 69 % 3.91 C
1949 11-05-2010 06:03:06 9.4 C 69 % 4.01 C
1950 11-05-2010 06:15:06 9.3 C 68 % 3.71 C
Sensor: Nr:Datum:Temp:Feuchte:Taupunkt:
Aussen-T/F 1951 11-05-2010 06:27:06 9.3 C 69 % 3.91 C
1952 11-05-2010 06:39:06 9.1 C 69 % 3.72 C
1953 11-05-2010 06:51:02 9.1 C 69 % 3.72 C
1954 11-05-2010 07:03:01 9.3 C 70 % 4.12 C
1955 11-05-2010 07:15:02 9.5 C 70 % 4.31 C
1956 11-05-2010 07:27:02 9.6 C 69 % 4.2 C
1957 11-05-2010 07:39:02 9.7 C 68 % 4.09 C
1958 11-05-2010 07:51:01 9.9 C 68 % 4.28 C
1959 11-05-2010 08:03:02 10.1 C 66 % 4.05 C
1960 11-05-2010 08:15:01 10.5 C 65 % 4.21 C
1961 11-05-2010 08:27:01 10.7 C 63 % 3.95 C
1962 11-05-2010 08:39:01 11.2 C 62 % 4.2 C
1963 11-05-2010 08:51:01 12 C 59 % 4.25 C
1964 11-05-2010 09:03:02 11.7 C 58 % 3.72 C
1965 11-05-2010 09:15:01 11.7 C 58 % 3.72 C
1966 11-05-2010 09:27:01 11.9 C 58 % 3.91 C
1967 11-05-2010 09:39:02 12.8 C 54 % 3.74 C
1968 11-05-2010 09:51:01 12.7 C 52 % 3.11 C
1969 11-05-2010 10:03:02 12.8 C 55 % 4 C
1970 11-05-2010 10:15:02 13 C 53 % 3.66 C
1971 11-05-2010 10:27:02 13 C 52 % 3.39 C
1972 11-05-2010 10:39:01 12.3 C 55 % 3.53 C
1973 11-05-2010 10:51:01 11.8 C 59 % 4.06 C
1974 11-05-2010 11:03:01 12 C 57 % 3.76 C
1975 11-05-2010 11:15:02 12 C 57 % 3.76 C
Sensor: Nr:Datum:Temp:Feuchte:Taupunkt:
Aussen-T/F 1976 11-05-2010 11:27:02 12 C 58 % 4 C
1977 11-05-2010 11:39:02 12.5 C 58 % 4.47 C
1978 11-05-2010 11:51:02 14.1 C 51 % 4.13 C
1979 11-05-2010 12:03:02 14.1 C 49 % 3.56 C
1980 11-05-2010 12:15:02 13.7 C 53 % 4.31 C
1981 11-05-2010 12:27:02 14.8 C 50 % 4.49 C
1982 11-05-2010 12:39:01 14.1 C 49 % 3.56 C
1983 11-05-2010 12:51:02 14.3 C 51 % 4.31 C
1984 11-05-2010 13:03:01 13.4 C 53 % 4.03 C
1985 11-05-2010 13:15:01 13.7 C 54 % 4.57 C
1986 11-05-2010 13:27:01 14.2 C 51 % 4.22 C
1987 11-05-2010 13:39:01 14.1 C 51 % 4.13 C
1988 11-05-2010 13:51:02 13.3 C 55 % 4.46 C
1989 11-05-2010 14:03:01 14.1 C 53 % 4.68 C
1990 11-05-2010 14:15:01 14 C 52 % 4.31 C
1991 11-05-2010 14:27:01 14.1 C 53 % 4.68 C
1992 11-05-2010 14:39:02 14 C 53 % 4.58 C
1993 11-05-2010 14:51:02 14 C 54 % 4.85 C
1994 11-05-2010 15:03:02 14.4 C 53 % 4.95 C
1995 11-05-2010 15:15:02 14.1 C 52 % 4.4 C
1996 11-05-2010 15:27:02 14.7 C 52 % 4.96 C
1997 11-05-2010 15:39:02 14.5 C 51 % 4.5 C
1998 11-05-2010 15:51:02 14.3 C 52 % 4.59 C
1999 11-05-2010 16:03:03 14.3 C 53 % 4.86 C
2000 11-05-2010 16:15:02 14.8 C 53 % 5.32 C
Sensor: Nr:Datum:Temp:Feuchte:Taupunkt:
Aussen-T/F 2001 11-05-2010 16:27:02 15.6 C 50 % 5.23 C
2002 11-05-2010 16:39:03 15.9 C 48 % 4.92 C
2003 11-05-2010 16:51:01 15.6 C 49 % 4.94 C
2004 11-05-2010 17:03:02 14.9 C 53 % 5.42 C
2005 11-05-2010 17:15:01 15.1 C 51 % 5.05 C
2006 11-05-2010 17:27:01 14.7 C 54 % 5.5 C
2007 11-05-2010 17:39:02 14.8 C 53 % 5.32 C
2008 11-05-2010 17:51:01 14.7 C 54 % 5.5 C
2009 11-05-2010 18:03:02 14.5 C 56 % 5.84 C
2010 11-05-2010 18:15:02 13.9 C 59 % 6.03 C
2011 11-05-2010 18:27:02 12.5 C 68 % 6.76 C
2012 11-05-2010 18:39:02 11.9 C 76 % 7.81 C
2013 11-05-2010 18:51:01 11.6 C 79 % 8.09 C
2014 11-05-2010 19:03:02 11.3 C 80 % 7.98 C
2015 11-05-2010 19:15:02 11.1 C 83 % 8.33 C
2016 11-05-2010 19:27:02 10.9 C 84 % 8.31 C
2017 11-05-2010 19:39:02 10.8 C 84 % 8.21 C
2018 11-05-2010 19:51:01 10.6 C 86 % 8.36 C
2019 11-05-2010 20:03:02 10.5 C 87 % 8.43 C
2020 11-05-2010 20:15:02 10.2 C 88 % 8.3 C
2021 11-05-2010 20:27:02 10.1 C 89 % 8.37 C
2022 11-05-2010 20:39:02 10 C 90 % 8.44 C
2023 11-05-2010 20:51:02 9.8 C 92 % 8.56 C
2024 11-05-2010 21:03:01 9.8 C 92 % 8.56 C
2025 11-05-2010 21:15:02 9.9 C 92 % 8.66 C
Sensor: Nr:Datum:Temp:Feuchte:Taupunkt:
Aussen-T/F 2026 11-05-2010 21:27:03 10 C 92 % 8.76 C
2027 11-05-2010 21:39:01 9.8 C 93 % 8.72 C
2028 11-05-2010 21:51:02 9.8 C 93 % 8.72 C
2029 11-05-2010 22:03:02 9.7 C 93 % 8.62 C
2030 11-05-2010 22:15:01 9.6 C 93 % 8.53 C
2031 11-05-2010 22:27:01 9.8 C 94 % 8.88 C
2032 11-05-2010 22:40:03 9.6 C 94 % 8.68 C
2033 11-05-2010 22:52:03 9.7 C 94 % 8.78 C
2034 11-05-2010 23:04:03 9.8 C 94 % 8.88 C
2035 11-05-2010 23:16:03 9.8 C 94 % 8.88 C
2036 11-05-2010 23:28:03 9.8 C 94 % 8.88 C
2037 11-05-2010 23:40:03 9.9 C 94 % 8.98 C
2038 11-05-2010 23:52:03 9.7 C 94 % 8.78 C
2039 12-05-2010 00:04:03 9.7 C 94 % 8.78 C
2040 12-05-2010 00:16:03 9.6 C 94 % 8.68 C
2041 12-05-2010 00:28:03 9.1 C 94 % 8.19 C
2042 12-05-2010 00:40:03 9.1 C 94 % 8.19 C
2043 12-05-2010 00:52:03 9.1 C 94 % 8.19 C
2044 12-05-2010 01:04:03 9.1 C 94 % 8.19 C
2045 12-05-2010 01:16:03 8.8 C 95 % 8.04 C
2046 12-05-2010 01:28:04 8.5 C 94 % 7.59 C
2047 12-05-2010 01:40:04 8.4 C 94 % 7.49 C
2048 12-05-2010 01:52:04 7.8 C 95 % 7.05 C
2049 12-05-2010 02:04:04 7.5 C 94 % 6.6 C
2050 12-05-2010 02:16:04 7.8 C 95 % 7.05 C
Sensor: Nr:Datum:Temp:Feuchte:Taupunkt:
Aussen-T/F 2051 12-05-2010 02:28:04 7.9 C 95 % 7.15 C
2052 12-05-2010 02:40:04 7.9 C 95 % 7.15 C
2053 12-05-2010 02:52:04 7.5 C 95 % 6.75 C
2054 12-05-2010 03:04:04 7.3 C 94 % 6.4 C
2055 12-05-2010 03:16:04 7.2 C 94 % 6.3 C
2056 12-05-2010 03:28:04 7.1 C 94 % 6.2 C
2057 12-05-2010 03:40:04 7 C 94 % 6.1 C
2058 12-05-2010 03:52:04 7 C 93 % 5.95 C
2059 12-05-2010 04:04:04 6.9 C 93 % 5.85 C
2060 12-05-2010 04:16:04 6.9 C 92 % 5.69 C
2061 12-05-2010 04:28:04 6.9 C 91 % 5.54 C
2062 12-05-2010 04:40:04 6.9 C 90 % 5.38 C
2063 12-05-2010 04:52:04 6.8 C 89 % 5.12 C
2064 12-05-2010 05:04:04 6.8 C 88 % 4.96 C
2065 12-05-2010 05:16:04 6.8 C 87 % 4.79 C
2066 12-05-2010 05:28:04 6.8 C 87 % 4.79 C
2067 12-05-2010 05:40:05 6.8 C 87 % 4.79 C
2068 12-05-2010 05:52:05 6.8 C 87 % 4.79 C
2069 12-05-2010 06:04:05 6.7 C 87 % 4.69 C
2070 12-05-2010 06:16:05 6.8 C 86 % 4.63 C
2071 12-05-2010 06:28:05 6.8 C 85 % 4.46 C
2072 12-05-2010 06:40:05 6.8 C 86 % 4.63 C
2073 12-05-2010 06:52:05 6.8 C 86 % 4.63 C
2074 12-05-2010 07:04:03 6.9 C 85 % 4.56 C
2075 12-05-2010 07:16:03 7 C 85 % 4.66 C
Sensor: Nr:Datum:Temp:Feuchte:Taupunkt:
Aussen-T/F 2076 12-05-2010 07:28:03 7.1 C 86 % 4.92 C
2077 12-05-2010 07:40:03 7.2 C 85 % 4.85 C
2078 12-05-2010 07:52:02 7.2 C 84 % 4.68 C
2079 12-05-2010 08:04:02 7.3 C 83 % 4.61 C
2080 12-05-2010 08:16:02 7.6 C 83 % 4.9 C
2081 12-05-2010 08:28:02 7.7 C 81 % 4.65 C
2082 12-05-2010 08:40:02 7.8 C 79 % 4.39 C
2083 12-05-2010 08:52:01 7.8 C 79 % 4.39 C
2084 12-05-2010 09:04:02 8 C 77 % 4.22 C
2085 12-05-2010 09:16:01 8.3 C 76 % 4.33 C
2086 12-05-2010 09:28:01 8.4 C 73 % 3.85 C
2087 12-05-2010 09:40:01 8.3 C 72 % 3.56 C
2088 12-05-2010 09:52:01 8.4 C 72 % 3.65 C
2089 12-05-2010 10:04:02 8.4 C 71 % 3.46 C
2090 12-05-2010 10:16:01 8.6 C 71 % 3.65 C
2091 12-05-2010 10:28:01 8.6 C 70 % 3.45 C
2092 12-05-2010 10:40:01 8.7 C 69 % 3.34 C
2093 12-05-2010 10:52:01 8.7 C 67 % 2.92 C
2094 12-05-2010 11:04:01 8.7 C 67 % 2.92 C
2095 12-05-2010 11:16:02 8.9 C 67 % 3.12 C
2096 12-05-2010 11:28:02 8.9 C 64 % 2.47 C
2097 12-05-2010 11:40:01 9.3 C 62 % 2.4 C
2098 12-05-2010 11:52:01 10.1 C 60 % 2.7 C
2099 12-05-2010 12:04:01 10 C 59 % 2.37 C
2100 12-05-2010 12:16:02 9.7 C 58 % 1.85 C
Sensor: Nr:Datum:Temp:Feuchte:Taupunkt:
Aussen-T/F 2101 12-05-2010 12:28:02 9.9 C 59 % 2.27 C
2102 12-05-2010 12:40:01 10.5 C 55 % 1.85 C
2103 12-05-2010 12:52:03 10.2 C 57 % 2.07 C
2104 12-05-2010 13:04:02 10.5 C 56 % 2.11 C
2105 12-05-2010 13:16:02 11.1 C 53 % 1.9 C
2106 12-05-2010 13:28:02 10.7 C 54 % 1.78 C
2107 12-05-2010 13:40:02 10.4 C 54 % 1.51 C
2108 12-05-2010 13:52:02 10.7 C 53 % 1.52 C
2109 12-05-2010 14:04:02 10.2 C 55 % 1.58 C
2110 12-05-2010 14:16:02 10.2 C 55 % 1.58 C
2111 12-05-2010 14:28:02 10.6 C 53 % 1.43 C
2112 12-05-2010 14:40:01 10.9 C 52 % 1.44 C
2113 12-05-2010 14:52:02 10.7 C 49 % 0.44 C
2114 12-05-2010 15:04:01 11.1 C 51 % 1.36 C
2115 12-05-2010 15:16:02 10.8 C 50 % 0.81 C
2116 12-05-2010 15:28:02 10.8 C 49 % 0.53 C
2117 12-05-2010 15:40:02 10.8 C 51 % 1.08 C
2118 12-05-2010 15:52:02 10.7 C 52 % 1.26 C
2119 12-05-2010 16:04:02 10.8 C 53 % 1.62 C
2120 12-05-2010 16:16:02 10.9 C 52 % 1.44 C
2121 12-05-2010 16:28:02 10.7 C 54 % 1.78 C
2122 12-05-2010 16:40:02 10.3 C 54 % 1.41 C
2123 12-05-2010 16:52:01 9.9 C 57 % 1.79 C
2124 12-05-2010 17:04:02 9.6 C 57 % 1.51 C
2125 12-05-2010 17:16:01 9.7 C 58 % 1.85 C
Sensor: Nr:Datum:Temp:Feuchte:Taupunkt:
Aussen-T/F 2126 12-05-2010 17:28:01 9.9 C 57 % 1.79 C
2127 12-05-2010 17:40:02 9.9 C 57 % 1.79 C
2128 12-05-2010 17:52:02 9.6 C 57 % 1.51 C
2129 12-05-2010 18:04:02 9.6 C 59 % 1.99 C
2130 12-05-2010 18:16:01 9.3 C 60 % 1.95 C
2131 12-05-2010 18:28:01 9.1 C 61 % 1.99 C
2132 12-05-2010 18:40:02 9.1 C 62 % 2.22 C
2133 12-05-2010 18:52:02 9 C 63 % 2.35 C
2134 12-05-2010 19:04:02 9 C 64 % 2.57 C
2135 12-05-2010 19:16:01 8.8 C 65 % 2.59 C
2136 12-05-2010 19:28:01 9 C 65 % 2.78 C
2137 12-05-2010 19:40:02 9 C 65 % 2.78 C
2138 12-05-2010 19:52:02 8.7 C 66 % 2.71 C
2139 12-05-2010 20:04:02 8.6 C 67 % 2.83 C
2140 12-05-2010 20:16:02 8.6 C 68 % 3.04 C
2141 12-05-2010 20:28:02 8.6 C 68 % 3.04 C
2142 12-05-2010 20:40:02 8.5 C 68 % 2.94 C
2143 12-05-2010 20:52:02 8.5 C 70 % 3.35 C
2144 12-05-2010 21:04:02 8.5 C 69 % 3.15 C
2145 12-05-2010 21:16:02 8.4 C 70 % 3.26 C
2146 12-05-2010 21:28:02 8.5 C 71 % 3.55 C
2147 12-05-2010 21:40:01 8.5 C 71 % 3.55 C
2148 12-05-2010 21:52:02 8.3 C 72 % 3.56 C
2149 12-05-2010 22:04:01 8 C 75 % 3.85 C
2150 12-05-2010 22:17:03 8 C 77 % 4.22 C
Sensor: Nr:Datum:Temp:Feuchte:Taupunkt:
Aussen-T/F 2151 12-05-2010 22:29:03 7.6 C 79 % 4.2 C
2152 12-05-2010 22:41:03 7.5 C 81 % 4.46 C
2153 12-05-2010 22:53:03 7.7 C 82 % 4.83 C
2154 12-05-2010 23:05:03 7.8 C 82 % 4.92 C
2155 12-05-2010 23:17:03 7.8 C 82 % 4.92 C
2156 12-05-2010 23:29:03 7.8 C 82 % 4.92 C
2157 12-05-2010 23:41:04 7.9 C 82 % 5.02 C
2158 12-05-2010 23:53:04 7.7 C 81 % 4.65 C
2159 13-05-2010 00:05:04 7.7 C 81 % 4.65 C
2160 13-05-2010 00:17:04 7.6 C 81 % 4.55 C
2161 13-05-2010 00:29:04 7.5 C 80 % 4.28 C
2162 13-05-2010 00:41:04 7.6 C 80 % 4.38 C
2163 13-05-2010 00:53:04 7.5 C 80 % 4.28 C
2164 13-05-2010 01:05:04 7.4 C 80 % 4.18 C
2165 13-05-2010 01:17:04 7.3 C 82 % 4.44 C
2166 13-05-2010 01:29:04 7.3 C 82 % 4.44 C
2167 13-05-2010 01:41:04 7.3 C 83 % 4.61 C
2168 13-05-2010 01:53:04 7.4 C 84 % 4.88 C
2169 13-05-2010 02:05:04 7.5 C 84 % 4.98 C
2170 13-05-2010 02:17:04 7.4 C 83 % 4.71 C
2171 13-05-2010 02:29:04 7.4 C 82 % 4.53 C
2172 13-05-2010 02:41:04 7.4 C 82 % 4.53 C
2173 13-05-2010 02:53:04 7.4 C 82 % 4.53 C
2174 13-05-2010 03:05:04 7.4 C 82 % 4.53 C
2175 13-05-2010 03:17:04 7.4 C 82 % 4.53 C
Sensor: Nr:Datum:Temp:Feuchte:Taupunkt:
Aussen-T/F 2176 13-05-2010 03:29:04 7.3 C 82 % 4.44 C
2177 13-05-2010 03:41:05 7.3 C 83 % 4.61 C
2178 13-05-2010 03:53:05 7.1 C 83 % 4.41 C
2179 13-05-2010 04:05:05 6.9 C 85 % 4.56 C
2180 13-05-2010 04:17:05 7 C 84 % 4.49 C
2181 13-05-2010 04:29:05 7.1 C 85 % 4.75 C
2182 13-05-2010 04:41:05 7.1 C 85 % 4.75 C
2183 13-05-2010 04:53:05 6.9 C 86 % 4.72 C
2184 13-05-2010 05:05:05 6.9 C 87 % 4.89 C
2185 13-05-2010 05:17:05 6.8 C 87 % 4.79 C
2186 13-05-2010 05:29:05 6.8 C 87 % 4.79 C
2187 13-05-2010 05:41:05 6.7 C 87 % 4.69 C
2188 13-05-2010 05:53:05 6.6 C 88 % 4.76 C
2189 13-05-2010 06:05:05 6.6 C 88 % 4.76 C
2190 13-05-2010 06:17:05 6.7 C 88 % 4.86 C
2191 13-05-2010 06:29:05 6.7 C 88 % 4.86 C
2192 13-05-2010 06:41:05 6.6 C 88 % 4.76 C
2193 13-05-2010 06:53:05 6.6 C 88 % 4.76 C
2194 13-05-2010 07:05:05 6.7 C 89 % 5.02 C
2195 13-05-2010 07:17:05 6.7 C 89 % 5.02 C
2196 13-05-2010 07:29:05 6.9 C 88 % 5.05 C
2197 13-05-2010 07:41:05 6.9 C 87 % 4.89 C
2198 13-05-2010 07:53:01 6.8 C 85 % 4.46 C
2199 13-05-2010 08:05:01 6.8 C 84 % 4.29 C
2200 13-05-2010 08:17:02 6.8 C 83 % 4.12 C
Sensor: Nr:Datum:Temp:Feuchte:Taupunkt:
Aussen-T/F 2201 13-05-2010 08:29:02 6.9 C 82 % 4.05 C
2202 13-05-2010 08:41:01 7 C 79 % 3.61 C
2203 13-05-2010 08:53:02 7.2 C 78 % 3.63 C
2204 13-05-2010 09:05:01 7.5 C 78 % 3.92 C
2205 13-05-2010 09:17:01 7.8 C 76 % 3.84 C
2206 13-05-2010 09:29:01 7.9 C 73 % 3.37 C
2207 13-05-2010 09:41:01 8.2 C 70 % 3.06 C
2208 13-05-2010 09:53:02 8.3 C 67 % 2.54 C
2209 13-05-2010 10:05:01 8.9 C 65 % 2.69 C
2210 13-05-2010 10:17:02 9.1 C 61 % 1.99 C
2211 13-05-2010 10:29:02 9.7 C 61 % 2.55 C
2212 13-05-2010 10:41:02 9.7 C 56 % 1.36 C
2213 13-05-2010 10:53:01 9.9 C 56 % 1.55 C
2214 13-05-2010 11:05:02 10.2 C 55 % 1.58 C
2215 13-05-2010 11:17:01 10 C 53 % 0.87 C
2216 13-05-2010 11:29:01 10.1 C 52 % 0.7 C
2217 13-05-2010 11:41:02 9.5 C 55 % 0.92 C
2218 13-05-2010 11:53:02 9.7 C 56 % 1.36 C
2219 13-05-2010 12:05:02 9.7 C 53 % 0.6 C
2220 13-05-2010 12:17:01 9.5 C 54 % 0.67 C
2221 13-05-2010 12:29:01 10.2 C 52 % 0.8 C
2222 13-05-2010 12:41:02 10.1 C 49 % -0.11 C
2223 13-05-2010 12:53:02 10.8 C 49 % 0.53 C
2224 13-05-2010 13:05:02 11 C 48 % 0.43 C
2225 13-05-2010 13:17:01 10.1 C 52 % 0.7 C
Sensor: Nr:Datum:Temp:Feuchte:Taupunkt:
Aussen-T/F 2226 13-05-2010 13:29:01 9.3 C 55 % 0.74 C
2227 13-05-2010 13:41:02 8.9 C 58 % 1.1 C
2228 13-05-2010 13:53:02 9.4 C 57 % 1.33 C
2229 13-05-2010 14:05:02 10 C 55 % 1.39 C
2230 13-05-2010 14:17:02 10.5 C 53 % 1.34 C
2231 13-05-2010 14:29:02 10.9 C 51 % 1.17 C
2232 13-05-2010 14:41:02 10.6 C 49 % 0.35 C
2233 13-05-2010 14:53:01 11 C 49 % 0.71 C
2234 13-05-2010 15:05:02 11 C 48 % 0.43 C
2235 13-05-2010 15:17:02 10.5 C 50 % 0.53 C
2236 13-05-2010 15:29:02 10 C 51 % 0.34 C
2237 13-05-2010 15:41:02 9.8 C 55 % 1.2 C
2238 13-05-2010 15:53:02 9.2 C 60 % 1.85 C
2239 13-05-2010 16:05:01 8.7 C 64 % 2.28 C
2240 13-05-2010 16:17:02 8.5 C 68 % 2.94 C
2241 13-05-2010 16:29:02 8.6 C 70 % 3.45 C
2242 13-05-2010 16:41:01 8.6 C 72 % 3.85 C
2243 13-05-2010 16:53:02 8.9 C 75 % 4.72 C
2244 13-05-2010 17:05:01 8.4 C 73 % 3.85 C
2245 13-05-2010 17:17:02 8.2 C 75 % 4.04 C
2246 13-05-2010 17:29:03 8.2 C 76 % 4.23 C
2247 13-05-2010 17:41:01 8.2 C 78 % 4.6 C
2248 13-05-2010 17:53:02 8.1 C 78 % 4.5 C
2249 13-05-2010 18:05:02 8.3 C 79 % 4.88 C
2250 13-05-2010 18:17:02 9 C 80 % 5.74 C
Sensor: Nr:Datum:Temp:Feuchte:Taupunkt:
Aussen-T/F 2251 13-05-2010 18:29:02 8.9 C 81 % 5.82 C
2252 13-05-2010 18:41:02 8.7 C 81 % 5.63 C
2253 13-05-2010 18:53:02 7.9 C 82 % 5.02 C
2254 13-05-2010 19:05:02 7.7 C 84 % 5.17 C
2255 13-05-2010 19:17:01 7.5 C 85 % 5.15 C
2256 13-05-2010 19:29:01 7.3 C 85 % 4.95 C
2257 13-05-2010 19:41:02 7.3 C 86 % 5.12 C
2258 13-05-2010 19:53:02 7.2 C 86 % 5.02 C
2259 13-05-2010 20:05:02 7.3 C 87 % 5.28 C
2260 13-05-2010 20:17:02 7.4 C 87 % 5.38 C
2261 13-05-2010 20:29:02 7.4 C 88 % 5.55 C
2262 13-05-2010 20:41:02 7.5 C 88 % 5.64 C
2263 13-05-2010 20:53:01 7.6 C 88 % 5.74 C
2264 13-05-2010 21:05:02 7.5 C 89 % 5.81 C
2265 13-05-2010 21:17:01 7.5 C 89 % 5.81 C
2266 13-05-2010 21:29:01 7.4 C 89 % 5.71 C
2267 13-05-2010 21:41:01 7.4 C 89 % 5.71 C
2268 13-05-2010 21:53:01 7.4 C 90 % 5.87 C
2269 13-05-2010 22:05:02 7.4 C 90 % 5.87 C
2270 13-05-2010 22:17:01 7.4 C 90 % 5.87 C
2271 13-05-2010 22:29:01 7.3 C 90 % 5.77 C
2272 13-05-2010 22:41:02 7.2 C 90 % 5.67 C
2273 13-05-2010 22:54:02 7.2 C 90 % 5.67 C
2274 13-05-2010 23:06:02 7.2 C 90 % 5.67 C
2275 13-05-2010 23:18:03 7.3 C 90 % 5.77 C
Sensor: Nr:Datum:Temp:Feuchte:Taupunkt:
Aussen-T/F 2276 13-05-2010 23:30:03 7.3 C 91 % 5.93 C
2277 13-05-2010 23:42:03 7.2 C 91 % 5.83 C
2278 13-05-2010 23:54:03 7.2 C 91 % 5.83 C
2279 14-05-2010 00:06:03 7 C 91 % 5.63 C
2280 14-05-2010 00:18:03 6.9 C 93 % 5.85 C
2281 14-05-2010 00:30:03 6.9 C 93 % 5.85 C
2282 14-05-2010 00:42:03 7 C 93 % 5.95 C
2283 14-05-2010 00:54:03 7 C 93 % 5.95 C
2284 14-05-2010 01:06:03 6.9 C 94 % 6 C
2285 14-05-2010 01:18:03 7 C 93 % 5.95 C
2286 14-05-2010 01:30:03 7.1 C 93 % 6.05 C
2287 14-05-2010 01:42:03 7.1 C 93 % 6.05 C
2288 14-05-2010 01:54:03 7.1 C 93 % 6.05 C
2289 14-05-2010 02:06:03 7.1 C 93 % 6.05 C
2290 14-05-2010 02:18:03 7 C 93 % 5.95 C
2291 14-05-2010 02:30:03 6.9 C 94 % 6 C
2292 14-05-2010 02:42:03 7 C 93 % 5.95 C
2293 14-05-2010 02:54:03 7 C 94 % 6.1 C
2294 14-05-2010 03:06:03 7 C 94 % 6.1 C
2295 14-05-2010 03:18:03 6.9 C 94 % 6 C
2296 14-05-2010 03:30:04 7 C 94 % 6.1 C
2297 14-05-2010 03:42:04 7 C 94 % 6.1 C
2298 14-05-2010 03:54:04 7 C 94 % 6.1 C
2299 14-05-2010 04:06:04 7 C 94 % 6.1 C
2300 14-05-2010 04:18:04 7 C 94 % 6.1 C
Sensor: Nr:Datum:Temp:Feuchte:Taupunkt:
Aussen-T/F 2301 14-05-2010 04:30:04 6.9 C 94 % 6 C
2302 14-05-2010 04:42:04 6.9 C 94 % 6 C
2303 14-05-2010 04:54:04 6.9 C 94 % 6 C
2304 14-05-2010 05:06:04 6.8 C 94 % 5.9 C
2305 14-05-2010 05:18:04 6.9 C 94 % 6 C
2306 14-05-2010 05:30:04 6.8 C 95 % 6.06 C
2307 14-05-2010 05:42:04 6.9 C 95 % 6.16 C
2308 14-05-2010 05:54:04 7 C 94 % 6.1 C
2309 14-05-2010 06:06:04 7.1 C 94 % 6.2 C
2310 14-05-2010 06:18:04 7.1 C 94 % 6.2 C
2311 14-05-2010 06:30:04 7 C 94 % 6.1 C
2312 14-05-2010 06:42:04 7.1 C 94 % 6.2 C
2313 14-05-2010 06:54:04 7.2 C 94 % 6.3 C
2314 14-05-2010 07:06:02 7.2 C 93 % 6.15 C
2315 14-05-2010 07:18:02 7.3 C 93 % 6.25 C
2316 14-05-2010 07:30:02 7.5 C 93 % 6.44 C
2317 14-05-2010 07:42:02 7.5 C 93 % 6.44 C
2318 14-05-2010 07:54:01 7.5 C 92 % 6.29 C
2319 14-05-2010 08:06:02 7.7 C 91 % 6.33 C
2320 14-05-2010 08:18:01 7.9 C 91 % 6.52 C
2321 14-05-2010 08:30:01 8.1 C 89 % 6.4 C
2322 14-05-2010 08:42:02 7.9 C 89 % 6.2 C
2323 14-05-2010 08:54:02 8 C 87 % 5.97 C
2324 14-05-2010 09:06:02 8 C 87 % 5.97 C
2325 14-05-2010 09:18:01 7.9 C 87 % 5.87 C
Sensor: Nr:Datum:Temp:Feuchte:Taupunkt:
Aussen-T/F 2326 14-05-2010 09:30:01 8 C 85 % 5.64 C
2327 14-05-2010 09:42:02 8.6 C 86 % 6.39 C
2328 14-05-2010 09:54:02 8.4 C 84 % 5.86 C
2329 14-05-2010 10:06:02 8.7 C 83 % 5.98 C
2330 14-05-2010 10:18:02 9.4 C 81 % 6.31 C
2331 14-05-2010 10:30:02 9.5 C 77 % 5.68 C
2332 14-05-2010 10:42:02 10 C 77 % 6.16 C
2333 14-05-2010 10:54:01 10.3 C 75 % 6.07 C
2334 14-05-2010 11:06:02 11 C 73 % 6.35 C
2335 14-05-2010 11:18:02 10.5 C 68 % 4.85 C
2336 14-05-2010 11:30:02 10.1 C 67 % 4.26 C
2337 14-05-2010 11:42:02 10.4 C 70 % 5.17 C
2338 14-05-2010 11:54:02 9.9 C 73 % 5.29 C
2339 14-05-2010 12:06:01 9.1 C 72 % 4.33 C
2340 14-05-2010 12:18:02 9 C 73 % 4.43 C
2341 14-05-2010 12:30:02 9.3 C 79 % 5.85 C
2342 14-05-2010 12:42:01 9.3 C 81 % 6.21 C
2343 14-05-2010 12:54:02 9.1 C 82 % 6.19 C
2344 14-05-2010 13:06:01 9.3 C 83 % 6.57 C
2345 14-05-2010 13:18:01 9.5 C 84 % 6.94 C
2346 14-05-2010 13:30:01 9.6 C 84 % 7.03 C
2347 14-05-2010 13:42:02 9.7 C 84 % 7.13 C
2348 14-05-2010 13:54:02 9.2 C 83 % 6.47 C
2349 14-05-2010 14:06:01 9 C 84 % 6.45 C
2350 14-05-2010 14:18:02 9.2 C 85 % 6.81 C
Sensor: Nr:Datum:Temp:Feuchte:Taupunkt:
Aussen-T/F 2351 14-05-2010 14:30:02 9.5 C 85 % 7.11 C
2352 14-05-2010 14:42:02 9.7 C 85 % 7.3 C
2353 14-05-2010 14:54:02 10.5 C 84 % 7.91 C
2354 14-05-2010 15:06:02 11.2 C 81 % 8.06 C
2355 14-05-2010 15:18:01 11.7 C 76 % 7.62 C
2356 14-05-2010 15:30:01 12 C 72 % 7.12 C
2357 14-05-2010 15:42:02 12.2 C 67 % 6.26 C
2358 14-05-2010 15:54:02 12.2 C 64 % 5.6 C
2359 14-05-2010 16:06:02 12.6 C 63 % 5.75 C
2360 14-05-2010 16:18:01 12.8 C 63 % 5.94 C
2361 14-05-2010 16:30:01 13.3 C 60 % 5.71 C
2362 14-05-2010 16:42:02 13.4 C 57 % 5.07 C
2363 14-05-2010 16:54:02 12.8 C 56 % 4.25 C
2364 14-05-2010 17:06:02 12.2 C 59 % 4.43 C
2365 14-05-2010 17:18:02 11.9 C 59 % 4.15 C
2366 14-05-2010 17:30:02 11.4 C 66 % 5.28 C
2367 14-05-2010 17:42:02 11 C 68 % 5.33 C
2368 14-05-2010 17:54:02 11.2 C 67 % 5.31 C
2369 14-05-2010 18:06:02 11.5 C 65 % 5.16 C
2370 14-05-2010 18:18:03 11.8 C 64 % 5.22 C
2371 14-05-2010 18:30:03 12 C 64 % 5.41 C
2372 14-05-2010 18:42:02 11.5 C 65 % 5.16 C
2373 14-05-2010 18:54:02 11 C 68 % 5.33 C
2374 14-05-2010 19:06:02 10.5 C 71 % 5.47 C
2375 14-05-2010 19:18:03 10.3 C 73 % 5.68 C
Sensor: Nr:Datum:Temp:Feuchte:Taupunkt:
Aussen-T/F 2376 14-05-2010 19:30:03 10.4 C 74 % 5.97 C
2377 14-05-2010 19:42:02 10.5 C 72 % 5.67 C
2378 14-05-2010 19:54:02 10.6 C 72 % 5.77 C
2379 14-05-2010 20:06:02 10.5 C 73 % 5.87 C
2380 14-05-2010 20:18:02 10.2 C 73 % 5.58 C
2381 14-05-2010 20:30:02 9.9 C 74 % 5.49 C
2382 14-05-2010 20:42:02 9.6 C 74 % 5.2 C
2383 14-05-2010 20:54:02 9.5 C 76 % 5.49 C
2384 14-05-2010 21:06:02 9.3 C 76 % 5.29 C
2385 14-05-2010 21:18:02 9.2 C 77 % 5.38 C
2386 14-05-2010 21:30:02 9.1 C 77 % 5.29 C
2387 14-05-2010 21:42:02 9.1 C 78 % 5.47 C
2388 14-05-2010 21:54:02 9 C 78 % 5.38 C
2389 14-05-2010 22:06:02 9.1 C 79 % 5.66 C
2390 14-05-2010 22:18:02 9.1 C 79 % 5.66 C
2391 14-05-2010 22:30:02 9.1 C 80 % 5.84 C
2392 14-05-2010 22:42:02 9.1 C 80 % 5.84 C
2393 14-05-2010 22:55:03 9 C 81 % 5.92 C
2394 14-05-2010 23:07:03 8.6 C 83 % 5.88 C
2395 14-05-2010 23:19:03 8.2 C 85 % 5.83 C
2396 14-05-2010 23:31:03 8.2 C 86 % 6 C
2397 14-05-2010 23:43:03 8.1 C 86 % 5.9 C
2398 14-05-2010 23:55:03 8.1 C 87 % 6.07 C
2399 15-05-2010 00:07:03 8 C 87 % 5.97 C
2400 15-05-2010 00:19:03 8 C 87 % 5.97 C
Sensor: Nr:Datum:Temp:Feuchte:Taupunkt:
Aussen-T/F 2401 15-05-2010 00:31:04 7.9 C 88 % 6.04 C
2402 15-05-2010 00:43:04 7.8 C 88 % 5.94 C
2403 15-05-2010 00:55:04 7.8 C 88 % 5.94 C
2404 15-05-2010 01:07:04 7.9 C 88 % 6.04 C
2405 15-05-2010 01:19:04 7.8 C 88 % 5.94 C
2406 15-05-2010 01:31:04 7.6 C 88 % 5.74 C
2407 15-05-2010 01:43:04 7.6 C 88 % 5.74 C
2408 15-05-2010 01:55:04 7.6 C 88 % 5.74 C
2409 15-05-2010 02:07:04 7.5 C 88 % 5.64 C
2410 15-05-2010 02:19:04 7.5 C 89 % 5.81 C
2411 15-05-2010 02:31:04 7.6 C 89 % 5.91 C
2412 15-05-2010 02:43:04 7.8 C 89 % 6.1 C
2413 15-05-2010 02:55:04 7.8 C 89 % 6.1 C
2414 15-05-2010 03:07:04 7.6 C 89 % 5.91 C
2415 15-05-2010 03:19:04 7.6 C 89 % 5.91 C
2416 15-05-2010 03:31:04 7.6 C 90 % 6.07 C
2417 15-05-2010 03:43:04 7.6 C 90 % 6.07 C
2418 15-05-2010 03:55:04 7.6 C 90 % 6.07 C
2419 15-05-2010 04:07:04 7.6 C 90 % 6.07 C
2420 15-05-2010 04:19:04 7.7 C 90 % 6.17 C
2421 15-05-2010 04:31:04 7.6 C 90 % 6.07 C
2422 15-05-2010 04:43:05 7.6 C 90 % 6.07 C
2423 15-05-2010 04:55:05 7.5 C 90 % 5.97 C
2424 15-05-2010 05:07:05 7.4 C 91 % 6.03 C
2425 15-05-2010 05:19:05 7.3 C 91 % 5.93 C
Sensor: Nr:Datum:Temp:Feuchte:Taupunkt:
Aussen-T/F 2426 15-05-2010 05:31:05 7.3 C 91 % 5.93 C
2427 15-05-2010 05:43:05 7.2 C 91 % 5.83 C
2428 15-05-2010 05:55:05 7.1 C 91 % 5.73 C
2429 15-05-2010 06:07:05 7.1 C 91 % 5.73 C
2430 15-05-2010 06:19:05 7.1 C 91 % 5.73 C
2431 15-05-2010 06:31:05 7.1 C 92 % 5.89 C
2432 15-05-2010 06:43:05 7.1 C 92 % 5.89 C
2433 15-05-2010 06:55:05 7.1 C 92 % 5.89 C
2434 15-05-2010 07:07:05 7.1 C 92 % 5.89 C
2435 15-05-2010 07:19:05 7.4 C 92 % 6.19 C
2436 15-05-2010 07:31:05 7.5 C 92 % 6.29 C
2437 15-05-2010 07:43:05 7.8 C 92 % 6.58 C
2438 15-05-2010 07:55:02 8.2 C 91 % 6.82 C
2439 15-05-2010 08:07:02 8.3 C 90 % 6.76 C
2440 15-05-2010 08:19:02 8.2 C 87 % 6.17 C
2441 15-05-2010 08:31:03 8.6 C 86 % 6.39 C
2442 15-05-2010 08:43:03 8.5 C 82 % 5.61 C
2443 15-05-2010 08:55:02 8.8 C 81 % 5.72 C
2444 15-05-2010 09:07:02 9 C 78 % 5.38 C
2445 15-05-2010 09:19:02 9.3 C 77 % 5.48 C
2446 15-05-2010 09:31:02 9.5 C 75 % 5.3 C
2447 15-05-2010 09:43:02 9.6 C 74 % 5.2 C
2448 15-05-2010 09:55:01 10 C 71 % 4.99 C
2449 15-05-2010 10:07:02 10.5 C 68 % 4.85 C
2450 15-05-2010 10:19:01 10.7 C 66 % 4.62 C
Sensor: Nr:Datum:Temp:Feuchte:Taupunkt:
Aussen-T/F 2451 15-05-2010 10:31:02 10.6 C 65 % 4.3 C
2452 15-05-2010 10:43:02 11.1 C 63 % 4.33 C
2453 15-05-2010 10:55:02 11.1 C 63 % 4.33 C
2454 15-05-2010 11:07:02 10.9 C 63 % 4.14 C
2455 15-05-2010 11:19:01 10.8 C 63 % 4.05 C
2456 15-05-2010 11:31:02 10.9 C 62 % 3.92 C
2457 15-05-2010 11:43:02 11.5 C 57 % 3.29 C
2458 15-05-2010 11:55:02 11.9 C 57 % 3.66 C
2459 15-05-2010 12:07:02 11.2 C 56 % 2.76 C
2460 15-05-2010 12:19:02 11.1 C 56 % 2.67 C
2461 15-05-2010 12:31:02 11.2 C 55 % 2.51 C
2462 15-05-2010 12:43:02 12.4 C 50 % 2.28 C
2463 15-05-2010 12:55:02 12.3 C 44 % 0.41 C
2464 15-05-2010 13:07:02 13.9 C 42 % 1.22 C
2465 15-05-2010 13:19:03 12 C 43 % -0.17 C
2466 15-05-2010 13:31:02 11.1 C 51 % 1.36 C
2467 15-05-2010 13:43:02 11.2 C 48 % 0.61 C
2468 15-05-2010 13:55:02 12.1 C 42 % -0.41 C
2469 15-05-2010 14:07:02 13.7 C 38 % -0.34 C
2470 15-05-2010 14:19:02 15 C 36 % 0.07 C
2471 15-05-2010 14:31:02 14.7 C 33 % -1.38 C
2472 15-05-2010 14:43:02 14 C 33 % -2 C
2473 15-05-2010 14:55:01 13.9 C 31 % -2.93 C
2474 15-05-2010 15:07:01 14.3 C 29 % -3.47 C
2475 15-05-2010 15:19:01 15.2 C 25 % -4.67 C
Sensor: Nr:Datum:Temp:Feuchte:Taupunkt:
Aussen-T/F 2476 15-05-2010 15:31:01 15.8 C 20 % -7.08 C
2477 15-05-2010 15:43:01 16 C 20 % -6.92 C
2478 15-05-2010 15:55:01 16.2 C 20 % -6.75 C
2479 15-05-2010 16:07:02 16.2 C 20 % -6.75 C
2480 15-05-2010 16:19:01 15.1 C 20 % -7.66 C
2481 15-05-2010 16:31:01 14.4 C 20 % -8.24 C
2482 15-05-2010 16:43:01 14.4 C 24 % -5.88 C
2483 15-05-2010 16:55:01 13.8 C 25 % -5.86 C
2484 15-05-2010 17:07:02 13.9 C 26 % -5.26 C
2485 15-05-2010 17:19:01 14 C 25 % -5.69 C
2486 15-05-2010 17:31:02 14.1 C 26 % -5.09 C
2487 15-05-2010 17:43:02 14 C 27 % -4.68 C
2488 15-05-2010 17:55:02 14 C 27 % -4.68 C
2489 15-05-2010 18:07:02 13.7 C 29 % -3.99 C
2490 15-05-2010 18:19:01 14 C 30 % -3.28 C
2491 15-05-2010 18:31:02 13.8 C 29 % -3.9 C
2492 15-05-2010 18:43:02 13.7 C 29 % -3.99 C
2493 15-05-2010 18:55:02 13.9 C 28 % -4.28 C
2494 15-05-2010 19:07:02 13.9 C 27 % -4.76 C
2495 15-05-2010 19:19:02 14.6 C 28 % -3.68 C
2496 15-05-2010 19:31:02 15.1 C 25 % -4.76 C
2497 15-05-2010 19:43:02 14.9 C 27 % -3.91 C
2498 15-05-2010 19:55:02 14.4 C 29 % -3.38 C
2499 15-05-2010 20:07:02 13.9 C 35 % -1.29 C
2500 15-05-2010 20:19:02 13.3 C 40 % 0 C
Sensor: Nr:Datum:Temp:Feuchte:Taupunkt:
Aussen-T/F 2501 15-05-2010 20:31:02 12.4 C 41 % -0.47 C
2502 15-05-2010 20:43:02 11.6 C 43 % -0.54 C
2503 15-05-2010 20:55:02 11.3 C 45 % -0.19 C
2504 15-05-2010 21:07:02 11.4 C 45 % -0.09 C
2505 15-05-2010 21:19:02 11.1 C 45 % -0.37 C
2506 15-05-2010 21:31:02 10.8 C 46 % -0.34 C
2507 15-05-2010 21:43:02 10.8 C 49 % 0.53 C
2508 15-05-2010 21:55:01 10.8 C 49 % 0.53 C
2509 15-05-2010 22:07:02 10.8 C 50 % 0.81 C
2510 15-05-2010 22:19:02 11 C 50 % 0.99 C
2511 15-05-2010 22:32:02 11.1 C 48 % 0.52 C
2512 15-05-2010 22:44:03 11.2 C 46 % 0.02 C
2513 15-05-2010 22:56:03 11.2 C 46 % 0.02 C
2514 15-05-2010 23:08:03 11.1 C 47 % 0.23 C
2515 15-05-2010 23:20:03 10.9 C 50 % 0.9 C
2516 15-05-2010 23:32:03 10.9 C 51 % 1.17 C
2517 15-05-2010 23:44:03 10.8 C 51 % 1.08 C
2518 15-05-2010 23:56:03 10.5 C 52 % 1.07 C
2519 16-05-2010 00:08:03 10.2 C 53 % 1.06 C
2520 16-05-2010 00:20:03 10.1 C 56 % 1.73 C
2521 16-05-2010 00:32:03 10.1 C 57 % 1.98 C
2522 16-05-2010 00:44:03 10 C 58 % 2.13 C
2523 16-05-2010 00:56:03 10.1 C 58 % 2.22 C
2524 16-05-2010 01:08:03 10 C 59 % 2.37 C
2525 16-05-2010 01:20:03 9.7 C 61 % 2.55 C
Sensor: Nr:Datum:Temp:Feuchte:Taupunkt:
Aussen-T/F 2526 16-05-2010 01:32:03 9.3 C 63 % 2.63 C
2527 16-05-2010 01:44:03 9 C 64 % 2.57 C
2528 16-05-2010 01:56:03 8.7 C 68 % 3.13 C
2529 16-05-2010 02:08:03 8.4 C 69 % 3.05 C
2530 16-05-2010 02:20:03 8.2 C 70 % 3.06 C
2531 16-05-2010 02:32:03 8 C 71 % 3.07 C
2532 16-05-2010 02:44:04 7.8 C 73 % 3.27 C
2533 16-05-2010 02:56:04 7.8 C 72 % 3.08 C
2534 16-05-2010 03:08:04 7.6 C 73 % 3.08 C
2535 16-05-2010 03:20:04 7.4 C 74 % 3.08 C
2536 16-05-2010 03:32:04 7.4 C 74 % 3.08 C
2537 16-05-2010 03:44:04 7.5 C 74 % 3.17 C
2538 16-05-2010 03:56:04 7.5 C 74 % 3.17 C
2539 16-05-2010 04:08:04 7.6 C 74 % 3.27 C
2540 16-05-2010 04:20:04 7.6 C 73 % 3.08 C
2541 16-05-2010 04:32:04 7.6 C 74 % 3.27 C
2542 16-05-2010 04:44:04 7.6 C 74 % 3.27 C
2543 16-05-2010 04:56:04 7.6 C 74 % 3.27 C
2544 16-05-2010 05:08:04 7.6 C 74 % 3.27 C
2545 16-05-2010 05:20:04 7.5 C 74 % 3.17 C
2546 16-05-2010 05:32:04 7.2 C 75 % 3.07 C
2547 16-05-2010 05:44:04 7 C 76 % 3.07 C
2548 16-05-2010 05:56:04 7.2 C 76 % 3.26 C
2549 16-05-2010 06:08:04 7.4 C 76 % 3.45 C
2550 16-05-2010 06:20:04 7.4 C 75 % 3.27 C
Sensor: Nr:Datum:Temp:Feuchte:Taupunkt:
Aussen-T/F 2551 16-05-2010 06:32:04 7.4 C 75 % 3.27 C
2552 16-05-2010 06:44:04 7.4 C 75 % 3.27 C
2553 16-05-2010 06:56:05 7.5 C 75 % 3.36 C
2554 16-05-2010 07:08:05 7.7 C 75 % 3.56 C
2555 16-05-2010 07:20:05 7.8 C 74 % 3.46 C
2556 16-05-2010 07:32:05 7.9 C 74 % 3.56 C
2557 16-05-2010 07:44:05 7.9 C 74 % 3.56 C
2558 16-05-2010 07:56:05 7.9 C 74 % 3.56 C
2559 16-05-2010 08:08:05 8 C 73 % 3.46 C
2560 16-05-2010 08:20:05 8.2 C 74 % 3.85 C
2561 16-05-2010 08:32:05 8.7 C 71 % 3.74 C
2562 16-05-2010 08:44:05 9.1 C 68 % 3.52 C
2563 16-05-2010 08:56:05 9.6 C 66 % 3.57 C
2564 16-05-2010 09:08:02 10.2 C 61 % 3.03 C
2565 16-05-2010 09:20:01 10.6 C 51 % 0.9 C
2566 16-05-2010 09:32:02 11 C 47 % 0.14 C
2567 16-05-2010 09:44:02 11.3 C 43 % -0.81 C
2568 16-05-2010 09:56:02 11.7 C 42 % -0.77 C
2569 16-05-2010 10:08:02 11.9 C 40 % -1.25 C
2570 16-05-2010 10:20:01 12.2 C 38 % -1.68 C
2571 16-05-2010 10:32:02 12.4 C 38 % -1.5 C
2572 16-05-2010 10:44:02 13 C 38 % -0.97 C
2573 16-05-2010 10:56:01 13.3 C 36 % -1.44 C
2574 16-05-2010 11:08:02 13.7 C 34 % -1.86 C
2575 16-05-2010 11:20:02 14.3 C 33 % -1.73 C
Sensor: Nr:Datum:Temp:Feuchte:Taupunkt:
Aussen-T/F 2576 16-05-2010 11:32:02 15.4 C 31 % -1.62 C
2577 16-05-2010 11:44:02 15.4 C 30 % -2.06 C
2578 16-05-2010 11:56:01 15.4 C 29 % -2.52 C
2579 16-05-2010 12:08:02 15.9 C 26 % -3.55 C
2580 16-05-2010 12:20:02 16.1 C 28 % -2.39 C
2581 16-05-2010 12:32:02 17.9 C 25 % -2.38 C
2582 16-05-2010 12:44:02 17.2 C 23 % -4.09 C
2583 16-05-2010 12:56:01 16.1 C 25 % -3.91 C
2584 16-05-2010 13:08:02 18.3 C 23 % -3.16 C
2585 16-05-2010 13:20:02 17.3 C 23 % -4 C
2586 16-05-2010 13:32:01 17.4 C 23 % -3.92 C
2587 16-05-2010 13:44:01 18 C 24 % -2.84 C
2588 16-05-2010 13:56:02 17.3 C 24 % -3.44 C
2589 16-05-2010 14:08:01 16.7 C 25 % -3.4 C
2590 16-05-2010 14:20:02 18.4 C 25 % -1.96 C
2591 16-05-2010 14:32:02 18.4 C 21 % -4.29 C
2592 16-05-2010 14:44:02 17.9 C 23 % -3.5 C
2593 16-05-2010 14:56:02 18.2 C 22 % -3.84 C
2594 16-05-2010 15:08:02 19 C 20 % -4.44 C
2595 16-05-2010 15:20:02 19.3 C 20 % -4.19 C
2596 16-05-2010 15:32:02 19.8 C 20 % -3.78 C
2597 16-05-2010 15:44:02 19.1 C 20 % -4.36 C
2598 16-05-2010 15:56:02 20.3 C 20 % -3.37 C
2599 16-05-2010 16:08:02 21 C 20 % -2.79 C
2600 16-05-2010 16:20:01 20.1 C 20 % -3.53 C
Sensor: Nr:Datum:Temp:Feuchte:Taupunkt:
Aussen-T/F 2601 16-05-2010 16:32:02 20.4 C 20 % -3.28 C
2602 16-05-2010 16:44:02 20 C 20 % -3.61 C
2603 16-05-2010 16:56:02 21.2 C 20 % -2.62 C
2604 16-05-2010 17:08:02 21.7 C 20 % -2.21 C
2605 16-05-2010 17:20:02 21.1 C 20 % -2.71 C
2606 16-05-2010 17:32:02 21.5 C 20 % -2.38 C
2607 16-05-2010 17:44:02 21.4 C 20 % -2.46 C
2608 16-05-2010 17:56:02 20.8 C 20 % -2.95 C
2609 16-05-2010 18:08:02 20.8 C 20 % -2.95 C
2610 16-05-2010 18:20:02 20 C 20 % -3.61 C
2611 16-05-2010 18:32:02 19.5 C 21 % -3.38 C
2612 16-05-2010 18:44:02 18.9 C 22 % -3.25 C
2613 16-05-2010 18:56:02 19.9 C 20 % -3.7 C
2614 16-05-2010 19:08:02 19.7 C 21 % -3.21 C
2615 16-05-2010 19:20:03 19.5 C 21 % -3.38 C
2616 16-05-2010 19:32:02 18.6 C 22 % -3.51 C
2617 16-05-2010 19:44:02 18.2 C 25 % -2.13 C
2618 16-05-2010 19:56:02 18.3 C 25 % -2.04 C
2619 16-05-2010 20:08:02 19.3 C 25 % -1.19 C
2620 16-05-2010 20:20:02 19.3 C 27 % -0.14 C
2621 16-05-2010 20:32:02 18.2 C 29 % -0.11 C
2622 16-05-2010 20:44:02 17 C 32 % 0.21 C
2623 16-05-2010 20:56:02 16 C 33 % -0.24 C
2624 16-05-2010 21:08:02 15.1 C 35 % -0.23 C
2625 16-05-2010 21:20:02 14.6 C 37 % 0.09 C
Sensor: Nr:Datum:Temp:Feuchte:Taupunkt:
Aussen-T/F 2626 16-05-2010 21:32:02 14.2 C 39 % 0.46 C
2627 16-05-2010 21:44:02 13.9 C 41 % 0.88 C
2628 16-05-2010 21:56:02 13.6 C 44 % 1.59 C
2629 16-05-2010 22:08:02 13.2 C 44 % 1.23 C
2630 16-05-2010 22:20:03 12.6 C 48 % 1.89 C
2631 16-05-2010 22:33:03 12.3 C 49 % 1.91 C
2632 16-05-2010 22:45:03 11.9 C 51 % 2.1 C
2633 16-05-2010 22:57:03 11.8 C 53 % 2.54 C
2634 16-05-2010 23:09:03 11.4 C 55 % 2.69 C
2635 16-05-2010 23:21:03 11 C 57 % 2.82 C
2636 16-05-2010 23:33:03 10.7 C 59 % 3.03 C
2637 16-05-2010 23:45:03 10.7 C 60 % 3.26 C
2638 16-05-2010 23:57:03 10.5 C 62 % 3.54 C
2639 17-05-2010 00:09:03 10.3 C 63 % 3.58 C
2640 17-05-2010 00:21:03 10.4 C 62 % 3.44 C
2641 17-05-2010 00:33:03 10 C 63 % 3.29 C
2642 17-05-2010 00:45:03 10 C 63 % 3.29 C
2643 17-05-2010 00:57:03 9.9 C 64 % 3.42 C
2644 17-05-2010 01:09:03 9.8 C 63 % 3.1 C
2645 17-05-2010 01:21:04 9.7 C 65 % 3.45 C
2646 17-05-2010 01:33:04 9.3 C 67 % 3.5 C
2647 17-05-2010 01:45:04 9 C 68 % 3.42 C
2648 17-05-2010 01:57:04 9 C 69 % 3.63 C
2649 17-05-2010 02:09:04 8.7 C 71 % 3.74 C
2650 17-05-2010 02:21:04 8.6 C 71 % 3.65 C
Sensor: Nr:Datum:Temp:Feuchte:Taupunkt:
Aussen-T/F 2651 17-05-2010 02:33:04 8.6 C 72 % 3.85 C
2652 17-05-2010 02:45:04 8.5 C 72 % 3.75 C
2653 17-05-2010 02:57:04 8.4 C 72 % 3.65 C
2654 17-05-2010 03:09:04 8.1 C 73 % 3.56 C
2655 17-05-2010 03:21:04 7.8 C 75 % 3.65 C
2656 17-05-2010 03:33:04 7.6 C 76 % 3.65 C
2657 17-05-2010 03:45:04 7.4 C 77 % 3.64 C
2658 17-05-2010 03:57:04 7.3 C 78 % 3.73 C
2659 17-05-2010 04:09:04 7.2 C 78 % 3.63 C
2660 17-05-2010 04:21:04 7.1 C 78 % 3.53 C
2661 17-05-2010 04:33:04 7 C 78 % 3.43 C
2662 17-05-2010 04:45:04 6.8 C 80 % 3.6 C
2663 17-05-2010 04:57:04 6.7 C 81 % 3.68 C
2664 17-05-2010 05:09:04 6.5 C 82 % 3.66 C
2665 17-05-2010 05:21:04 6.3 C 82 % 3.46 C
2666 17-05-2010 05:33:04 6.2 C 83 % 3.53 C
2667 17-05-2010 05:45:05 6.1 C 83 % 3.44 C
2668 17-05-2010 05:57:05 6 C 83 % 3.34 C
2669 17-05-2010 06:09:05 6 C 84 % 3.51 C
2670 17-05-2010 06:21:05 6 C 83 % 3.34 C
2671 17-05-2010 06:33:03 6 C 83 % 3.34 C
2672 17-05-2010 06:45:02 5.9 C 84 % 3.41 C
2673 17-05-2010 06:57:02 6.1 C 83 % 3.44 C
2674 17-05-2010 07:09:01 6.3 C 83 % 3.63 C
2675 17-05-2010 07:21:02 6.5 C 82 % 3.66 C
Sensor: Nr:Datum:Temp:Feuchte:Taupunkt:
Aussen-T/F 2676 17-05-2010 07:33:01 7.2 C 79 % 3.81 C
2677 17-05-2010 07:45:02 7.4 C 78 % 3.82 C
2678 17-05-2010 07:57:02 8 C 75 % 3.85 C
2679 17-05-2010 08:09:01 8.3 C 74 % 3.95 C
2680 17-05-2010 08:21:02 8.8 C 73 % 4.24 C
2681 17-05-2010 08:33:02 9.2 C 70 % 4.02 C
2682 17-05-2010 08:45:02 10.1 C 66 % 4.05 C
2683 17-05-2010 08:57:02 10.7 C 64 % 4.18 C
2684 17-05-2010 09:09:02 11.2 C 62 % 4.2 C
2685 17-05-2010 09:21:02 11.6 C 62 % 4.58 C
2686 17-05-2010 09:33:02 12.2 C 60 % 4.67 C
2687 17-05-2010 09:45:02 12.2 C 60 % 4.67 C
2688 17-05-2010 09:57:02 12.2 C 60 % 4.67 C
2689 17-05-2010 10:09:02 13 C 56 % 4.44 C
2690 17-05-2010 10:21:02 13.2 C 54 % 4.11 C
2691 17-05-2010 10:33:03 13.7 C 54 % 4.57 C
2692 17-05-2010 10:45:02 14.1 C 54 % 4.94 C
2693 17-05-2010 10:57:03 14.5 C 52 % 4.77 C
2694 17-05-2010 11:09:01 14.1 C 54 % 4.94 C
2695 17-05-2010 11:21:02 13.9 C 57 % 5.53 C
2696 17-05-2010 11:33:02 13.5 C 57 % 5.16 C
2697 17-05-2010 11:45:02 13.5 C 61 % 6.14 C
2698 17-05-2010 11:57:02 13 C 63 % 6.13 C
2699 17-05-2010 12:09:02 13.2 C 63 % 6.32 C
2700 17-05-2010 12:21:02 13 C 66 % 6.8 C
Sensor: Nr:Datum:Temp:Feuchte:Taupunkt:
Aussen-T/F 2701 17-05-2010 12:33:02 13.2 C 67 % 7.21 C
2702 17-05-2010 12:45:01 14.2 C 61 % 6.8 C
2703 17-05-2010 12:57:01 15.8 C 54 % 6.52 C
2704 17-05-2010 13:09:02 15.4 C 51 % 5.33 C
2705 17-05-2010 13:21:01 16.9 C 48 % 5.83 C
2706 17-05-2010 13:33:01 18.1 C 42 % 5 C
2707 17-05-2010 13:45:01 17.7 C 40 % 3.95 C
2708 17-05-2010 13:57:01 15 C 55 % 6.04 C
2709 17-05-2010 14:09:02 15.6 C 53 % 6.06 C
2710 17-05-2010 14:21:01 15.5 C 56 % 6.77 C
2711 17-05-2010 14:33:01 17.1 C 46 % 5.4 C
2712 17-05-2010 14:45:01 16.5 C 46 % 4.85 C
2713 17-05-2010 14:57:01 14.7 C 57 % 6.28 C
2714 17-05-2010 15:09:02 12.6 C 75 % 8.29 C
2715 17-05-2010 15:21:02 12.6 C 82 % 9.61 C
2716 17-05-2010 15:33:01 12.9 C 85 % 10.44 C
2717 17-05-2010 15:45:02 12.7 C 86 % 10.42 C
2718 17-05-2010 15:57:02 12.5 C 87 % 10.4 C
2719 17-05-2010 16:09:01 13.3 C 87 % 11.18 C
2720 17-05-2010 16:21:02 13.8 C 83 % 10.97 C
2721 17-05-2010 16:33:01 13.7 C 78 % 9.94 C
2722 17-05-2010 16:45:02 13.1 C 78 % 9.36 C
2723 17-05-2010 16:57:02 13.3 C 80 % 9.93 C
2724 17-05-2010 17:09:01 13.8 C 78 % 10.03 C
2725 17-05-2010 17:21:01 14.1 C 74 % 9.54 C
Sensor: Nr:Datum:Temp:Feuchte:Taupunkt:
Aussen-T/F 2726 17-05-2010 17:33:01 13.9 C 75 % 9.55 C
2727 17-05-2010 17:45:02 13.7 C 73 % 8.95 C
2728 17-05-2010 17:57:02 13.8 C 73 % 9.05 C
2729 17-05-2010 18:09:02 13.6 C 72 % 8.65 C
2730 17-05-2010 18:21:02 14.4 C 72 % 9.42 C
2731 17-05-2010 18:33:02 11.8 C 63 % 5 C
2732 17-05-2010 18:45:01 10.7 C 70 % 5.46 C
2733 17-05-2010 18:57:01 10 C 77 % 6.16 C
2734 17-05-2010 19:09:02 9.8 C 83 % 7.05 C
2735 17-05-2010 19:21:01 10.3 C 82 % 7.37 C
2736 17-05-2010 19:33:02 10.3 C 83 % 7.54 C
2737 17-05-2010 19:45:02 9.8 C 83 % 7.05 C
2738 17-05-2010 19:57:02 10 C 83 % 7.25 C
2739 17-05-2010 20:09:02 9.8 C 85 % 7.4 C
2740 17-05-2010 20:21:01 9.5 C 86 % 7.28 C
2741 17-05-2010 20:33:02 9.5 C 87 % 7.45 C
2742 17-05-2010 20:45:02 9.4 C 87 % 7.35 C
2743 17-05-2010 20:57:02 9.1 C 88 % 7.22 C
2744 17-05-2010 21:09:02 9 C 88 % 7.12 C
2745 17-05-2010 21:21:02 9 C 89 % 7.29 C
2746 17-05-2010 21:33:02 9 C 89 % 7.29 C
2747 17-05-2010 21:45:02 8.7 C 90 % 7.15 C
2748 17-05-2010 21:57:02 8.7 C 91 % 7.32 C
2749 17-05-2010 22:09:02 8.3 C 91 % 6.92 C
2750 17-05-2010 22:21:02 8.6 C 91 % 7.22 C
Sensor: Nr:Datum:Temp:Feuchte:Taupunkt:
Aussen-T/F 2751 17-05-2010 22:34:03 8.7 C 92 % 7.47 C
2752 17-05-2010 22:46:03 8.5 C 92 % 7.28 C
2753 17-05-2010 22:58:03 8.4 C 92 % 7.18 C
2754 17-05-2010 23:10:04 8.1 C 91 % 6.72 C
2755 17-05-2010 23:22:04 7.8 C 92 % 6.58 C
2756 17-05-2010 23:34:04 7.8 C 92 % 6.58 C
2757 17-05-2010 23:46:04 7.7 C 93 % 6.64 C
2758 17-05-2010 23:58:04 7.6 C 93 % 6.54 C
2759 18-05-2010 00:10:04 7.4 C 92 % 6.19 C
2760 18-05-2010 00:22:04 7.1 C 92 % 5.89 C
2761 18-05-2010 00:34:04 7 C 92 % 5.79 C
2762 18-05-2010 00:46:04 7 C 92 % 5.79 C
2763 18-05-2010 00:58:04 6.9 C 93 % 5.85 C
2764 18-05-2010 01:10:04 6.8 C 93 % 5.75 C
2765 18-05-2010 01:22:04 6.6 C 93 % 5.55 C
2766 18-05-2010 01:34:04 6.4 C 92 % 5.2 C
2767 18-05-2010 01:46:04 6.3 C 93 % 5.25 C
2768 18-05-2010 01:58:04 6.2 C 93 % 5.15 C
2769 18-05-2010 02:10:04 6.3 C 93 % 5.25 C
2770 18-05-2010 02:22:04 6.2 C 93 % 5.15 C
2771 18-05-2010 02:34:04 6.1 C 93 % 5.06 C
2772 18-05-2010 02:46:04 6 C 93 % 4.96 C
2773 18-05-2010 02:58:04 5.9 C 93 % 4.86 C
2774 18-05-2010 03:10:04 5.8 C 93 % 4.76 C
2775 18-05-2010 03:22:04 5.7 C 93 % 4.66 C
Sensor: Nr:Datum:Temp:Feuchte:Taupunkt:
Aussen-T/F 2776 18-05-2010 03:34:05 5.7 C 94 % 4.81 C
2777 18-05-2010 03:46:05 5.8 C 94 % 4.91 C
2778 18-05-2010 03:58:05 6 C 93 % 4.96 C
2779 18-05-2010 04:10:05 6.3 C 94 % 5.41 C
2780 18-05-2010 04:22:05 6.3 C 94 % 5.41 C
2781 18-05-2010 04:34:05 6.3 C 94 % 5.41 C
2782 18-05-2010 04:46:05 6.2 C 94 % 5.31 C
2783 18-05-2010 04:58:05 6.3 C 93 % 5.25 C
2784 18-05-2010 05:10:05 6.4 C 94 % 5.51 C
2785 18-05-2010 05:22:05 6.5 C 94 % 5.61 C
2786 18-05-2010 05:34:05 6.4 C 93 % 5.35 C
2787 18-05-2010 05:46:05 6.5 C 93 % 5.45 C
2788 18-05-2010 05:58:05 6.7 C 93 % 5.65 C
2789 18-05-2010 06:10:05 6.9 C 93 % 5.85 C
2790 18-05-2010 06:22:05 6.9 C 93 % 5.85 C
2791 18-05-2010 06:34:05 7.1 C 92 % 5.89 C
2792 18-05-2010 06:46:05 7.3 C 92 % 6.09 C
2793 18-05-2010 06:58:05 7.5 C 91 % 6.13 C
2794 18-05-2010 07:10:04 7.9 C 91 % 6.52 C
2795 18-05-2010 07:22:03 7.9 C 90 % 6.36 C
2796 18-05-2010 07:34:03 8 C 89 % 6.3 C
2797 18-05-2010 07:46:01 8.5 C 89 % 6.79 C
2798 18-05-2010 07:58:01 8.7 C 87 % 6.66 C
2799 18-05-2010 08:10:02 9 C 82 % 6.1 C
2800 18-05-2010 08:22:01 8.7 C 77 % 4.9 C
Sensor: Nr:Datum:Temp:Feuchte:Taupunkt:
Aussen-T/F 2801 18-05-2010 08:34:02 9 C 73 % 4.43 C
2802 18-05-2010 08:46:02 9.3 C 73 % 4.72 C
2803 18-05-2010 08:58:02 9.2 C 73 % 4.62 C
2804 18-05-2010 09:10:01 9.3 C 72 % 4.52 C
2805 18-05-2010 09:22:02 9.6 C 70 % 4.41 C
2806 18-05-2010 09:34:01 9.9 C 68 % 4.28 C
2807 18-05-2010 09:46:02 9.7 C 66 % 3.67 C
2808 18-05-2010 09:58:02 10 C 64 % 3.51 C
2809 18-05-2010 10:10:01 10.5 C 62 % 3.54 C
2810 18-05-2010 10:22:01 10.5 C 62 % 3.54 C
2811 18-05-2010 10:34:02 10.6 C 58 % 2.69 C
2812 18-05-2010 10:46:02 11.2 C 55 % 2.51 C
2813 18-05-2010 10:58:02 11.4 C 55 % 2.69 C
2814 18-05-2010 11:10:02 12.5 C 51 % 2.65 C
2815 18-05-2010 11:22:02 12.4 C 48 % 1.71 C
2816 18-05-2010 11:34:02 12.1 C 49 % 1.72 C
2817 18-05-2010 11:46:02 13 C 46 % 1.67 C
2818 18-05-2010 11:58:02 13.7 C 44 % 1.68 C
2819 18-05-2010 12:10:03 13.7 C 41 % 0.7 C
2820 18-05-2010 12:22:02 12.7 C 46 % 1.39 C
2821 18-05-2010 12:34:02 14.2 C 42 % 1.49 C
2822 18-05-2010 12:46:01 14.4 C 39 % 0.64 C
2823 18-05-2010 12:58:01 15.2 C 36 % 0.25 C
2824 18-05-2010 13:10:02 16.8 C 35 % 1.27 C
2825 18-05-2010 13:22:01 16.9 C 31 % -0.32 C
Sensor: Nr:Datum:Temp:Feuchte:Taupunkt:
Aussen-T/F 2826 18-05-2010 13:34:01 16.5 C 32 % -0.23 C
2827 18-05-2010 13:46:01 17.8 C 29 % -0.45 C
2828 18-05-2010 13:58:01 15.8 C 30 % -1.72 C
2829 18-05-2010 14:10:02 15.1 C 32 % -1.45 C
2830 18-05-2010 14:22:01 15.8 C 31 % -1.27 C
2831 18-05-2010 14:34:01 15 C 33 % -1.12 C
2832 18-05-2010 14:46:01 15.8 C 32 % -0.84 C
2833 18-05-2010 14:58:01 16.3 C 30 % -1.28 C
2834 18-05-2010 15:10:02 16.4 C 32 % -0.32 C
2835 18-05-2010 15:22:02 16.5 C 30 % -1.11 C
2836 18-05-2010 15:34:01 16.6 C 28 % -1.96 C
2837 18-05-2010 15:46:02 16 C 29 % -2 C
2838 18-05-2010 15:58:02 16.9 C 29 % -1.23 C
2839 18-05-2010 16:10:01 18.2 C 26 % -1.6 C
2840 18-05-2010 16:22:02 18.2 C 25 % -2.13 C
2841 18-05-2010 16:34:01 17.9 C 20 % -5.35 C
2842 18-05-2010 16:46:02 17.6 C 22 % -4.34 C
2843 18-05-2010 16:58:02 16.8 C 23 % -4.42 C
2844 18-05-2010 17:10:02 16.6 C 25 % -3.48 C
2845 18-05-2010 17:22:02 17.7 C 25 % -2.55 C
2846 18-05-2010 17:34:02 17.5 C 27 % -1.68 C
2847 18-05-2010 17:46:02 16.8 C 27 % -2.28 C
2848 18-05-2010 17:58:02 17.2 C 25 % -2.97 C
2849 18-05-2010 18:10:01 18.2 C 23 % -3.25 C
2850 18-05-2010 18:22:02 18.2 C 24 % -2.68 C
Sensor: Nr:Datum:Temp:Feuchte:Taupunkt:
Aussen-T/F 2851 18-05-2010 18:34:02 16.9 C 27 % -2.19 C
2852 18-05-2010 18:46:02 16.2 C 30 % -1.37 C
2853 18-05-2010 18:58:02 16.4 C 31 % -0.75 C
2854 18-05-2010 19:10:02 15.7 C 33 % -0.51 C
2855 18-05-2010 19:22:02 16.1 C 31 % -1.01 C
2856 18-05-2010 19:34:03 15.3 C 33 % -0.86 C
2857 18-05-2010 19:46:02 14.8 C 36 % -0.11 C
2858 18-05-2010 19:58:02 14.7 C 37 % 0.18 C
2859 18-05-2010 20:10:02 14.5 C 37 % 0 C
2860 18-05-2010 20:22:01 14.4 C 40 % 0.99 C
2861 18-05-2010 20:34:02 14.5 C 39 % 0.73 C
2862 18-05-2010 20:46:02 14.1 C 40 % 0.72 C
2863 18-05-2010 20:58:02 13.8 C 41 % 0.79 C
2864 18-05-2010 21:10:02 13.5 C 43 % 1.18 C
2865 18-05-2010 21:22:02 13.1 C 42 % 0.5 C
2866 18-05-2010 21:34:02 12.6 C 43 % 0.37 C
2867 18-05-2010 21:46:02 12.4 C 41 % -0.47 C
2868 18-05-2010 21:58:02 12.4 C 40 % -0.8 C
2869 18-05-2010 22:10:02 12 C 41 % -0.83 C
2870 18-05-2010 22:22:02 11.7 C 42 % -0.77 C
2871 18-05-2010 22:35:02 11.5 C 43 % -0.63 C
2872 18-05-2010 22:47:02 11.2 C 46 % 0.02 C
2873 18-05-2010 22:59:02 10.8 C 50 % 0.81 C
2874 18-05-2010 23:11:02 10.5 C 52 % 1.07 C
2875 18-05-2010 23:23:02 10.2 C 56 % 1.83 C
Sensor: Nr:Datum:Temp:Feuchte:Taupunkt:
Aussen-T/F 2876 18-05-2010 23:35:03 9.9 C 59 % 2.27 C
2877 18-05-2010 23:47:03 9.7 C 60 % 2.32 C
2878 18-05-2010 23:59:03 9.6 C 61 % 2.46 C
2879 19-05-2010 00:11:03 9.4 C 64 % 2.95 C
2880 19-05-2010 00:23:03 9.4 C 64 % 2.95 C
2881 19-05-2010 00:35:03 9.3 C 64 % 2.85 C
2882 19-05-2010 00:47:03 9.3 C 64 % 2.85 C
2883 19-05-2010 00:59:03 9.2 C 64 % 2.76 C
2884 19-05-2010 01:11:03 9.2 C 62 % 2.31 C
2885 19-05-2010 01:23:03 9.3 C 60 % 1.95 C
2886 19-05-2010 01:35:03 9.3 C 59 % 1.71 C
2887 19-05-2010 01:47:03 9.3 C 59 % 1.71 C
2888 19-05-2010 01:59:03 9.3 C 59 % 1.71 C
2889 19-05-2010 02:11:03 9.2 C 59 % 1.62 C
2890 19-05-2010 02:23:03 9.1 C 60 % 1.76 C
2891 19-05-2010 02:35:03 9.2 C 60 % 1.85 C
2892 19-05-2010 02:47:03 9 C 60 % 1.66 C
2893 19-05-2010 02:59:03 8.8 C 62 % 1.93 C
2894 19-05-2010 03:11:03 8.8 C 62 % 1.93 C
2895 19-05-2010 03:23:03 8.8 C 61 % 1.71 C
2896 19-05-2010 03:35:03 8.7 C 62 % 1.84 C
2897 19-05-2010 03:47:03 8.6 C 62 % 1.74 C
2898 19-05-2010 03:59:03 8.5 C 63 % 1.87 C
2899 19-05-2010 04:11:04 8.4 C 64 % 2 C
2900 19-05-2010 04:23:04 8.2 C 65 % 2.02 C
Sensor: Nr:Datum:Temp:Feuchte:Taupunkt:
Aussen-T/F 2901 19-05-2010 04:35:04 8.1 C 66 % 2.14 C
2902 19-05-2010 04:47:04 8.1 C 68 % 2.56 C
2903 19-05-2010 04:59:04 8 C 69 % 2.67 C
2904 19-05-2010 05:11:04 8 C 69 % 2.67 C
2905 19-05-2010 05:23:04 7.9 C 71 % 2.98 C
2906 19-05-2010 05:35:04 7.9 C 72 % 3.17 C
2907 19-05-2010 05:47:04 7.9 C 72 % 3.17 C
2908 19-05-2010 05:59:04 7.9 C 72 % 3.17 C
2909 19-05-2010 06:11:04 7.8 C 73 % 3.27 C
2910 19-05-2010 06:23:04 8 C 72 % 3.27 C
2911 19-05-2010 06:35:04 8.1 C 71 % 3.17 C
2912 19-05-2010 06:47:04 8.1 C 71 % 3.17 C
2913 19-05-2010 06:59:04 8.2 C 71 % 3.26 C
2914 19-05-2010 07:11:02 8.4 C 71 % 3.46 C
2915 19-05-2010 07:23:02 8.5 C 69 % 3.15 C
2916 19-05-2010 07:35:02 8.6 C 68 % 3.04 C
2917 19-05-2010 07:47:02 8.7 C 68 % 3.13 C
2918 19-05-2010 07:59:02 9.1 C 66 % 3.09 C
2919 19-05-2010 08:11:02 9.1 C 64 % 2.66 C
2920 19-05-2010 08:23:02 9.3 C 63 % 2.63 C
2921 19-05-2010 08:35:02 9 C 63 % 2.35 C
2922 19-05-2010 08:47:02 9.1 C 63 % 2.44 C
2923 19-05-2010 08:59:02 9.2 C 63 % 2.53 C
2924 19-05-2010 09:11:01 8.9 C 65 % 2.69 C
2925 19-05-2010 09:23:01 9.1 C 65 % 2.88 C
Sensor: Nr:Datum:Temp:Feuchte:Taupunkt:
Aussen-T/F 2926 19-05-2010 09:35:01 9.2 C 64 % 2.76 C
2927 19-05-2010 09:47:02 9.2 C 64 % 2.76 C
2928 19-05-2010 09:59:02 9.5 C 63 % 2.82 C
2929 19-05-2010 10:11:02 9.6 C 63 % 2.91 C
2930 19-05-2010 10:23:02 9.6 C 62 % 2.69 C
2931 19-05-2010 10:35:01 9.8 C 62 % 2.88 C
2932 19-05-2010 10:47:02 9.5 C 62 % 2.59 C
2933 19-05-2010 10:59:02 9.6 C 63 % 2.91 C
2934 19-05-2010 11:11:01 9.7 C 63 % 3.01 C
2935 19-05-2010 11:23:02 10.1 C 61 % 2.93 C
2936 19-05-2010 11:35:02 10.3 C 61 % 3.12 C
2937 19-05-2010 11:47:02 10.7 C 60 % 3.26 C
2938 19-05-2010 11:59:02 10.3 C 60 % 2.89 C
2939 19-05-2010 12:11:02 10.7 C 61 % 3.5 C
2940 19-05-2010 12:23:02 10.9 C 60 % 3.45 C
2941 19-05-2010 12:35:02 10.7 C 59 % 3.03 C
2942 19-05-2010 12:47:02 11.1 C 56 % 2.67 C
2943 19-05-2010 12:59:02 11.7 C 55 % 2.97 C
2944 19-05-2010 13:11:02 11.9 C 53 % 2.64 C
2945 19-05-2010 13:23:01 11.7 C 51 % 1.91 C
2946 19-05-2010 13:35:02 11.5 C 58 % 3.54 C
2947 19-05-2010 13:47:02 11.3 C 62 % 4.29 C
2948 19-05-2010 13:59:02 11.3 C 62 % 4.29 C
2949 19-05-2010 14:11:02 11.4 C 63 % 4.62 C
2950 19-05-2010 14:23:02 11.2 C 63 % 4.43 C
Sensor: Nr:Datum:Temp:Feuchte:Taupunkt:
Aussen-T/F 2951 19-05-2010 14:35:02 10.9 C 68 % 5.23 C
2952 19-05-2010 14:47:02 11.9 C 69 % 6.4 C
2953 19-05-2010 14:59:02 11.9 C 66 % 5.76 C
2954 19-05-2010 15:11:02 11.8 C 70 % 6.51 C
2955 19-05-2010 15:23:02 11.5 C 74 % 7.03 C
2956 19-05-2010 15:35:02 11.4 C 77 % 7.52 C
2957 19-05-2010 15:47:02 11.1 C 78 % 7.41 C
2958 19-05-2010 15:59:02 11.2 C 79 % 7.7 C
2959 19-05-2010 16:11:02 11 C 80 % 7.69 C
2960 19-05-2010 16:23:02 10.8 C 81 % 7.67 C
2961 19-05-2010 16:35:02 10.7 C 82 % 7.76 C
2962 19-05-2010 16:47:02 10.8 C 83 % 8.03 C
2963 19-05-2010 16:59:02 10.6 C 83 % 7.84 C
2964 19-05-2010 17:11:02 10.7 C 84 % 8.11 C
2965 19-05-2010 17:23:03 10.6 C 85 % 8.19 C
2966 19-05-2010 17:35:02 10.7 C 85 % 8.28 C
2967 19-05-2010 17:47:02 10.7 C 85 % 8.28 C
2968 19-05-2010 17:59:02 10.7 C 85 % 8.28 C
2969 19-05-2010 18:11:02 11.1 C 84 % 8.5 C
2970 19-05-2010 18:23:03 11.1 C 83 % 8.33 C
2971 19-05-2010 18:35:02 11.1 C 81 % 7.97 C
2972 19-05-2010 18:47:02 11.2 C 80 % 7.88 C
2973 19-05-2010 18:59:02 11.2 C 79 % 7.7 C
2974 19-05-2010 19:11:02 11.3 C 78 % 7.61 C
2975 19-05-2010 19:23:02 11.4 C 78 % 7.71 C
Sensor: Nr:Datum:Temp:Feuchte:Taupunkt:
Aussen-T/F 2976 19-05-2010 19:35:02 11.5 C 78 % 7.8 C
2977 19-05-2010 19:47:02 11.6 C 78 % 7.9 C
2978 19-05-2010 19:59:02 11.6 C 77 % 7.71 C
2979 19-05-2010 20:11:02 11.6 C 77 % 7.71 C
2980 19-05-2010 20:23:02 11.7 C 76 % 7.62 C
2981 19-05-2010 20:35:01 11.7 C 75 % 7.42 C
2982 19-05-2010 20:47:02 11.8 C 73 % 7.12 C
2983 19-05-2010 20:59:02 12 C 67 % 6.07 C
2984 19-05-2010 21:11:01 12.6 C 56 % 4.07 C
2985 19-05-2010 21:23:02 12.8 C 55 % 4 C
2986 19-05-2010 21:35:02 13.2 C 48 % 2.44 C
2987 19-05-2010 21:47:02 13 C 51 % 3.11 C
2988 19-05-2010 21:59:03 13.1 C 48 % 2.35 C
2989 19-05-2010 22:11:02 13.2 C 48 % 2.44 C
2990 19-05-2010 22:23:02 13.1 C 50 % 2.93 C
2991 19-05-2010 22:35:03 13.2 C 49 % 2.73 C
2992 19-05-2010 22:47:02 13 C 50 % 2.83 C
2993 19-05-2010 22:59:03 12.8 C 53 % 3.47 C
2994 19-05-2010 23:11:01 12.8 C 53 % 3.47 C
2995 19-05-2010 23:23:02 12.8 C 52 % 3.2 C
2996 19-05-2010 23:35:02 12.8 C 53 % 3.47 C
2997 19-05-2010 23:47:02 12.9 C 51 % 3.02 C
2998 19-05-2010 23:59:02 12.7 C 51 % 2.84 C
2999 20-05-2010 00:11:02 12.9 C 49 % 2.46 C
3000 20-05-2010 00:23:03 12.8 C 49 % 2.37 C
Sensor: Nr:Datum:Temp:Feuchte:Taupunkt:
Aussen-T/F 3001 20-05-2010 00:35:02 12.8 C 47 % 1.78 C
3002 20-05-2010 00:47:02 13 C 44 % 1.05 C
3003 20-05-2010 00:59:02 13 C 42 % 0.41 C
3004 20-05-2010 01:11:02 12.8 C 44 % 0.87 C
3005 20-05-2010 01:23:03 12.6 C 47 % 1.6 C
3006 20-05-2010 01:35:02 12.5 C 51 % 2.65 C
3007 20-05-2010 01:47:03 12.4 C 52 % 2.83 C
3008 20-05-2010 01:59:03 12.2 C 52 % 2.65 C
3009 20-05-2010 02:11:02 12.1 C 51 % 2.28 C
3010 20-05-2010 02:23:03 12 C 53 % 2.73 C
3011 20-05-2010 02:35:02 11.8 C 54 % 2.81 C
3012 20-05-2010 02:48:04 11.7 C 54 % 2.71 C
3013 20-05-2010 03:00:04 11.5 C 55 % 2.79 C
3014 20-05-2010 03:12:03 11.7 C 53 % 2.45 C
3015 20-05-2010 03:24:03 11.5 C 52 % 2 C
3016 20-05-2010 03:36:01 11.4 C 53 % 2.17 C
3017 20-05-2010 03:48:01 11.5 C 53 % 2.27 C
3018 20-05-2010 04:00:01 11.2 C 54 % 2.25 C
3019 20-05-2010 04:12:02 11.3 C 52 % 1.81 C
3020 20-05-2010 04:24:01 11.2 C 52 % 1.72 C
3021 20-05-2010 04:36:02 11.1 C 52 % 1.63 C
3022 20-05-2010 04:48:01 11 C 52 % 1.54 C
3023 20-05-2010 05:00:01 11.1 C 52 % 1.63 C
3024 20-05-2010 05:12:02 11.1 C 51 % 1.36 C
3025 20-05-2010 05:24:02 11 C 53 % 1.8 C
Sensor: Nr:Datum:Temp:Feuchte:Taupunkt:
Aussen-T/F 3026 20-05-2010 05:36:02 11 C 52 % 1.54 C
3027 20-05-2010 05:48:01 10.9 C 53 % 1.71 C
3028 20-05-2010 06:00:01 10.9 C 53 % 1.71 C
3029 20-05-2010 06:12:02 10.9 C 54 % 1.97 C
3030 20-05-2010 06:24:02 11 C 50 % 0.99 C
3031 20-05-2010 06:36:02 11.1 C 50 % 1.08 C
3032 20-05-2010 06:48:02 11.2 C 52 % 1.72 C
3033 20-05-2010 07:00:02 11.2 C 51 % 1.45 C
3034 20-05-2010 07:12:02 11.2 C 51 % 1.45 C
3035 20-05-2010 07:24:02 11.2 C 51 % 1.45 C
3036 20-05-2010 07:36:01 11.4 C 53 % 2.17 C
3037 20-05-2010 07:48:02 11.3 C 52 % 1.81 C
3038 20-05-2010 08:00:02 11.2 C 52 % 1.72 C
3039 20-05-2010 08:12:01 11 C 52 % 1.54 C
3040 20-05-2010 08:24:02 11 C 53 % 1.8 C
3041 20-05-2010 08:36:01 11.1 C 54 % 2.16 C
3042 20-05-2010 08:48:02 11.4 C 54 % 2.44 C
3043 20-05-2010 09:00:02 11.8 C 52 % 2.28 C
3044 20-05-2010 09:12:02 11.8 C 51 % 2.01 C
3045 20-05-2010 09:24:02 11.8 C 52 % 2.28 C
3046 20-05-2010 09:36:01 11.7 C 52 % 2.18 C
3047 20-05-2010 09:48:02 12 C 50 % 1.91 C
3048 20-05-2010 10:00:02 12.1 C 50 % 2.01 C
3049 20-05-2010 10:12:01 12.1 C 50 % 2.01 C
3050 20-05-2010 10:24:02 12.4 C 50 % 2.28 C
Sensor: Nr:Datum:Temp:Feuchte:Taupunkt:
Aussen-T/F 3051 20-05-2010 10:36:01 12.5 C 49 % 2.09 C
3052 20-05-2010 10:48:02 12.4 C 49 % 2 C
3053 20-05-2010 11:00:02 12.5 C 48 % 1.8 C
3054 20-05-2010 11:12:02 12.7 C 47 % 1.69 C
3055 20-05-2010 11:24:02 13.1 C 45 % 1.45 C
3056 20-05-2010 11:36:02 13.4 C 43 % 1.09 C
3057 20-05-2010 11:48:02 13.8 C 43 % 1.45 C
3058 20-05-2010 12:00:02 13.8 C 42 % 1.13 C
3059 20-05-2010 12:12:01 13.8 C 41 % 0.79 C
3060 20-05-2010 12:24:01 14.4 C 39 % 0.64 C
3061 20-05-2010 12:36:02 14.2 C 40 % 0.81 C
3062 20-05-2010 12:48:02 14 C 40 % 0.63 C
3063 20-05-2010 13:00:02 14 C 41 % 0.97 C
3064 20-05-2010 13:12:02 14.1 C 42 % 1.4 C
3065 20-05-2010 13:24:01 13 C 53 % 3.66 C
3066 20-05-2010 13:36:02 12.9 C 61 % 5.57 C
3067 20-05-2010 13:48:02 13.1 C 64 % 6.45 C
3068 20-05-2010 14:00:02 12.8 C 66 % 6.61 C
3069 20-05-2010 14:12:02 13.5 C 67 % 7.5 C
3070 20-05-2010 14:24:02 13.9 C 64 % 7.21 C
3071 20-05-2010 14:36:02 13.9 C 62 % 6.75 C
3072 20-05-2010 14:48:02 13.8 C 64 % 7.12 C
3073 20-05-2010 15:00:02 13.7 C 65 % 7.25 C
3074 20-05-2010 15:12:03 13.4 C 65 % 6.96 C
3075 20-05-2010 15:24:02 12 C 72 % 7.12 C
Sensor: Nr:Datum:Temp:Feuchte:Taupunkt:
Aussen-T/F 3076 20-05-2010 15:36:02 12.1 C 73 % 7.41 C
3077 20-05-2010 15:48:02 12.5 C 69 % 6.97 C
3078 20-05-2010 16:00:02 13.1 C 69 % 7.55 C
3079 20-05-2010 16:12:02 12.9 C 67 % 6.93 C
3080 20-05-2010 16:24:01 12.4 C 66 % 6.23 C
3081 20-05-2010 16:36:02 12.6 C 71 % 7.49 C
3082 20-05-2010 16:48:02 12.8 C 72 % 7.88 C
3083 20-05-2010 17:00:02 13.3 C 71 % 8.16 C
3084 20-05-2010 17:12:02 14.2 C 64 % 7.5 C
3085 20-05-2010 17:24:02 14 C 60 % 6.37 C
3086 20-05-2010 17:36:02 14.3 C 64 % 7.59 C
3087 20-05-2010 17:48:02 14.2 C 62 % 7.03 C
3088 20-05-2010 18:00:02 14.4 C 64 % 7.68 C
3089 20-05-2010 18:12:02 14.6 C 63 % 7.64 C
3090 20-05-2010 18:24:02 14.7 C 62 % 7.5 C
3091 20-05-2010 18:36:02 15 C 63 % 8.02 C
3092 20-05-2010 18:48:02 14.8 C 61 % 7.36 C
3093 20-05-2010 19:00:02 14.7 C 64 % 7.97 C
3094 20-05-2010 19:12:02 14.8 C 65 % 8.29 C
3095 20-05-2010 19:24:03 14.8 C 65 % 8.29 C
3096 20-05-2010 19:36:02 14.9 C 65 % 8.39 C
3097 20-05-2010 19:48:02 14.8 C 64 % 8.06 C
3098 20-05-2010 20:00:02 14.8 C 64 % 8.06 C
3099 20-05-2010 20:12:02 14.7 C 64 % 7.97 C
3100 20-05-2010 20:24:03 14.4 C 64 % 7.68 C
Sensor: Nr:Datum:Temp:Feuchte:Taupunkt:
Aussen-T/F 3101 20-05-2010 20:36:02 14.1 C 63 % 7.17 C
3102 20-05-2010 20:48:03 13.8 C 66 % 7.57 C
3103 20-05-2010 21:00:03 13.5 C 68 % 7.72 C
3104 20-05-2010 21:12:02 13.2 C 66 % 7 C
3105 20-05-2010 21:24:02 12.8 C 67 % 6.83 C
3106 20-05-2010 21:36:02 12.8 C 68 % 7.05 C
3107 20-05-2010 21:48:02 12.6 C 67 % 6.64 C
3108 20-05-2010 22:00:02 12.5 C 67 % 6.55 C
3109 20-05-2010 22:12:02 12.4 C 67 % 6.45 C
3110 20-05-2010 22:24:02 12.2 C 65 % 5.82 C
3111 20-05-2010 22:36:02 12.2 C 66 % 6.04 C
3112 20-05-2010 22:49:03 12.2 C 67 % 6.26 C
3113 20-05-2010 23:01:03 12.2 C 68 % 6.48 C
3114 20-05-2010 23:13:03 12.1 C 70 % 6.8 C
3115 20-05-2010 23:25:03 12.1 C 71 % 7.01 C
3116 20-05-2010 23:37:03 11.7 C 73 % 7.03 C
3117 20-05-2010 23:49:03 11.4 C 74 % 6.94 C
3118 21-05-2010 00:01:03 11.1 C 74 % 6.65 C
3119 21-05-2010 00:13:03 10.7 C 74 % 6.26 C
3120 21-05-2010 00:25:03 10.6 C 75 % 6.36 C
3121 21-05-2010 00:37:03 10.5 C 75 % 6.26 C
3122 21-05-2010 00:49:03 10.3 C 75 % 6.07 C
3123 21-05-2010 01:01:03 10.1 C 76 % 6.07 C
3124 21-05-2010 01:13:03 10.1 C 77 % 6.26 C
3125 21-05-2010 01:25:03 10.2 C 77 % 6.35 C
Sensor: Nr:Datum:Temp:Feuchte:Taupunkt:
Aussen-T/F 3126 21-05-2010 01:37:03 10.2 C 77 % 6.35 C
3127 21-05-2010 01:49:03 10.1 C 78 % 6.44 C
3128 21-05-2010 02:01:03 10 C 78 % 6.35 C
3129 21-05-2010 02:13:03 9.7 C 79 % 6.24 C
3130 21-05-2010 02:25:03 9.5 C 80 % 6.23 C
3131 21-05-2010 02:37:03 9.2 C 81 % 6.11 C
3132 21-05-2010 02:49:04 9.1 C 81 % 6.02 C
3133 21-05-2010 03:01:04 9 C 82 % 6.1 C
3134 21-05-2010 03:13:04 8.8 C 84 % 6.25 C
3135 21-05-2010 03:25:04 8.6 C 84 % 6.05 C
3136 21-05-2010 03:37:04 8.5 C 86 % 6.3 C
3137 21-05-2010 03:49:04 8.2 C 86 % 6 C
3138 21-05-2010 04:01:04 8.1 C 86 % 5.9 C
3139 21-05-2010 04:13:04 8 C 86 % 5.81 C
3140 21-05-2010 04:25:04 7.9 C 87 % 5.87 C
3141 21-05-2010 04:37:04 7.8 C 87 % 5.78 C
3142 21-05-2010 04:49:04 7.6 C 88 % 5.74 C
3143 21-05-2010 05:01:04 8.1 C 88 % 6.24 C
3144 21-05-2010 05:13:04 8.2 C 88 % 6.33 C
3145 21-05-2010 05:25:04 8.2 C 88 % 6.33 C
3146 21-05-2010 05:37:04 8.1 C 88 % 6.24 C
3147 21-05-2010 05:49:04 7.9 C 88 % 6.04 C
3148 21-05-2010 06:01:04 7.8 C 89 % 6.1 C
3149 21-05-2010 06:13:04 7.9 C 90 % 6.36 C
3150 21-05-2010 06:25:04 8 C 89 % 6.3 C
Sensor: Nr:Datum:Temp:Feuchte:Taupunkt:
Aussen-T/F 3151 21-05-2010 06:37:04 8.2 C 89 % 6.5 C
3152 21-05-2010 06:49:04 8.5 C 90 % 6.96 C
3153 21-05-2010 07:01:02 8.7 C 90 % 7.15 C
3154 21-05-2010 07:13:02 8.6 C 89 % 6.89 C
3155 21-05-2010 07:25:03 8.4 C 88 % 6.53 C
3156 21-05-2010 07:37:02 8.4 C 88 % 6.53 C
3157 21-05-2010 07:49:02 8.5 C 88 % 6.63 C
3158 21-05-2010 08:01:02 8.7 C 87 % 6.66 C
3159 21-05-2010 08:13:02 8.8 C 87 % 6.76 C
3160 21-05-2010 08:25:02 9.2 C 84 % 6.64 C
3161 21-05-2010 08:37:03 9.6 C 83 % 6.86 C
3162 21-05-2010 08:49:02 9.7 C 82 % 6.78 C
3163 21-05-2010 09:01:01 9.9 C 82 % 6.98 C
3164 21-05-2010 09:13:01 10.2 C 81 % 7.09 C
3165 21-05-2010 09:25:02 10.6 C 81 % 7.48 C
3166 21-05-2010 09:37:02 11.4 C 79 % 7.89 C
3167 21-05-2010 09:49:02 12 C 76 % 7.91 C
3168 21-05-2010 10:01:03 12.8 C 75 % 8.48 C
3169 21-05-2010 10:13:03 13.6 C 72 % 8.65 C
3170 21-05-2010 10:25:02 14.5 C 68 % 8.67 C
3171 21-05-2010 10:37:03 15.5 C 62 % 8.26 C
3172 21-05-2010 10:49:02 16.5 C 55 % 7.44 C
3173 21-05-2010 11:01:02 17.2 C 51 % 6.98 C
3174 21-05-2010 11:13:02 17.8 C 50 % 7.25 C
3175 21-05-2010 11:25:01 18.6 C 47 % 7.08 C
Sensor: Nr:Datum:Temp:Feuchte:Taupunkt:
Aussen-T/F 3176 21-05-2010 11:37:02 19.2 C 45 % 6.99 C
3177 21-05-2010 11:49:02 19.5 C 40 % 5.56 C
3178 21-05-2010 12:01:02 19.2 C 38 % 4.55 C
3179 21-05-2010 12:13:02 20.6 C 37 % 5.41 C
3180 21-05-2010 12:25:02 20.9 C 34 % 4.47 C
3181 21-05-2010 12:37:02 20.8 C 31 % 3.07 C
3182 21-05-2010 12:49:02 21.2 C 29 % 2.48 C
3183 21-05-2010 13:01:02 21.9 C 30 % 3.56 C
3184 21-05-2010 13:13:02 23.7 C 25 % 2.53 C
3185 21-05-2010 13:25:02 24.8 C 22 % 1.66 C
3186 21-05-2010 13:37:02 25.2 C 21 % 1.34 C
3187 21-05-2010 13:49:02 23.3 C 21 % -0.23 C
3188 21-05-2010 14:01:02 23.1 C 25 % 2.02 C
3189 21-05-2010 14:13:02 23.5 C 25 % 2.36 C
3190 21-05-2010 14:25:02 24.4 C 23 % 1.95 C
3191 21-05-2010 14:37:02 23.8 C 23 % 1.44 C
3192 21-05-2010 14:49:02 24.6 C 25 % 3.29 C
3193 21-05-2010 15:01:02 23.9 C 23 % 1.53 C
3194 21-05-2010 15:13:02 25.2 C 22 % 1.99 C
3195 21-05-2010 15:25:03 25.8 C 23 % 3.12 C
3196 21-05-2010 15:37:02 25.7 C 20 % 1.08 C
3197 21-05-2010 15:49:02 26.5 C 21 % 2.42 C
3198 21-05-2010 16:01:02 26.3 C 20 % 1.57 C
3199 21-05-2010 16:13:02 24.4 C 22 % 1.33 C
3200 21-05-2010 16:25:02 25.3 C 21 % 1.43 C
Sensor: Nr:Datum:Temp:Feuchte:Taupunkt:
Aussen-T/F 3201 21-05-2010 16:37:02 25 C 21 % 1.18 C
3202 21-05-2010 16:49:02 25.4 C 20 % 0.83 C
3203 21-05-2010 17:01:02 26.4 C 20 % 1.65 C
3204 21-05-2010 17:13:02 25.7 C 20 % 1.08 C
3205 21-05-2010 17:25:02 26.1 C 20 % 1.41 C
3206 21-05-2010 17:37:02 26.7 C 20 % 1.9 C
3207 21-05-2010 17:49:02 25.8 C 20 % 1.16 C
3208 21-05-2010 18:01:01 26.4 C 20 % 1.65 C
3209 21-05-2010 18:13:01 27 C 20 % 2.15 C
3210 21-05-2010 18:25:02 26.2 C 20 % 1.49 C
3211 21-05-2010 18:37:02 25.3 C 21 % 1.43 C
3212 21-05-2010 18:49:02 24.8 C 23 % 2.28 C
3213 21-05-2010 19:01:01 24.9 C 25 % 3.54 C
3214 21-05-2010 19:13:01 24.6 C 25 % 3.29 C
3215 21-05-2010 19:25:01 24.6 C 26 % 3.84 C
3216 21-05-2010 19:37:02 24.1 C 26 % 3.42 C
3217 21-05-2010 19:49:02 24 C 28 % 4.38 C
3218 21-05-2010 20:01:02 23.6 C 28 % 4.04 C
3219 21-05-2010 20:13:02 23.3 C 30 % 4.77 C
3220 21-05-2010 20:25:02 22.9 C 31 % 4.89 C
3221 21-05-2010 20:37:02 22.3 C 31 % 4.37 C
3222 21-05-2010 20:49:02 21.2 C 35 % 5.14 C
3223 21-05-2010 21:01:03 20.8 C 36 % 5.2 C
3224 21-05-2010 21:13:03 20.4 C 37 % 5.24 C
3225 21-05-2010 21:25:03 20 C 38 % 5.26 C
Sensor: Nr:Datum:Temp:Feuchte:Taupunkt:
Aussen-T/F 3226 21-05-2010 21:37:03 19.8 C 39 % 5.46 C
3227 21-05-2010 21:49:02 19.4 C 40 % 5.47 C
3228 21-05-2010 22:01:02 18.9 C 43 % 6.06 C
3229 21-05-2010 22:13:02 18.4 C 44 % 5.94 C
3230 21-05-2010 22:25:02 18.2 C 46 % 6.4 C
3231 21-05-2010 22:37:02 17.9 C 48 % 6.75 C
3232 21-05-2010 22:49:02 17 C 51 % 6.8 C
3233 21-05-2010 23:01:02 17 C 50 % 6.51 C
3234 21-05-2010 23:13:02 16.4 C 51 % 6.25 C
3235 21-05-2010 23:25:02 16.2 C 52 % 6.34 C
3236 21-05-2010 23:38:04 15.9 C 54 % 6.61 C
3237 21-05-2010 23:50:04 15.8 C 56 % 7.05 C
3238 22-05-2010 00:02:04 15.6 C 57 % 7.12 C
3239 22-05-2010 00:14:04 15.4 C 57 % 6.93 C
3240 22-05-2010 00:26:04 15.1 C 59 % 7.16 C
3241 22-05-2010 00:38:04 14.8 C 61 % 7.36 C
3242 22-05-2010 00:50:04 14.5 C 62 % 7.32 C
3243 22-05-2010 01:02:04 14.4 C 63 % 7.45 C
3244 22-05-2010 01:14:04 14.1 C 64 % 7.4 C
3245 22-05-2010 01:26:04 13.9 C 66 % 7.66 C
3246 22-05-2010 01:38:04 13.6 C 66 % 7.38 C
3247 22-05-2010 01:50:04 13.4 C 68 % 7.62 C
3248 22-05-2010 02:02:04 13.2 C 69 % 7.64 C
3249 22-05-2010 02:14:04 12.9 C 70 % 7.57 C
3250 22-05-2010 02:26:04 12.7 C 71 % 7.58 C
Sensor: Nr:Datum:Temp:Feuchte:Taupunkt:
Aussen-T/F 3251 22-05-2010 02:38:04 12.5 C 72 % 7.6 C
3252 22-05-2010 02:50:04 12.4 C 73 % 7.7 C
3253 22-05-2010 03:02:04 12.3 C 73 % 7.61 C
3254 22-05-2010 03:14:04 12.1 C 74 % 7.61 C
3255 22-05-2010 03:26:04 12 C 74 % 7.52 C
3256 22-05-2010 03:38:05 11.9 C 75 % 7.62 C
3257 22-05-2010 03:50:05 11.7 C 76 % 7.62 C
3258 22-05-2010 04:02:05 11.5 C 77 % 7.61 C
3259 22-05-2010 04:14:05 11.2 C 78 % 7.51 C
3260 22-05-2010 04:26:05 11 C 78 % 7.32 C
3261 22-05-2010 04:38:05 10.9 C 80 % 7.59 C
3262 22-05-2010 04:50:05 10.7 C 80 % 7.4 C
3263 22-05-2010 05:02:05 10.7 C 80 % 7.4 C
3264 22-05-2010 05:14:05 10.3 C 81 % 7.19 C
3265 22-05-2010 05:26:05 10.3 C 81 % 7.19 C
3266 22-05-2010 05:38:05 10.2 C 82 % 7.27 C
3267 22-05-2010 05:50:05 10 C 82 % 7.07 C
3268 22-05-2010 06:02:05 9.9 C 83 % 7.15 C
3269 22-05-2010 06:14:05 9.9 C 83 % 7.15 C
3270 22-05-2010 06:26:05 9.9 C 83 % 7.15 C
3271 22-05-2010 06:38:05 10.1 C 82 % 7.17 C
3272 22-05-2010 06:50:05 10 C 82 % 7.07 C
3273 22-05-2010 07:02:05 10.2 C 82 % 7.27 C
3274 22-05-2010 07:14:05 10.2 C 82 % 7.27 C
3275 22-05-2010 07:26:03 10.3 C 82 % 7.37 C
Sensor: Nr:Datum:Temp:Feuchte:Taupunkt:
Aussen-T/F 3276 22-05-2010 07:38:03 10.7 C 82 % 7.76 C
3277 22-05-2010 07:50:02 11.3 C 82 % 8.34 C
3278 22-05-2010 08:02:02 11.7 C 79 % 8.18 C
3279 22-05-2010 08:14:02 12 C 76 % 7.91 C
3280 22-05-2010 08:26:02 12.3 C 74 % 7.8 C
3281 22-05-2010 08:38:03 12.6 C 71 % 7.49 C
3282 22-05-2010 08:50:02 13 C 66 % 6.8 C
3283 22-05-2010 09:02:02 13.3 C 64 % 6.64 C
3284 22-05-2010 09:14:02 13.7 C 63 % 6.79 C
3285 22-05-2010 09:26:02 13.9 C 63 % 6.98 C
3286 22-05-2010 09:38:02 14.3 C 58 % 6.16 C
3287 22-05-2010 09:50:02 14.8 C 56 % 6.12 C
3288 22-05-2010 10:02:02 15.3 C 49 % 4.66 C
3289 22-05-2010 10:14:02 15.8 C 47 % 4.52 C
3290 22-05-2010 10:26:02 16 C 45 % 4.09 C
3291 22-05-2010 10:38:02 16.7 C 45 % 4.72 C
3292 22-05-2010 10:50:01 17 C 43 % 4.34 C
3293 22-05-2010 11:02:02 17.6 C 42 % 4.55 C
3294 22-05-2010 11:14:02 18 C 40 % 4.21 C
3295 22-05-2010 11:26:01 18.1 C 39 % 3.94 C
3296 22-05-2010 11:38:02 18.7 C 38 % 4.11 C
3297 22-05-2010 11:50:02 19.1 C 36 % 3.7 C
3298 22-05-2010 12:02:02 19.3 C 35 % 3.47 C
3299 22-05-2010 12:14:02 20.2 C 34 % 3.85 C
3300 22-05-2010 12:26:01 21.8 C 31 % 3.94 C
Sensor: Nr:Datum:Temp:Feuchte:Taupunkt:
Aussen-T/F 3301 22-05-2010 12:38:01 21.3 C 30 % 3.04 C
3302 22-05-2010 12:50:01 23.3 C 28 % 3.78 C
3303 22-05-2010 13:02:01 23.7 C 27 % 3.61 C
3304 22-05-2010 13:14:01 24.2 C 26 % 3.5 C
3305 22-05-2010 13:26:01 24.2 C 25 % 2.95 C
3306 22-05-2010 13:38:00 24.7 C 24 % 2.79 C
3307 22-05-2010 13:50:01 24.4 C 25 % 3.12 C
3308 22-05-2010 14:02:01 24 C 23 % 1.61 C
3309 22-05-2010 14:14:01 23.6 C 27 % 3.53 C
3310 22-05-2010 14:26:01 24 C 26 % 3.33 C
3311 22-05-2010 14:38:01 23.9 C 27 % 3.78 C
3312 22-05-2010 14:50:01 24.3 C 26 % 3.59 C
3313 22-05-2010 15:02:01 24.9 C 26 % 4.09 C
3314 22-05-2010 15:14:01 25.4 C 25 % 3.96 C
3315 22-05-2010 15:26:02 25.6 C 25 % 4.13 C
3316 22-05-2010 15:38:01 25.3 C 26 % 4.43 C
3317 22-05-2010 15:50:03 25.5 C 25 % 4.04 C
3318 22-05-2010 16:02:02 25.7 C 26 % 4.77 C
3319 22-05-2010 16:14:02 25.8 C 25 % 4.3 C
3320 22-05-2010 16:26:03 26.1 C 25 % 4.55 C
3321 22-05-2010 16:38:02 25.6 C 26 % 4.69 C
3322 22-05-2010 16:50:02 26.3 C 25 % 4.72 C
3323 22-05-2010 17:02:01 26.7 C 25 % 5.06 C
3324 22-05-2010 17:14:01 27 C 24 % 4.72 C
3325 22-05-2010 17:26:02 27.1 C 25 % 5.39 C
Sensor: Nr:Datum:Temp:Feuchte:Taupunkt:
Aussen-T/F 3326 22-05-2010 17:38:01 27.2 C 25 % 5.48 C
3327 22-05-2010 17:50:02 26.4 C 26 % 5.37 C
3328 22-05-2010 18:02:02 26.4 C 26 % 5.37 C
3329 22-05-2010 18:14:02 26.9 C 26 % 5.79 C
3330 22-05-2010 18:26:02 26.6 C 26 % 5.53 C
3331 22-05-2010 18:38:03 26.1 C 26 % 5.11 C
3332 22-05-2010 18:50:02 26.8 C 26 % 5.7 C
3333 22-05-2010 19:02:02 26.4 C 26 % 5.37 C
3334 22-05-2010 19:14:02 26.6 C 26 % 5.53 C
3335 22-05-2010 19:26:02 26.4 C 27 % 5.91 C
3336 22-05-2010 19:38:02 26.2 C 27 % 5.74 C
3337 22-05-2010 19:50:01 25.9 C 29 % 6.52 C
3338 22-05-2010 20:02:02 25.4 C 29 % 6.09 C
3339 22-05-2010 20:14:02 24.9 C 31 % 6.62 C
3340 22-05-2010 20:26:01 24.6 C 33 % 7.27 C
3341 22-05-2010 20:38:02 24.2 C 34 % 7.36 C
3342 22-05-2010 20:50:02 23.3 C 35 % 6.99 C
3343 22-05-2010 21:02:02 22.7 C 37 % 7.27 C
3344 22-05-2010 21:14:02 22 C 40 % 7.79 C
3345 22-05-2010 21:26:02 21.2 C 40 % 7.08 C
3346 22-05-2010 21:38:02 20.8 C 40 % 6.72 C
3347 22-05-2010 21:50:02 20.3 C 40 % 6.27 C
3348 22-05-2010 22:02:03 19.9 C 42 % 6.62 C
3349 22-05-2010 22:14:03 19.5 C 41 % 5.91 C
3350 22-05-2010 22:26:02 19.4 C 41 % 5.82 C
Sensor: Nr:Datum:Temp:Feuchte:Taupunkt:
Aussen-T/F 3351 22-05-2010 22:38:02 19.2 C 44 % 6.66 C
3352 22-05-2010 22:50:02 18.7 C 46 % 6.86 C
3353 22-05-2010 23:02:02 18.4 C 47 % 6.9 C
3354 22-05-2010 23:14:02 18.1 C 48 % 6.93 C
3355 22-05-2010 23:26:01 17.9 C 49 % 7.05 C
3356 22-05-2010 23:38:02 17.6 C 50 % 7.06 C
3357 22-05-2010 23:50:02 17.5 C 51 % 7.26 C
3358 23-05-2010 00:02:02 17.3 C 52 % 7.36 C
3359 23-05-2010 00:14:02 17.1 C 53 % 7.45 C
3360 23-05-2010 00:26:02 16.6 C 56 % 7.8 C
3361 23-05-2010 00:38:02 16.2 C 57 % 7.68 C
3362 23-05-2010 00:50:01 16 C 59 % 8 C
3363 23-05-2010 01:02:02 15.7 C 61 % 8.21 C
3364 23-05-2010 01:14:02 15.4 C 62 % 8.16 C
3365 23-05-2010 01:26:02 15.2 C 63 % 8.21 C
3366 23-05-2010 01:38:02 14.9 C 65 % 8.39 C
3367 23-05-2010 01:50:02 14.5 C 67 % 8.45 C
3368 23-05-2010 02:02:02 14.4 C 68 % 8.58 C
3369 23-05-2010 02:14:02 14.2 C 68 % 8.39 C
3370 23-05-2010 02:26:02 14.2 C 69 % 8.6 C
3371 23-05-2010 02:38:01 14 C 69 % 8.41 C
3372 23-05-2010 02:50:02 13.9 C 71 % 8.73 C
3373 23-05-2010 03:02:02 13.8 C 71 % 8.64 C
3374 23-05-2010 03:14:01 13.7 C 72 % 8.75 C
3375 23-05-2010 03:26:01 13.5 C 73 % 8.76 C
Sensor: Nr:Datum:Temp:Feuchte:Taupunkt:
Aussen-T/F 3376 23-05-2010 03:38:01 13.2 C 74 % 8.67 C
3377 23-05-2010 03:50:01 12.9 C 75 % 8.58 C
3378 23-05-2010 04:02:02 12.8 C 76 % 8.68 C
3379 23-05-2010 04:14:02 12.7 C 76 % 8.58 C
3380 23-05-2010 04:26:01 12.7 C 77 % 8.78 C
3381 23-05-2010 04:38:02 12.4 C 77 % 8.49 C
3382 23-05-2010 04:50:01 12.3 C 78 % 8.58 C
3383 23-05-2010 05:02:02 12.1 C 78 % 8.38 C
3384 23-05-2010 05:14:02 12 C 79 % 8.48 C
3385 23-05-2010 05:26:01 11.9 C 79 % 8.38 C
3386 23-05-2010 05:38:01 11.8 C 79 % 8.28 C
3387 23-05-2010 05:50:01 11.8 C 80 % 8.47 C
3388 23-05-2010 06:02:01 11.6 C 80 % 8.27 C
3389 23-05-2010 06:14:02 11.5 C 80 % 8.17 C
3390 23-05-2010 06:26:01 11.5 C 81 % 8.36 C
3391 23-05-2010 06:38:01 11.5 C 81 % 8.36 C
3392 23-05-2010 06:50:01 11.5 C 81 % 8.36 C
3393 23-05-2010 07:02:01 11.5 C 82 % 8.54 C
3394 23-05-2010 07:14:01 11.8 C 82 % 8.83 C
3395 23-05-2010 07:26:02 11.9 C 82 % 8.93 C
3396 23-05-2010 07:38:01 12.1 C 81 % 8.94 C
3397 23-05-2010 07:50:01 12.4 C 81 % 9.23 C
3398 23-05-2010 08:02:01 12.7 C 80 % 9.34 C
3399 23-05-2010 08:14:01 13.3 C 80 % 9.93 C
3400 23-05-2010 08:26:02 14 C 78 % 10.23 C
Sensor: Nr:Datum:Temp:Feuchte:Taupunkt:
Aussen-T/F 3401 23-05-2010 08:38:01 14.4 C 75 % 10.03 C
3402 23-05-2010 08:50:01 14.8 C 74 % 10.22 C
3403 23-05-2010 09:02:01 15.2 C 71 % 9.98 C
3404 23-05-2010 09:14:01 15.7 C 70 % 10.25 C
3405 23-05-2010 09:26:02 16.1 C 68 % 10.2 C
3406 23-05-2010 09:38:01 16.7 C 66 % 10.32 C
3407 23-05-2010 09:50:02 17.2 C 62 % 9.86 C
3408 23-05-2010 10:02:01 17.8 C 62 % 10.43 C
3409 23-05-2010 10:14:01 18.7 C 59 % 10.53 C
3410 23-05-2010 10:26:01 19.2 C 57 % 10.48 C
3411 23-05-2010 10:38:01 20 C 53 % 10.14 C
3412 23-05-2010 10:50:01 20.3 C 52 % 10.13 C
3413 23-05-2010 11:02:01 20.5 C 50 % 9.73 C
3414 23-05-2010 11:14:02 21.2 C 48 % 9.76 C
3415 23-05-2010 11:26:01 20.4 C 48 % 9.03 C
3416 23-05-2010 11:38:02 20.9 C 48 % 9.49 C
3417 23-05-2010 11:50:02 21.5 C 43 % 8.4 C
3418 23-05-2010 12:02:01 22.1 C 41 % 8.24 C
3419 23-05-2010 12:14:01 23.1 C 37 % 7.63 C
3420 23-05-2010 12:26:01 23.7 C 32 % 6.04 C
3421 23-05-2010 12:38:02 24.6 C 30 % 5.89 C
3422 23-05-2010 12:50:01 24.7 C 25 % 3.37 C
3423 23-05-2010 13:02:01 25.1 C 21 % 1.26 C
3424 23-05-2010 13:14:01 25.8 C 20 % 1.16 C
3425 23-05-2010 13:26:01 27.2 C 20 % 2.31 C
Sensor: Nr:Datum:Temp:Feuchte:Taupunkt:
Aussen-T/F 3426 23-05-2010 13:38:02 26.9 C 21 % 2.75 C
3427 23-05-2010 13:50:01 26.8 C 20 % 1.98 C
3428 23-05-2010 14:02:02 26.2 C 20 % 1.49 C
3429 23-05-2010 14:14:02 25.5 C 23 % 2.86 C
3430 23-05-2010 14:26:01 25.6 C 23 % 2.95 C
3431 23-05-2010 14:38:01 25.8 C 25 % 4.3 C
3432 23-05-2010 14:50:01 27.4 C 24 % 5.06 C
3433 23-05-2010 15:02:02 27.7 C 22 % 4.07 C
3434 23-05-2010 15:14:02 27.2 C 23 % 4.28 C
3435 23-05-2010 15:26:01 27.9 C 21 % 3.57 C
3436 23-05-2010 15:38:01 28.2 C 21 % 3.82 C
3437 23-05-2010 15:50:01 28.4 C 20 % 3.29 C
3438 23-05-2010 16:02:01 28.2 C 20 % 3.13 C
3439 23-05-2010 16:14:01 28.6 C 20 % 3.46 C
3440 23-05-2010 16:26:01 29 C 20 % 3.79 C
3441 23-05-2010 16:38:01 28.9 C 20 % 3.7 C
3442 23-05-2010 16:50:01 29 C 20 % 3.79 C
3443 23-05-2010 17:02:01 30.2 C 20 % 4.77 C
3444 23-05-2010 17:14:01 30.1 C 20 % 4.69 C
3445 23-05-2010 17:26:01 29.5 C 20 % 4.2 C
3446 23-05-2010 17:38:01 29.2 C 21 % 4.64 C
3447 23-05-2010 17:50:01 29.2 C 21 % 4.64 C
3448 23-05-2010 18:02:01 28.8 C 23 % 5.62 C
3449 23-05-2010 18:14:01 29.5 C 22 % 5.56 C
3450 23-05-2010 18:26:02 28.6 C 24 % 6.06 C
Sensor: Nr:Datum:Temp:Feuchte:Taupunkt:
Aussen-T/F 3451 23-05-2010 18:38:01 28.4 C 23 % 5.28 C
3452 23-05-2010 18:50:02 28.8 C 24 % 6.23 C
3453 23-05-2010 19:02:01 29.8 C 22 % 5.81 C
3454 23-05-2010 19:14:01 27.9 C 24 % 5.48 C
3455 23-05-2010 19:26:02 28.1 C 25 % 6.24 C
3456 23-05-2010 19:38:01 27.4 C 26 % 6.21 C
3457 23-05-2010 19:50:02 27.4 C 27 % 6.76 C
3458 23-05-2010 20:02:01 27.1 C 28 % 7.03 C
3459 23-05-2010 20:14:01 26.4 C 30 % 7.44 C
3460 23-05-2010 20:26:01 27.2 C 28 % 7.12 C
3461 23-05-2010 20:38:01 26.3 C 30 % 7.35 C
3462 23-05-2010 20:50:01 25.4 C 31 % 7.05 C
3463 23-05-2010 21:02:01 24.5 C 35 % 8.05 C
3464 23-05-2010 21:14:01 24.1 C 35 % 7.69 C
3465 23-05-2010 21:26:01 23.4 C 36 % 7.49 C
3466 23-05-2010 21:38:02 23.1 C 38 % 8.02 C
3467 23-05-2010 21:50:01 22.6 C 40 % 8.33 C
3468 23-05-2010 22:02:02 22.2 C 41 % 8.33 C
3469 23-05-2010 22:14:02 21.7 C 44 % 8.92 C
3470 23-05-2010 22:26:01 21.3 C 46 % 9.22 C
3471 23-05-2010 22:38:02 20.9 C 47 % 9.17 C
3472 23-05-2010 22:51:05 20.7 C 49 % 9.61 C
3473 23-05-2010 23:03:05 20.4 C 50 % 9.64 C
3474 23-05-2010 23:15:05 20 C 51 % 9.56 C
3475 23-05-2010 23:27:05 19.6 C 53 % 9.77 C
Sensor: Nr:Datum:Temp:Feuchte:Taupunkt:
Aussen-T/F 3476 23-05-2010 23:39:05 19.2 C 54 % 9.67 C
3477 23-05-2010 23:51:05 18.8 C 57 % 10.11 C
3478 24-05-2010 00:03:05 18.4 C 58 % 9.99 C
3479 24-05-2010 00:15:05 18 C 59 % 9.88 C
3480 24-05-2010 00:27:05 17.9 C 60 % 10.03 C
3481 24-05-2010 00:39:05 17.6 C 62 % 10.24 C
3482 24-05-2010 00:51:05 17.3 C 63 % 10.2 C
3483 24-05-2010 01:03:05 17.2 C 63 % 10.1 C
3484 24-05-2010 01:15:05 16.8 C 66 % 10.42 C
3485 24-05-2010 01:27:05 16.6 C 67 % 10.45 C
3486 24-05-2010 01:39:05 16.3 C 68 % 10.39 C
3487 24-05-2010 01:51:05 16 C 69 % 10.32 C
3488 24-05-2010 02:03:05 15.8 C 71 % 10.56 C
3489 24-05-2010 02:15:05 15.6 C 71 % 10.37 C
3490 24-05-2010 02:27:05 15.5 C 72 % 10.48 C
3491 24-05-2010 02:39:05 15.3 C 72 % 10.29 C
3492 24-05-2010 02:51:05 15.1 C 72 % 10.09 C
3493 24-05-2010 03:03:06 14.9 C 74 % 10.31 C
3494 24-05-2010 03:15:06 14.6 C 74 % 10.02 C
3495 24-05-2010 03:27:06 14.4 C 75 % 10.03 C
3496 24-05-2010 03:39:06 14.4 C 75 % 10.03 C
3497 24-05-2010 03:51:06 14.2 C 76 % 10.03 C
3498 24-05-2010 04:03:06 14 C 76 % 9.84 C
3499 24-05-2010 04:15:06 13.8 C 78 % 10.03 C
3500 24-05-2010 04:27:06 13.8 C 77 % 9.84 C
Sensor: Nr:Datum:Temp:Feuchte:Taupunkt:
Aussen-T/F 3501 24-05-2010 04:39:06 13.8 C 77 % 9.84 C
3502 24-05-2010 04:51:06 13.7 C 77 % 9.75 C
3503 24-05-2010 05:03:06 13.5 C 77 % 9.55 C
3504 24-05-2010 05:15:06 13.3 C 77 % 9.36 C
3505 24-05-2010 05:27:06 13 C 77 % 9.07 C
3506 24-05-2010 05:39:06 13 C 78 % 9.26 C
3507 24-05-2010 05:51:06 12.8 C 79 % 9.25 C
3508 24-05-2010 06:03:06 12.9 C 80 % 9.54 C
3509 24-05-2010 06:15:06 12.7 C 79 % 9.16 C
3510 24-05-2010 06:27:06 12.5 C 80 % 9.15 C
3511 24-05-2010 06:39:06 12.6 C 81 % 9.43 C
3512 24-05-2010 06:51:06 13 C 81 % 9.82 C
3513 24-05-2010 07:03:06 13.2 C 80 % 9.83 C
3514 24-05-2010 07:15:07 13.4 C 79 % 9.84 C
3515 24-05-2010 07:27:07 13.7 C 79 % 10.13 C
3516 24-05-2010 07:39:07 13.8 C 78 % 10.03 C
3517 24-05-2010 07:51:07 13.9 C 77 % 9.94 C
3518 24-05-2010 08:03:07 14.2 C 76 % 10.03 C
3519 24-05-2010 08:15:07 14.5 C 76 % 10.32 C
3520 24-05-2010 08:27:07 14.8 C 75 % 10.42 C
3521 24-05-2010 08:39:05 15.2 C 74 % 10.6 C
3522 24-05-2010 08:51:02 15.7 C 73 % 10.88 C
3523 24-05-2010 09:03:02 16.3 C 70 % 10.82 C
3524 24-05-2010 09:15:02 17 C 68 % 11.06 C
3525 24-05-2010 09:27:02 17.5 C 66 % 11.08 C
Sensor: Nr:Datum:Temp:Feuchte:Taupunkt:
Aussen-T/F 3526 24-05-2010 09:39:02 18.3 C 63 % 11.14 C
3527 24-05-2010 09:51:02 19 C 59 % 10.81 C
3528 24-05-2010 10:03:02 19.7 C 58 % 11.21 C
3529 24-05-2010 10:15:02 20.4 C 54 % 10.79 C
3530 24-05-2010 10:27:02 21.3 C 52 % 11.05 C
3531 24-05-2010 10:39:02 21.7 C 48 % 10.22 C
3532 24-05-2010 10:51:02 22.4 C 46 % 10.22 C
3533 24-05-2010 11:03:02 22.9 C 45 % 10.34 C
3534 24-05-2010 11:15:01 23.3 C 41 % 9.32 C
3535 24-05-2010 11:27:01 23.8 C 41 % 9.76 C
3536 24-05-2010 11:39:02 24.2 C 39 % 9.38 C
3537 24-05-2010 11:51:02 24.9 C 38 % 9.61 C
3538 24-05-2010 12:03:02 25.7 C 35 % 9.1 C
3539 24-05-2010 12:15:02 25.4 C 31 % 7.05 C
3540 24-05-2010 12:27:02 25.8 C 30 % 6.92 C
3541 24-05-2010 12:39:02 26.6 C 25 % 4.97 C
3542 24-05-2010 12:51:02 27.4 C 26 % 6.21 C
3543 24-05-2010 13:03:02 26.9 C 25 % 5.22 C
3544 24-05-2010 13:15:02 27 C 25 % 5.31 C
3545 24-05-2010 13:27:02 27.1 C 26 % 5.96 C
3546 24-05-2010 13:39:02 27 C 25 % 5.31 C
3547 24-05-2010 13:51:02 26.5 C 26 % 5.45 C
3548 24-05-2010 14:03:02 27 C 25 % 5.31 C
3549 24-05-2010 14:15:02 27.2 C 25 % 5.48 C
3550 24-05-2010 14:27:02 28.4 C 24 % 5.9 C
Sensor: Nr:Datum:Temp:Feuchte:Taupunkt:
Aussen-T/F 3551 24-05-2010 14:39:02 28.8 C 21 % 4.32 C
3552 24-05-2010 14:51:01 30 C 21 % 5.3 C
3553 24-05-2010 15:03:02 29.1 C 21 % 4.56 C
3554 24-05-2010 15:15:02 28.1 C 23 % 5.03 C
3555 24-05-2010 15:27:02 27.6 C 25 % 5.81 C
3556 24-05-2010 15:39:02 28.3 C 23 % 5.2 C
3557 24-05-2010 15:51:02 27.8 C 25 % 5.98 C
3558 24-05-2010 16:03:02 27.3 C 26 % 6.13 C
3559 24-05-2010 16:15:02 27.3 C 25 % 5.56 C
3560 24-05-2010 16:27:02 27.3 C 25 % 5.56 C
3561 24-05-2010 16:39:01 27.7 C 24 % 5.31 C
3562 24-05-2010 16:51:02 28.5 C 22 % 4.73 C
3563 24-05-2010 17:03:01 28.5 C 22 % 4.73 C
3564 24-05-2010 17:15:02 28.1 C 20 % 3.05 C
3565 24-05-2010 17:27:02 27.9 C 20 % 2.88 C
3566 24-05-2010 17:39:01 27.9 C 21 % 3.57 C
3567 24-05-2010 17:51:03 28.6 C 20 % 3.46 C
3568 24-05-2010 18:03:02 27.8 C 21 % 3.49 C
3569 24-05-2010 18:15:02 28 C 20 % 2.97 C
3570 24-05-2010 18:27:03 29.2 C 20 % 3.95 C
3571 24-05-2010 18:39:02 28.8 C 20 % 3.62 C
3572 24-05-2010 18:51:02 29.1 C 20 % 3.87 C
3573 24-05-2010 19:03:02 29.2 C 20 % 3.95 C
3574 24-05-2010 19:15:02 28.4 C 20 % 3.29 C
3575 24-05-2010 19:27:02 28.4 C 21 % 3.99 C
Sensor: Nr:Datum:Temp:Feuchte:Taupunkt:
Aussen-T/F 3576 24-05-2010 19:39:02 27.9 C 21 % 3.57 C
3577 24-05-2010 19:51:02 27.9 C 22 % 4.23 C
3578 24-05-2010 20:03:01 27.5 C 24 % 5.14 C
3579 24-05-2010 20:15:02 27.4 C 25 % 5.65 C
3580 24-05-2010 20:27:02 27.2 C 25 % 5.48 C
3581 24-05-2010 20:39:01 25.8 C 27 % 5.4 C
3582 24-05-2010 20:51:02 25.3 C 30 % 6.49 C
3583 24-05-2010 21:03:01 24.7 C 31 % 6.45 C
3584 24-05-2010 21:15:02 24.1 C 32 % 6.39 C
3585 24-05-2010 21:27:02 23.7 C 35 % 7.34 C
3586 24-05-2010 21:39:01 23.3 C 35 % 6.99 C
3587 24-05-2010 21:51:02 23.1 C 35 % 6.82 C
3588 24-05-2010 22:03:03 22.7 C 37 % 7.27 C
3589 24-05-2010 22:15:02 22.3 C 39 % 7.69 C
3590 24-05-2010 22:27:02 21.9 C 41 % 8.06 C
3591 24-05-2010 22:39:02 21.5 C 43 % 8.4 C
3592 24-05-2010 22:52:03 20.9 C 46 % 8.86 C
3593 24-05-2010 23:04:03 20.5 C 47 % 8.81 C
3594 24-05-2010 23:16:03 20.2 C 47 % 8.54 C
3595 24-05-2010 23:28:03 19.7 C 49 % 8.7 C
3596 24-05-2010 23:40:03 19.6 C 49 % 8.6 C
3597 24-05-2010 23:52:03 19.3 C 50 % 8.63 C
3598 25-05-2010 00:04:03 19.1 C 51 % 8.73 C
3599 25-05-2010 00:16:04 18.7 C 53 % 8.93 C
3600 25-05-2010 00:28:04 18.5 C 54 % 9.03 C
Sensor: Nr:Datum:Temp:Feuchte:Taupunkt:
Aussen-T/F 3601 25-05-2010 00:40:04 18.2 C 55 % 9.02 C
3602 25-05-2010 00:52:04 18 C 57 % 9.36 C
3603 25-05-2010 01:04:04 17.8 C 58 % 9.43 C
3604 25-05-2010 01:16:04 17.5 C 59 % 9.41 C
3605 25-05-2010 01:28:04 17.2 C 60 % 9.37 C
3606 25-05-2010 01:40:04 16.8 C 63 % 9.72 C
3607 25-05-2010 01:52:04 16.6 C 63 % 9.53 C
3608 25-05-2010 02:04:04 16.2 C 65 % 9.62 C
3609 25-05-2010 02:16:04 16.1 C 65 % 9.53 C
3610 25-05-2010 02:28:04 16 C 65 % 9.43 C
3611 25-05-2010 02:40:04 15.9 C 66 % 9.56 C
3612 25-05-2010 02:52:04 15.8 C 67 % 9.69 C
3613 25-05-2010 03:04:04 15.5 C 68 % 9.63 C
3614 25-05-2010 03:16:04 15.2 C 70 % 9.77 C
3615 25-05-2010 03:28:04 14.8 C 72 % 9.81 C
3616 25-05-2010 03:40:04 14.7 C 73 % 9.92 C
3617 25-05-2010 03:52:04 14.6 C 73 % 9.82 C
3618 25-05-2010 04:04:04 14.6 C 73 % 9.82 C
3619 25-05-2010 04:16:04 14.5 C 74 % 9.93 C
3620 25-05-2010 04:28:04 14.1 C 75 % 9.74 C
3621 25-05-2010 04:40:05 13.8 C 77 % 9.84 C
3622 25-05-2010 04:52:05 13.9 C 77 % 9.94 C
3623 25-05-2010 05:04:05 14.1 C 76 % 9.94 C
3624 25-05-2010 05:16:05 14 C 75 % 9.64 C
3625 25-05-2010 05:28:05 13.8 C 76 % 9.65 C
Sensor: Nr:Datum:Temp:Feuchte:Taupunkt:
Aussen-T/F 3626 25-05-2010 05:40:05 13.8 C 77 % 9.84 C
3627 25-05-2010 05:52:05 13.8 C 76 % 9.65 C
3628 25-05-2010 06:04:05 14 C 76 % 9.84 C
3629 25-05-2010 06:16:05 14.1 C 75 % 9.74 C
3630 25-05-2010 06:28:05 14.5 C 75 % 10.13 C
3631 25-05-2010 06:40:05 15 C 72 % 10 C
3632 25-05-2010 06:52:05 15.3 C 71 % 10.08 C
3633 25-05-2010 07:04:05 15.4 C 70 % 9.96 C
3634 25-05-2010 07:16:05 15.5 C 68 % 9.63 C
3635 25-05-2010 07:28:06 15.6 C 69 % 9.94 C
3636 25-05-2010 07:40:06 15.6 C 68 % 9.72 C
3637 25-05-2010 07:52:06 15.9 C 68 % 10.01 C
3638 25-05-2010 08:04:06 16.1 C 67 % 9.98 C
3639 25-05-2010 08:16:06 16.2 C 66 % 9.85 C
3640 25-05-2010 08:28:06 16.5 C 64 % 9.67 C
3641 25-05-2010 08:40:03 17.2 C 63 % 10.1 C
3642 25-05-2010 08:52:01 17.9 C 60 % 10.03 C
3643 25-05-2010 09:04:02 18.1 C 57 % 9.46 C
3644 25-05-2010 09:16:01 18.2 C 54 % 8.75 C
3645 25-05-2010 09:28:01 18.5 C 52 % 8.47 C
3646 25-05-2010 09:40:02 18.9 C 46 % 7.04 C
3647 25-05-2010 09:52:02 19.4 C 43 % 6.51 C
3648 25-05-2010 10:04:02 19.8 C 41 % 6.18 C
3649 25-05-2010 10:16:01 20.2 C 40 % 6.18 C
3650 25-05-2010 10:28:01 20.9 C 38 % 6.06 C
Sensor: Nr:Datum:Temp:Feuchte:Taupunkt:
Aussen-T/F 3651 25-05-2010 10:40:02 21.2 C 36 % 5.55 C
3652 25-05-2010 10:52:02 21 C 36 % 5.37 C
3653 25-05-2010 11:04:02 21.2 C 35 % 5.14 C
3654 25-05-2010 11:16:02 21.2 C 38 % 6.33 C
3655 25-05-2010 11:28:02 21.2 C 34 % 4.73 C
3656 25-05-2010 11:40:02 21.8 C 33 % 4.83 C
3657 25-05-2010 11:52:02 22.8 C 30 % 4.34 C
3658 25-05-2010 12:04:01 22.6 C 27 % 2.67 C
3659 25-05-2010 12:16:01 23.7 C 27 % 3.61 C
3660 25-05-2010 12:28:01 23.5 C 27 % 3.44 C
3661 25-05-2010 12:40:02 24 C 25 % 2.78 C
3662 25-05-2010 12:52:02 25.9 C 25 % 4.38 C
3663 25-05-2010 13:04:01 25.5 C 22 % 2.24 C
3664 25-05-2010 13:16:02 26.2 C 22 % 2.82 C
3665 25-05-2010 13:28:02 27.3 C 20 % 2.39 C
3666 25-05-2010 13:40:01 27.8 C 20 % 2.8 C
3667 25-05-2010 13:52:02 26.8 C 21 % 2.67 C
3668 25-05-2010 14:04:01 25.3 C 22 % 2.07 C
3669 25-05-2010 14:16:02 26.1 C 23 % 3.37 C
3670 25-05-2010 14:28:03 26.5 C 23 % 3.7 C
3671 25-05-2010 14:40:01 26.7 C 23 % 3.87 C
3672 25-05-2010 14:52:02 27 C 21 % 2.83 C
3673 25-05-2010 15:04:02 27.4 C 23 % 4.45 C
3674 25-05-2010 15:16:02 26.3 C 23 % 3.53 C
3675 25-05-2010 15:28:02 26.6 C 23 % 3.78 C
Sensor: Nr:Datum:Temp:Feuchte:Taupunkt:
Aussen-T/F 3676 25-05-2010 15:40:02 26.5 C 22 % 3.07 C
3677 25-05-2010 15:52:02 27.7 C 21 % 3.41 C
3678 25-05-2010 16:04:02 28.1 C 20 % 3.05 C
3679 25-05-2010 16:16:01 27.6 C 22 % 3.98 C
3680 25-05-2010 16:28:01 27.9 C 22 % 4.23 C
3681 25-05-2010 16:40:02 27.9 C 23 % 4.87 C
3682 25-05-2010 16:52:02 28.1 C 21 % 3.74 C
3683 25-05-2010 17:04:02 28.7 C 22 % 4.9 C
3684 25-05-2010 17:16:02 27.5 C 22 % 3.9 C
3685 25-05-2010 17:28:02 28.6 C 21 % 4.15 C
3686 25-05-2010 17:40:02 28.1 C 22 % 4.4 C
3687 25-05-2010 17:52:02 27.4 C 23 % 4.45 C
3688 25-05-2010 18:04:02 27.2 C 23 % 4.28 C
3689 25-05-2010 18:16:02 26 C 22 % 2.66 C
3690 25-05-2010 18:28:02 27 C 22 % 3.49 C
3691 25-05-2010 18:40:02 25.8 C 24 % 3.72 C
3692 25-05-2010 18:52:02 25.6 C 24 % 3.55 C
3693 25-05-2010 19:04:02 25.2 C 25 % 3.79 C
3694 25-05-2010 19:16:02 25.2 C 25 % 3.79 C
3695 25-05-2010 19:28:02 24 C 27 % 3.87 C
3696 25-05-2010 19:40:02 24.2 C 27 % 4.04 C
3697 25-05-2010 19:52:02 23.7 C 29 % 4.63 C
3698 25-05-2010 20:04:02 23.5 C 29 % 4.45 C
3699 25-05-2010 20:16:03 23.2 C 30 % 4.68 C
3700 25-05-2010 20:28:03 22.8 C 31 % 4.8 C
Sensor: Nr:Datum:Temp:Feuchte:Taupunkt:
Aussen-T/F 3701 25-05-2010 20:40:02 22.5 C 31 % 4.54 C
3702 25-05-2010 20:52:02 22.2 C 32 % 4.74 C
3703 25-05-2010 21:04:02 22 C 33 % 5 C
3704 25-05-2010 21:16:02 21.7 C 36 % 5.99 C
3705 25-05-2010 21:28:02 21.2 C 38 % 6.33 C
3706 25-05-2010 21:40:02 20.7 C 40 % 6.63 C
3707 25-05-2010 21:52:02 20.3 C 39 % 5.9 C
3708 25-05-2010 22:04:02 19.7 C 40 % 5.73 C
3709 25-05-2010 22:16:02 19.5 C 41 % 5.91 C
3710 25-05-2010 22:28:02 19.3 C 42 % 6.08 C
3711 25-05-2010 22:41:48 19.4 C 42 % 6.17 C
3712 25-05-2010 22:53:48 19.3 C 41 % 5.73 C
3713 25-05-2010 23:05:48 19.1 C 40 % 5.2 C
3714 25-05-2010 23:17:48 18.8 C 42 % 5.63 C
3715 25-05-2010 23:29:48 18.8 C 44 % 6.3 C
3716 25-05-2010 23:41:48 18.7 C 43 % 5.88 C
3717 25-05-2010 23:53:48 18.8 C 43 % 5.97 C
3718 26-05-2010 00:05:48 18.9 C 42 % 5.72 C
3719 26-05-2010 00:17:48 18.7 C 42 % 5.54 C
3720 26-05-2010 00:29:48 18.5 C 43 % 5.7 C
3721 26-05-2010 00:41:48 18.3 C 40 % 4.48 C
3722 26-05-2010 00:53:48 18.2 C 40 % 4.39 C
3723 26-05-2010 01:05:48 18.1 C 39 % 3.94 C
3724 26-05-2010 01:17:49 18.1 C 39 % 3.94 C
3725 26-05-2010 01:29:49 17.9 C 42 % 4.82 C
Sensor: Nr:Datum:Temp:Feuchte:Taupunkt:
Aussen-T/F 3726 26-05-2010 01:41:49 15.8 C 58 % 7.56 C
3727 26-05-2010 01:53:49 14.4 C 64 % 7.68 C
3728 26-05-2010 02:05:49 14.2 C 68 % 8.39 C
3729 26-05-2010 02:17:49 14.6 C 67 % 8.55 C
3730 26-05-2010 02:29:49 14.6 C 67 % 8.55 C
3731 26-05-2010 02:41:49 14.3 C 71 % 9.12 C
3732 26-05-2010 02:53:49 14.4 C 73 % 9.63 C
3733 26-05-2010 03:05:49 14.4 C 72 % 9.42 C
3734 26-05-2010 03:17:50 14.5 C 69 % 8.89 C
3735 26-05-2010 03:29:50 14.8 C 67 % 8.74 C
3736 26-05-2010 03:41:50 14.7 C 65 % 8.2 C
3737 26-05-2010 03:53:50 14.6 C 64 % 7.87 C
3738 26-05-2010 04:05:50 14.8 C 62 % 7.6 C
3739 26-05-2010 04:17:50 14.7 C 62 % 7.5 C
3740 26-05-2010 04:29:50 14.7 C 61 % 7.27 C
3741 26-05-2010 04:41:50 14.7 C 60 % 7.03 C
3742 26-05-2010 04:53:50 14.7 C 60 % 7.03 C
3743 26-05-2010 05:05:50 14.7 C 58 % 6.53 C
3744 26-05-2010 05:17:50 14.7 C 59 % 6.78 C
3745 26-05-2010 05:29:50 14.7 C 58 % 6.53 C
3746 26-05-2010 05:41:50 14.7 C 59 % 6.78 C
3747 26-05-2010 05:53:50 14.5 C 59 % 6.59 C
3748 26-05-2010 06:05:50 14.7 C 60 % 7.03 C
3749 26-05-2010 06:17:51 14.7 C 61 % 7.27 C
3750 26-05-2010 06:29:51 14.5 C 63 % 7.55 C
Sensor: Nr:Datum:Temp:Feuchte:Taupunkt:
Aussen-T/F 3751 26-05-2010 06:41:51 14.7 C 64 % 7.97 C
3752 26-05-2010 06:53:51 14.8 C 62 % 7.6 C
3753 26-05-2010 07:05:03 15 C 56 % 6.3 C
3754 26-05-2010 07:17:02 15.4 C 52 % 5.61 C
3755 26-05-2010 07:29:02 15.8 C 48 % 4.82 C
3756 26-05-2010 07:41:03 16 C 46 % 4.4 C
3757 26-05-2010 07:53:02 16.2 C 47 % 4.89 C
3758 26-05-2010 08:05:02 16 C 47 % 4.71 C
3759 26-05-2010 08:17:02 15.9 C 47 % 4.61 C
3760 26-05-2010 08:29:02 15.8 C 47 % 4.52 C
3761 26-05-2010 08:41:02 15.9 C 49 % 5.21 C
3762 26-05-2010 08:53:02 16.2 C 47 % 4.89 C
3763 26-05-2010 09:05:02 16.9 C 45 % 4.9 C
3764 26-05-2010 09:17:02 17.1 C 42 % 4.1 C
3765 26-05-2010 09:29:02 17 C 43 % 4.34 C
3766 26-05-2010 09:41:01 16.4 C 48 % 5.37 C
3767 26-05-2010 09:53:02 16 C 50 % 5.59 C
3768 26-05-2010 10:05:01 16.4 C 47 % 5.07 C
3769 26-05-2010 10:17:02 15.8 C 55 % 6.79 C
3770 26-05-2010 10:29:02 15.1 C 62 % 7.88 C
3771 26-05-2010 10:41:02 14.1 C 73 % 9.34 C
3772 26-05-2010 10:53:02 14.2 C 77 % 10.23 C
3773 26-05-2010 11:05:02 13.4 C 79 % 9.84 C
3774 26-05-2010 11:17:02 12.9 C 83 % 10.09 C
3775 26-05-2010 11:29:02 13.2 C 84 % 10.56 C
Sensor: Nr:Datum:Temp:Feuchte:Taupunkt:
Aussen-T/F 3776 26-05-2010 11:41:02 13.3 C 85 % 10.83 C
3777 26-05-2010 11:53:01 13.4 C 86 % 11.11 C
3778 26-05-2010 12:05:02 13.2 C 86 % 10.91 C
3779 26-05-2010 12:17:01 13.3 C 86 % 11.01 C
3780 26-05-2010 12:29:01 13.2 C 86 % 10.91 C
3781 26-05-2010 12:41:01 12.8 C 87 % 10.69 C
3782 26-05-2010 12:53:01 13 C 87 % 10.89 C
3783 26-05-2010 13:05:02 12.8 C 87 % 10.69 C
3784 26-05-2010 13:17:02 13.2 C 88 % 11.26 C
3785 26-05-2010 13:29:02 12.8 C 87 % 10.69 C
3786 26-05-2010 13:41:01 12.6 C 86 % 10.32 C
3787 26-05-2010 13:53:01 13 C 86 % 10.72 C
3788 26-05-2010 14:05:01 13.9 C 82 % 10.88 C
3789 26-05-2010 14:17:02 15.2 C 78 % 11.39 C
3790 26-05-2010 14:29:02 15.8 C 73 % 10.97 C
3791 26-05-2010 14:41:01 15.6 C 71 % 10.37 C
3792 26-05-2010 14:53:03 15.5 C 71 % 10.27 C
3793 26-05-2010 15:05:02 15.4 C 71 % 10.17 C
3794 26-05-2010 15:17:02 14.5 C 76 % 10.32 C
3795 26-05-2010 15:29:02 14.1 C 79 % 10.52 C
3796 26-05-2010 15:41:02 14.4 C 81 % 11.18 C
3797 26-05-2010 15:53:02 15.4 C 82 % 12.35 C
3798 26-05-2010 16:05:01 17.8 C 74 % 13.11 C
3799 26-05-2010 16:17:02 19.4 C 67 % 13.12 C
3800 26-05-2010 16:29:02 20.3 C 61 % 12.54 C
Sensor: Nr:Datum:Temp:Feuchte:Taupunkt:
Aussen-T/F 3801 26-05-2010 16:41:02 18.8 C 62 % 11.37 C
3802 26-05-2010 16:53:02 18.5 C 63 % 11.33 C
3803 26-05-2010 17:05:03 16.8 C 74 % 12.14 C
3804 26-05-2010 17:17:02 16.2 C 78 % 12.36 C
3805 26-05-2010 17:29:02 15.6 C 84 % 12.91 C
3806 26-05-2010 17:41:02 16.2 C 86 % 13.86 C
3807 26-05-2010 17:53:02 17.1 C 86 % 14.74 C
3808 26-05-2010 18:05:02 16.1 C 84 % 13.4 C
3809 26-05-2010 18:17:02 15.5 C 87 % 13.35 C
3810 26-05-2010 18:29:02 17 C 88 % 15 C
3811 26-05-2010 18:41:01 18.7 C 87 % 16.49 C
3812 26-05-2010 18:53:02 18.8 C 85 % 16.23 C
3813 26-05-2010 19:05:01 19.1 C 81 % 15.76 C
3814 26-05-2010 19:17:01 19.2 C 80 % 15.67 C
3815 26-05-2010 19:29:01 19.2 C 79 % 15.47 C
3816 26-05-2010 19:41:02 19.3 C 77 % 15.17 C
3817 26-05-2010 19:53:02 18.1 C 77 % 14.01 C
3818 26-05-2010 20:05:02 17.2 C 80 % 13.72 C
3819 26-05-2010 20:17:02 17.2 C 81 % 13.91 C
3820 26-05-2010 20:29:02 17 C 82 % 13.91 C
3821 26-05-2010 20:41:02 16.7 C 83 % 13.8 C
3822 26-05-2010 20:53:02 16.2 C 84 % 13.5 C
3823 26-05-2010 21:05:03 16.1 C 85 % 13.58 C
3824 26-05-2010 21:17:02 16 C 86 % 13.66 C
3825 26-05-2010 21:29:02 15.7 C 82 % 12.64 C
Sensor: Nr:Datum:Temp:Feuchte:Taupunkt:
Aussen-T/F 3826 26-05-2010 21:41:03 14.6 C 79 % 11 C
3827 26-05-2010 21:53:02 13.6 C 78 % 9.84 C
3828 26-05-2010 22:05:02 13.1 C 78 % 9.36 C
3829 26-05-2010 22:18:04 13.1 C 79 % 9.54 C
3830 26-05-2010 22:30:04 12.9 C 80 % 9.54 C
3831 26-05-2010 22:42:04 12.6 C 78 % 8.87 C
3832 26-05-2010 22:54:04 12.6 C 78 % 8.87 C
3833 26-05-2010 23:06:04 12.7 C 80 % 9.34 C
3834 26-05-2010 23:18:04 12.5 C 77 % 8.58 C
3835 26-05-2010 23:30:04 12.4 C 76 % 8.29 C
3836 26-05-2010 23:42:05 12.5 C 77 % 8.58 C
3837 26-05-2010 23:54:05 12.5 C 76 % 8.39 C
3838 27-05-2010 00:06:05 12.5 C 77 % 8.58 C
3839 27-05-2010 00:18:05 12.4 C 77 % 8.49 C
3840 27-05-2010 00:30:05 12.4 C 77 % 8.49 C
3841 27-05-2010 00:42:05 12.3 C 77 % 8.39 C
3842 27-05-2010 00:54:05 12.2 C 77 % 8.29 C
3843 27-05-2010 01:06:05 12.3 C 76 % 8.2 C
3844 27-05-2010 01:18:05 12.2 C 76 % 8.1 C
3845 27-05-2010 01:30:05 11.7 C 76 % 7.62 C
3846 27-05-2010 01:42:05 11.8 C 78 % 8.09 C
3847 27-05-2010 01:54:05 11.5 C 79 % 7.99 C
3848 27-05-2010 02:06:05 11.4 C 80 % 8.08 C
3849 27-05-2010 02:18:05 11.3 C 80 % 7.98 C
3850 27-05-2010 02:30:05 11.2 C 79 % 7.7 C
Sensor: Nr:Datum:Temp:Feuchte:Taupunkt:
Aussen-T/F 3851 27-05-2010 02:42:05 11.2 C 80 % 7.88 C
3852 27-05-2010 02:54:05 11.1 C 80 % 7.79 C
3853 27-05-2010 03:06:05 11.1 C 80 % 7.79 C
3854 27-05-2010 03:18:05 11.3 C 79 % 7.8 C
3855 27-05-2010 03:30:05 11.2 C 79 % 7.7 C
3856 27-05-2010 03:42:05 11.2 C 78 % 7.51 C
3857 27-05-2010 03:54:05 11 C 78 % 7.32 C
3858 27-05-2010 04:06:06 11 C 79 % 7.5 C
3859 27-05-2010 04:18:06 11 C 79 % 7.5 C
3860 27-05-2010 04:30:06 10.9 C 79 % 7.41 C
3861 27-05-2010 04:42:06 10.8 C 79 % 7.31 C
3862 27-05-2010 04:54:06 10.7 C 79 % 7.21 C
3863 27-05-2010 05:06:06 10.7 C 79 % 7.21 C
3864 27-05-2010 05:18:06 10.7 C 79 % 7.21 C
3865 27-05-2010 05:30:06 10.7 C 79 % 7.21 C
3866 27-05-2010 05:42:06 10.8 C 79 % 7.31 C
3867 27-05-2010 05:54:06 10.8 C 79 % 7.31 C
3868 27-05-2010 06:06:06 10.8 C 79 % 7.31 C
3869 27-05-2010 06:18:06 10.9 C 79 % 7.41 C
3870 27-05-2010 06:30:06 11.1 C 78 % 7.41 C
3871 27-05-2010 06:42:03 11.1 C 78 % 7.41 C
3872 27-05-2010 06:54:02 11.1 C 78 % 7.41 C
3873 27-05-2010 07:06:02 11.1 C 79 % 7.6 C
3874 27-05-2010 07:18:03 11.2 C 78 % 7.51 C
3875 27-05-2010 07:30:03 11.4 C 77 % 7.52 C
Sensor: Nr:Datum:Temp:Feuchte:Taupunkt:
Aussen-T/F 3876 27-05-2010 07:42:02 11.5 C 78 % 7.8 C
3877 27-05-2010 07:54:03 11.3 C 78 % 7.61 C
3878 27-05-2010 08:06:02 11.4 C 79 % 7.89 C
3879 27-05-2010 08:18:02 11.7 C 78 % 8 C
3880 27-05-2010 08:30:03 11.7 C 78 % 8 C
3881 27-05-2010 08:42:02 12 C 76 % 7.91 C
3882 27-05-2010 08:54:02 11.8 C 74 % 7.32 C
3883 27-05-2010 09:06:01 12 C 74 % 7.52 C
3884 27-05-2010 09:18:02 11.9 C 73 % 7.22 C
3885 27-05-2010 09:30:02 11.8 C 74 % 7.32 C
3886 27-05-2010 09:42:01 12.2 C 73 % 7.51 C
3887 27-05-2010 09:54:02 12.2 C 71 % 7.1 C
3888 27-05-2010 10:06:02 12.4 C 70 % 7.09 C
3889 27-05-2010 10:18:02 13 C 68 % 7.24 C
3890 27-05-2010 10:30:02 13.2 C 66 % 7 C
3891 27-05-2010 10:42:03 13.4 C 65 % 6.96 C
3892 27-05-2010 10:54:02 13.2 C 63 % 6.32 C
3893 27-05-2010 11:06:02 14.1 C 59 % 6.22 C
3894 27-05-2010 11:18:01 14.6 C 57 % 6.19 C
3895 27-05-2010 11:30:01 14.4 C 58 % 6.25 C
3896 27-05-2010 11:42:02 15 C 53 %